OE1342 / OE-IBJ 7700 Squawk Report (6th of December, 2019)

Aircraft A320 Reg No. OE-IBJ Age 12 years old
Model A320 Jet engines 2 First flight 13-09-07
Registered 31-05-19 Rollout 09-07 Delivered 01-10-07
Construction No. 3259 Line No. N/A Series 232
ADSHEX 44038B Airline name Laudamotion Owner Celestial Aviation Trading Ltd
Airfield based Vienna-Schwechat~Vienna~OE First tracked 2019-06-12 22:02:00

Flight history for OE-IBJ

Route Flight No Date Playback
Alicante (ALC) - Schwechat (VIE) OE133 2020-01-18 21:36:00
Schwechat (VIE) - Alicante (ALC) OE132 2020-01-18 18:05:00
Boryspil Intl (KBP) - Schwechat (VIE) OE976 2020-01-18 13:56:00
Schwechat (VIE) - Boryspil Intl (KBP) OE975 2020-01-18 12:09:00
Sofia (SOF) - Schwechat (VIE) OE183 2020-01-18 08:49:00
Schwechat (VIE) - Sofia (SOF) OE182 2020-01-18 06:55:00
Barcelona–El Prat (BCN) - Schwechat (VIE) OE317 2020-01-17 21:49:00
Schwechat (VIE) - Barcelona–El Prat (BCN) OE316 2020-01-17 18:41:00
Ben Gurion (TLV) - Schwechat (VIE) OE187 2020-01-17 15:32:00
Schwechat (VIE) - Ben Gurion (TLV) OE186 2020-01-17 11:51:00
Stuttgart (STR) - Schwechat (VIE) OE1621 2020-01-16 21:29:00
Schwechat (VIE) - Stuttgart (STR) OE1620 2020-01-16 20:28:00
Makedonia (SKG) - Schwechat (VIE) OE181 2020-01-16 17:36:00
Schwechat (VIE) - Makedonia (SKG) OE180 2020-01-16 15:19:00
Stansted (STN) - Schwechat (VIE) OE327 2020-01-15 21:50:00
Schwechat (VIE) - Stansted (STN) OE326 2020-01-15 19:53:00
Dublin (DUB) - Schwechat (VIE) OE341 2020-01-15 15:48:00
Schwechat (VIE) - Dublin (DUB) OE342 2020-01-15 13:20:00
Bologna (BLQ) - Schwechat (VIE) OE303 2020-01-15 08:53:00
Schwechat (VIE) - Bologna (BLQ) OE302 2020-01-15 07:50:00
Time Lat Lon Altitude Heading Speed Vertical Rate
2019-12-06 17:37:34 GMT 53.430199 -6.249592 0 5 0 0
2019-12-06 17:37:29 GMT 53.430187 -6.249592 0 5 0 0
2019-12-06 17:37:20 GMT 53.430191 -6.249585 0 5 0 0
2019-12-06 17:37:10 GMT 53.430187 -6.249592 0 5 0 0
2019-12-06 17:37:00 GMT 53.430099 -6.249605 0 5 3 0
2019-12-06 17:36:50 GMT 53.429970 -6.249632 0 5 3 0
2019-12-06 17:36:39 GMT 53.429832 -6.249645 0 5 5 0
2019-12-06 17:36:29 GMT 53.429585 -6.249645 0 59 7 0
2019-12-06 17:36:18 GMT 53.429523 -6.250181 0 95 11 0
2019-12-06 17:36:09 GMT 53.429573 -6.251039 0 95 14 0
2019-12-06 17:35:59 GMT 53.429646 -6.252150 0 84 16 0
2019-12-06 17:35:48 GMT 53.429420 -6.253320 0 56 16 0
2019-12-06 17:35:39 GMT 53.428974 -6.254203 0 45 16 0
2019-12-06 17:35:29 GMT 53.428436 -6.255125 0 45 18 0
2019-12-06 17:35:19 GMT 53.427876 -6.256066 0 45 16 0
2019-12-06 17:35:08 GMT 53.427444 -6.256795 0 45 12 0
2019-12-06 17:34:58 GMT 53.427071 -6.257421 0 30 11 0
2019-12-06 17:34:48 GMT 53.426594 -6.257602 0 337 14 0
2019-12-06 17:34:38 GMT 53.425991 -6.257138 0 337 15 0
2019-12-06 17:34:26 GMT 53.425266 -6.257263 0 45 15 0
2019-12-06 17:34:18 GMT 53.424767 -6.258148 0 45 26 0
2019-12-06 17:34:07 GMT 53.423973 -6.259500 0 45 24 0
2019-12-06 17:33:56 GMT 53.423183 -6.260854 0 50 21 0
2019-12-06 17:32:11 GMT 53.423569 -6.279292 0 95 16 0
2019-12-06 17:31:25 GMT 53.422199 -6.279118 0 295 27 0
2019-12-06 17:31:10 GMT 53.421684 -6.276263 0 275 31 0
2019-12-06 17:30:52 GMT 53.421261 -6.268956 0 275 88 0
2019-12-06 17:30:41 GMT 53.420792 -6.260402 450 275 121 0
2019-12-06 17:30:34 GMT 53.420368 -6.252917 475 276 129 -512
2019-12-06 17:30:24 GMT 53.419811 -6.242981 575 275 129 -704
2019-12-06 17:30:13 GMT 53.419281 -6.232936 700 276 128 -704
2019-12-06 17:30:03 GMT 53.418694 -6.222705 825 275 128 -704
2019-12-06 17:29:59 GMT 53.418457 -6.217634 900 275 128 -704
2019-12-06 17:29:53 GMT 53.417633 -6.202881 1,100 276 128 -768
2019-12-06 17:29:43 GMT 53.417633 -6.202881 1,075 276 128 -704
2019-12-06 17:29:33 GMT 53.417110 -6.192815 1,200 276 128 -768
2019-12-06 17:29:27 GMT 53.416782 -6.187241 1,275 276 128 -704
2019-12-06 17:29:22 GMT 53.416504 -6.182556 1,325 276 128 -704
2019-12-06 17:29:19 GMT 53.416271 -6.179083 1,375 275 128 -768
2019-12-06 17:29:13 GMT 53.415947 -6.172943 1,425 276 127 -640
2019-12-06 17:29:07 GMT 53.415619 -6.167254 1,500 276 127 -640
2019-12-06 17:29:02 GMT 53.415344 -6.162388 1,550 276 127 -576
2019-12-06 17:28:58 GMT 53.415108 -6.158160 1,600 276 127 -640
2019-12-06 17:28:50 GMT 53.414597 -6.149274 1,650 276 126 -640
2019-12-06 17:28:42 GMT 53.414223 -6.142569 1,800 276 129 -896
2019-12-06 17:28:39 GMT 53.414108 -6.139866 1,825 276 129 -960
2019-12-06 17:28:32 GMT 53.413666 -6.132471 1,950 276 128 -704
2019-12-06 17:28:27 GMT 53.413433 -6.127948 2,000 276 126 -448
2019-12-06 17:28:22 GMT 53.412964 -6.119620 2,050 276 124 -512
2019-12-06 17:28:11 GMT 53.412548 -6.112761 2,125 276 129 -704
2019-12-06 17:28:08 GMT 53.412407 -6.109772 2,150 276 131 -768
2019-12-06 17:27:59 GMT 53.411407 -6.092076 2,450 276 137 -896
2019-12-06 17:27:51 GMT 53.411407 -6.092076 2,375 276 136 -896
2019-12-06 17:27:48 GMT 53.411224 -6.088702 2,425 276 136 -896
2019-12-06 17:27:39 GMT 53.410675 -6.078029 2,550 275 139 -832
2019-12-06 17:27:31 GMT 53.410221 -6.069542 2,675 276 142 -832
2019-12-06 17:27:28 GMT 53.409660 -6.059445 3,250 275 173 0
2019-12-06 17:27:21 GMT 53.409660 -6.059445 2,825 276 143 -768
2019-12-06 17:27:18 GMT 53.409439 -6.055899 2,825 276 143 -704
2019-12-06 17:27:11 GMT 53.408962 -6.048297 2,925 276 144 -704
2019-12-06 17:27:08 GMT 53.408752 -6.044521 2,950 277 144 -704
2019-12-06 17:26:58 GMT 53.408020 -6.033378 3,075 277 148 -960
2019-12-06 17:26:48 GMT 53.407192 -6.021720 3,250 277 149 -704
2019-12-06 17:26:38 GMT 53.406448 -6.009602 3,250 277 160 256
2019-12-06 17:26:30 GMT 53.405891 -6.000878 3,250 276 164 64
2019-12-06 17:26:27 GMT 53.405659 -5.997081 3,250 276 165 64
2019-12-06 17:26:20 GMT 53.405090 -5.987549 3,250 274 175 0
2019-12-06 17:26:17 GMT 53.404915 -5.982621 3,250 273 178 0
2019-12-06 17:26:10 GMT 53.404728 -5.973574 3,250 270 185 -64
2019-12-06 17:26:07 GMT 53.404724 -5.968872 3,250 270 185 -64
2019-12-06 17:25:59 GMT 53.405045 -5.957258 3,275 266 187 64
2019-12-06 17:25:55 GMT 53.405319 -5.951922 3,250 265 188 0
2019-12-06 17:25:49 GMT 53.405846 -5.944088 3,250 264 193 0
2019-12-06 17:25:46 GMT 53.406235 -5.938974 3,250 258 205 0
2019-12-06 17:25:39 GMT 53.407196 -5.928929 3,250 255 209 0
2019-12-06 17:25:36 GMT 53.407883 -5.923985 3,250 255 209 -64
2019-12-06 17:25:29 GMT 53.409897 -5.913313 3,275 251 219 -128
2019-12-06 17:25:26 GMT 53.411087 -5.907741 3,275 251 221 -128
2019-12-06 17:25:19 GMT 53.413525 -5.896023 3,300 251 228 -384
2019-12-06 17:25:16 GMT 53.414474 -5.891654 3,325 251 228 -512
2019-12-06 17:25:09 GMT 53.418045 -5.874468 3,450 251 233 -1152
2019-12-06 17:24:59 GMT 53.420647 -5.862014 3,600 251 236 -1152
2019-12-06 17:24:56 GMT 53.421719 -5.856844 3,650 251 236 -1152
2019-12-06 17:24:49 GMT 53.425442 -5.838991 3,850 252 240 -1792
2019-12-06 17:24:38 GMT 53.427979 -5.826678 4,250 251 240 -1600
2019-12-06 17:24:35 GMT 53.429119 -5.821300 4,100 251 240 -1792
2019-12-06 17:24:26 GMT 53.432739 -5.803606 4,425 251 239 -1856
2019-12-06 17:24:18 GMT 53.435303 -5.791051 4,750 251 241 -1216
2019-12-06 17:24:15 GMT 53.436447 -5.785479 4,725 251 239 -1664
2019-12-06 17:24:08 GMT 53.439037 -5.772912 4,950 251 240 -1280
2019-12-06 17:24:05 GMT 53.440018 -5.768215 4,975 251 241 -1280
2019-12-06 17:23:58 GMT 53.442665 -5.755382 5,100 251 247 -1152
2019-12-06 17:23:54 GMT 53.444065 -5.748839 5,150 251 245 -960
2019-12-06 17:23:48 GMT 53.446438 -5.737529 5,275 251 247 -1280
2019-12-06 17:23:44 GMT 53.447845 -5.730704 5,350 251 248 -1408
2019-12-06 17:23:37 GMT 53.450302 -5.718788 5,500 251 249 -1344
2019-12-06 17:23:34 GMT 53.451645 -5.712498 5,550 251 249 -1344
2019-12-06 17:23:27 GMT 53.454254 -5.699864 6,100 252 253 -1024
2019-12-06 17:23:24 GMT 53.455353 -5.694449 5,800 251 250 -960
2019-12-06 17:23:17 GMT 53.457935 -5.681951 6,025 252 252 -960
2019-12-06 17:23:13 GMT 53.459518 -5.674360 5,975 251 251 -960
2019-12-06 17:23:09 GMT 53.461029 -5.667062 6,025 251 251 -960
2019-12-06 17:23:06 GMT 53.462311 -5.660786 6,075 252 254 -1024
2019-12-06 17:23:03 GMT 53.463474 -5.655132 6,125 252 254 -1024
2019-12-06 17:22:59 GMT 53.464874 -5.648184 6,200 252 255 -1024
2019-12-06 17:22:56 GMT 53.466202 -5.641793 6,250 252 256 -1024
2019-12-06 17:22:53 GMT 53.469948 -5.623465 6,300 252 257 -960
2019-12-06 17:22:46 GMT 53.469948 -5.623465 6,475 252 258 -1024
2019-12-06 17:22:43 GMT 53.471111 -5.617730 6,425 252 258 -1024
2019-12-06 17:22:39 GMT 53.472507 -5.610944 6,525 252 258 -960
2019-12-06 17:22:36 GMT 53.473892 -5.604048 6,575 252 257 -960
2019-12-06 17:22:33 GMT 53.474945 -5.598947 6,625 252 256 -896
2019-12-06 17:22:29 GMT 53.476326 -5.592364 6,675 252 255 -896
2019-12-06 17:22:26 GMT 53.477627 -5.585902 6,725 252 255 -960
2019-12-06 17:22:23 GMT 53.478840 -5.580085 6,850 251 254 -1024
2019-12-06 17:22:20 GMT 53.480255 -5.573129 6,850 251 256 -1024
2019-12-06 17:22:16 GMT 53.482750 -5.560940 6,925 251 257 -1024
2019-12-06 17:22:13 GMT 53.482750 -5.560940 6,950 251 257 -1024
2019-12-06 17:22:09 GMT 53.484238 -5.553750 7,025 252 258 -1088
2019-12-06 17:22:06 GMT 53.485428 -5.548017 7,075 252 259 -1024
2019-12-06 17:22:02 GMT 53.486938 -5.540719 7,175 252 259 -1024
2019-12-06 17:21:59 GMT 53.488148 -5.534767 7,200 252 259 -1024
2019-12-06 17:21:56 GMT 53.489410 -5.528713 7,250 252 259 -960
2019-12-06 17:21:52 GMT 53.492065 -5.515608 7,350 252 259 -896
2019-12-06 17:21:49 GMT 53.492065 -5.515608 7,350 252 259 -896
2019-12-06 17:21:45 GMT 53.493504 -5.508513 7,400 252 259 -832
2019-12-06 17:21:42 GMT 53.494991 -5.501404 7,500 252 257 -896
2019-12-06 17:21:35 GMT 53.497272 -5.489933 7,550 252 257 -1024
2019-12-06 17:21:30 GMT 53.499229 -5.480320 7,625 252 258 -1024
2019-12-06 17:21:26 GMT 53.501038 -5.471505 7,700 252 259 -1088
2019-12-06 17:21:21 GMT 53.502960 -5.462088 7,775 252 260 -1088
2019-12-06 17:21:13 GMT 53.506306 -5.445584 7,950 252 261 -960
2019-12-06 17:21:09 GMT 53.507446 -5.439880 8,600 252 261 -960
2019-12-06 17:21:03 GMT 53.509827 -5.428109 8,075 252 260 -896
2019-12-06 17:21:00 GMT 53.511063 -5.421988 8,100 252 260 -896
2019-12-06 17:20:55 GMT 53.513100 -5.412059 8,225 252 259 -960
2019-12-06 17:20:52 GMT 53.514130 -5.406843 8,300 252 259 -960
2019-12-06 17:20:49 GMT 53.515320 -5.401036 8,325 252 259 -896
2019-12-06 17:20:45 GMT 53.516872 -5.393479 8,400 252 259 -896
2019-12-06 17:20:42 GMT 53.518021 -5.387931 8,425 252 259 -960
2019-12-06 17:20:39 GMT 53.519623 -5.380162 8,450 252 259 -960
2019-12-06 17:20:34 GMT 53.521481 -5.370941 8,575 252 262 -960
2019-12-06 17:20:31 GMT 53.522049 -5.368155 8,600 252 262 -960
2019-12-06 17:20:28 GMT 53.523205 -5.362459 8,900 252 266 -1152
2019-12-06 17:20:25 GMT 53.524750 -5.355050 8,700 252 264 -1152
2019-12-06 17:20:22 GMT 53.525986 -5.349008 8,750 252 264 -1152
2019-12-06 17:20:18 GMT 53.529556 -5.331508 8,900 252 266 -1152
2019-12-06 17:20:13 GMT 53.530609 -5.326329 8,975 252 267 -1152
2019-12-06 17:20:07 GMT 53.531906 -5.319806 9,050 252 270 -1152
2019-12-06 17:20:03 GMT 53.533630 -5.311183 9,150 252 271 -1152
2019-12-06 17:19:59 GMT 53.534729 -5.305769 9,200 252 272 -1216
2019-12-06 17:19:52 GMT 53.537682 -5.290967 9,300 252 274 -1216
2019-12-06 17:19:49 GMT 53.538940 -5.284738 9,400 252 276 -1152
2019-12-06 17:19:42 GMT 53.542011 -5.269398 9,550 252 279 -1152
2019-12-06 17:19:35 GMT 53.544708 -5.255938 9,950 252 284 -1280
2019-12-06 17:19:32 GMT 53.547180 -5.243774 9,775 252 285 -1280
2019-12-06 17:19:23 GMT 53.549561 -5.231846 9,950 252 292 -1408
2019-12-06 17:19:20 GMT 53.550888 -5.225255 9,975 252 288 -1280
2019-12-06 17:19:17 GMT 53.552353 -5.217878 10,025 252 289 -1280
2019-12-06 17:19:11 GMT 53.555138 -5.204127 10,175 252 291 -1280
2019-12-06 17:19:07 GMT 53.556675 -5.196452 10,225 252 292 -1344
2019-12-06 17:19:01 GMT 53.559402 -5.182957 10,425 252 294 -1536
2019-12-06 17:18:58 GMT 53.560539 -5.177469 10,500 252 295 -1536
2019-12-06 17:18:53 GMT 53.562744 -5.166399 10,600 252 296 -1472
2019-12-06 17:18:49 GMT 53.564728 -5.156627 10,725 252 297 -1472
2019-12-06 17:18:46 GMT 53.566032 -5.150164 10,800 252 298 -1472
2019-12-06 17:18:43 GMT 53.568729 -5.136674 10,900 252 300 -1536
2019-12-06 17:18:40 GMT 53.570114 -5.129595 11,000 252 301 -1536
2019-12-06 17:18:36 GMT 53.570114 -5.129595 11,100 252 302 -1536
2019-12-06 17:18:33 GMT 53.571625 -5.122140 11,175 252 303 -1536
2019-12-06 17:18:30 GMT 53.573364 -5.113429 11,225 252 303 -1536
2019-12-06 17:18:26 GMT 53.576065 -5.099775 11,375 252 306 -1600
2019-12-06 17:18:23 GMT 53.576065 -5.099775 11,550 252 306 -1600
2019-12-06 17:18:20 GMT 53.577530 -5.092477 11,525 252 307 -1536
2019-12-06 17:18:17 GMT 53.578648 -5.086993 11,525 252 307 -1536
2019-12-06 17:18:10 GMT 53.582382 -5.068386 11,725 252 310 -1408
2019-12-06 17:18:04 GMT 53.584534 -5.057556 11,825 252 312 -1216
2019-12-06 17:18:00 GMT 53.587006 -5.045393 11,925 252 314 -1152
2019-12-06 17:17:57 GMT 53.588001 -5.040463 11,975 252 315 -1152
2019-12-06 17:17:53 GMT 53.590004 -5.030446 12,050 252 316 -1152
2019-12-06 17:17:50 GMT 53.591167 -5.024791 12,100 252 319 -1152
2019-12-06 17:17:47 GMT 53.594055 -5.010315 12,175 252 321 -1152
2019-12-06 17:17:44 GMT 53.596527 -4.997995 12,250 252 324 -1216
2019-12-06 17:17:40 GMT 53.597546 -4.992882 12,350 252 327 -1600
2019-12-06 17:17:37 GMT 53.598709 -4.986904 12,450 252 328 -1984
2019-12-06 17:17:30 GMT 53.600876 -4.975943 12,600 252 328 -2368
2019-12-06 17:17:27 GMT 53.602436 -4.968082 12,725 252 328 -2368
2019-12-06 17:17:24 GMT 53.603622 -4.962054 12,850 252 328 -2368
2019-12-06 17:17:21 GMT 53.605133 -4.954520 12,925 252 328 -2432
2019-12-06 17:17:17 GMT 53.607742 -4.941343 13,250 252 327 -2560
2019-12-06 17:17:14 GMT 53.610023 -4.929711 13,300 252 327 -2560
2019-12-06 17:17:11 GMT 53.610023 -4.929711 13,450 252 326 -2432
2019-12-06 17:17:08 GMT 53.611130 -4.924072 13,525 252 326 -2304
2019-12-06 17:17:05 GMT 53.612778 -4.915833 13,675 252 326 -2176
2019-12-06 17:17:02 GMT 53.614353 -4.907981 13,800 252 327 -2112
2019-12-06 17:16:59 GMT 53.615936 -4.899741 13,850 252 327 -2048
2019-12-06 17:16:55 GMT 53.619141 -4.883737 14,025 252 328 -1984
2019-12-06 17:16:52 GMT 53.620869 -4.874941 14,100 252 328 -1984
2019-12-06 17:16:49 GMT 53.622070 -4.868827 14,225 252 329 -1984
2019-12-06 17:16:43 GMT 53.623123 -4.863491 14,425 252 330 -2048
2019-12-06 17:16:40 GMT 53.625961 -4.849287 15,000 252 336 -1792
2019-12-06 17:16:34 GMT 53.628983 -4.833827 14,775 252 332 -1792
2019-12-06 17:16:28 GMT 53.630692 -4.825341 14,850 252 335 -1664
2019-12-06 17:16:25 GMT 53.633671 -4.810315 14,925 252 336 -1664
2019-12-06 17:16:22 GMT 53.633671 -4.810315 15,050 252 337 -1856
2019-12-06 17:16:19 GMT 53.634834 -4.804418 15,375 252 338 -1984
2019-12-06 17:16:15 GMT 53.636929 -4.793917 15,175 252 337 -1920
2019-12-06 17:16:12 GMT 53.638374 -4.786646 15,325 252 338 -1920
2019-12-06 17:16:09 GMT 53.640244 -4.777091 15,450 252 339 -1856
2019-12-06 17:16:05 GMT 53.641769 -4.769520 15,550 252 340 -1792
2019-12-06 17:16:02 GMT 53.643822 -4.759261 16,100 252 341 -1856
2019-12-06 17:15:59 GMT 53.645096 -4.752999 15,775 252 342 -2176
2019-12-06 17:15:56 GMT 53.646427 -4.746336 16,025 252 342 -2304
2019-12-06 17:15:53 GMT 53.648071 -4.738246 16,000 252 342 -2368
2019-12-06 17:15:50 GMT 53.651321 -4.722081 16,175 252 343 -2176
2019-12-06 17:15:47 GMT 53.652557 -4.715960 16,275 252 343 -2112
2019-12-06 17:15:44 GMT 53.654114 -4.708348 16,375 252 344 -2240
2019-12-06 17:15:41 GMT 53.655945 -4.699323 16,550 251 345 -2560
2019-12-06 17:15:35 GMT 53.657318 -4.692616 16,650 251 345 -2496
2019-12-06 17:15:32 GMT 53.658829 -4.685277 16,850 252 344 -2496
2019-12-06 17:15:29 GMT 53.660385 -4.677743 16,950 252 344 -2496
2019-12-06 17:15:23 GMT 53.663544 -4.662127 17,175 253 344 -2176
2019-12-06 17:15:20 GMT 53.665375 -4.652396 17,300 258 339 -2496
2019-12-06 17:15:17 GMT 53.666397 -4.646086 17,375 258 339 -2496
2019-12-06 17:15:14 GMT 53.667236 -4.639300 17,450 261 336 -2688
2019-12-06 17:15:11 GMT 53.668121 -4.628932 17,675 265 332 -2688
2019-12-06 17:15:07 GMT 53.668587 -4.608926 17,875 271 328 -2368
2019-12-06 17:15:03 GMT 53.668587 -4.608926 18,000 272 328 -2176
2019-12-06 17:14:59 GMT 53.668442 -4.600839 18,100 272 329 -1856
2019-12-06 17:14:56 GMT 53.668259 -4.590589 18,175 272 328 -1920
2019-12-06 17:14:53 GMT 53.668026 -4.577583 18,325 272 329 -1664
2019-12-06 17:14:47 GMT 53.667892 -4.568665 18,400 272 330 -1600
2019-12-06 17:14:43 GMT 53.667755 -4.561523 18,625 272 331 -1472
2019-12-06 17:14:40 GMT 53.667572 -4.552107 18,625 272 332 -1472
2019-12-06 17:14:37 GMT 53.667435 -4.544887 18,800 272 332 -1408
2019-12-06 17:14:34 GMT 53.667328 -4.536546 18,775 272 332 -1408
2019-12-06 17:14:31 GMT 53.667191 -4.528871 18,825 272 332 -1408
2019-12-06 17:14:28 GMT 53.667049 -4.521116 18,925 272 333 -1344
2019-12-06 17:14:25 GMT 53.666794 -4.505964 19,100 272 334 -1472
2019-12-06 17:14:19 GMT 53.666656 -4.498038 19,125 272 334 -1408
2019-12-06 17:14:16 GMT 53.666538 -4.491308 19,225 272 334 -1472
2019-12-06 17:14:13 GMT 53.666397 -4.482180 19,275 272 335 -1536
2019-12-06 17:14:10 GMT 53.666119 -4.466427 19,400 272 337 -1600
2019-12-06 17:14:04 GMT 53.665977 -4.457299 19,525 272 338 -1664
2019-12-06 17:14:01 GMT 53.665833 -4.448050 19,625 272 339 -1792
2019-12-06 17:13:58 GMT 53.665558 -4.435084 19,750 272 340 -1984
2019-12-06 17:13:55 GMT 53.665558 -4.435084 19,850 272 340 -2048
2019-12-06 17:13:52 GMT 53.665279 -4.418523 19,925 272 341 -2048
2019-12-06 17:13:49 GMT 53.665279 -4.418523 20,050 272 341 -2176
2019-12-06 17:13:43 GMT 53.665009 -4.402143 20,300 272 342 -2304
2019-12-06 17:13:40 GMT 53.664871 -4.396650 20,475 272 344 -1792
2019-12-06 17:13:37 GMT 53.664734 -4.387547 20,500 272 342 -2304
2019-12-06 17:13:34 GMT 53.664642 -4.380563 20,600 272 342 -2176
2019-12-06 17:13:31 GMT 53.664230 -4.358276 22,650 272 343 -1984
2019-12-06 17:13:27 GMT 53.664230 -4.358276 20,950 272 344 -1792
2019-12-06 17:13:22 GMT 53.664024 -4.344689 20,975 272 346 -1856
2019-12-06 17:13:17 GMT 53.663773 -4.332302 21,075 272 347 -1984
2019-12-06 17:13:14 GMT 53.663651 -4.326998 21,150 272 347 -2048
2019-12-06 17:13:11 GMT 53.663452 -4.317392 21,300 272 348 -2176
2019-12-06 17:13:07 GMT 53.663223 -4.306327 21,675 272 349 -2304
2019-12-06 17:13:04 GMT 53.663086 -4.298322 21,575 272 349 -2368
2019-12-06 17:13:01 GMT 53.662903 -4.289376 21,675 272 349 -2432
2019-12-06 17:12:58 GMT 53.662720 -4.280509 21,825 272 350 -2432
2019-12-06 17:12:55 GMT 53.662628 -4.274074 22,000 272 350 -2560
2019-12-06 17:12:52 GMT 53.662445 -4.264971 22,100 272 350 -2560
2019-12-06 17:12:49 GMT 53.662113 -4.248397 22,250 272 350 -2496
2019-12-06 17:12:43 GMT 53.661987 -4.242057 22,425 272 350 -2432
2019-12-06 17:12:40 GMT 53.661648 -4.225051 22,825 272 350 -2496
2019-12-06 17:12:37 GMT 53.661484 -4.216631 22,750 272 350 -2624
2019-12-06 17:12:31 GMT 53.661301 -4.208078 25,275 272 350 -2560
2019-12-06 17:12:28 GMT 53.661091 -4.197262 23,125 272 350 -2496
2019-12-06 17:12:25 GMT 53.660995 -4.191688 23,375 272 350 -2432
2019-12-06 17:12:19 GMT 53.660660 -4.175197 23,550 272 351 -2304
2019-12-06 17:12:16 GMT 53.660484 -4.167777 23,575 272 352 -2176
2019-12-06 17:12:13 GMT 53.660347 -4.159537 23,650 272 352 -2176
2019-12-06 17:12:09 GMT 53.660110 -4.148908 24,025 273 354 -2496
2019-12-06 17:12:06 GMT 53.659927 -4.140230 24,000 272 353 -2368
2019-12-06 17:12:03 GMT 53.659554 -4.121973 24,125 273 354 -2496
2019-12-06 17:12:00 GMT 53.659554 -4.121973 24,200 273 354 -2432
2019-12-06 17:11:57 GMT 53.659424 -4.115949 24,300 273 354 -2368
2019-12-06 17:11:54 GMT 53.659275 -4.107837 24,625 273 355 -2304
2019-12-06 17:11:51 GMT 53.659042 -4.097416 24,500 273 355 -2304
2019-12-06 17:11:48 GMT 53.658901 -4.090065 24,625 273 355 -2240
2019-12-06 17:11:45 GMT 53.658691 -4.081970 24,825 272 360 -1856
2019-12-06 17:11:42 GMT 53.658482 -4.070919 24,900 272 357 -2112
2019-12-06 17:11:39 GMT 53.658390 -4.066395 24,950 272 357 -2048
2019-12-06 17:11:36 GMT 53.658234 -4.058036 25,000 272 358 -2048
2019-12-06 17:11:33 GMT 53.657867 -4.040065 25,225 272 360 -1792
2019-12-06 17:11:30 GMT 53.657867 -4.040065 25,250 272 361 -1792
2019-12-06 17:11:27 GMT 53.657639 -4.029864 25,425 273 363 -1856
2019-12-06 17:11:24 GMT 53.657459 -4.020915 25,450 273 364 -2112
2019-12-06 17:11:21 GMT 53.657272 -4.011579 25,575 273 364 -2176
2019-12-06 17:11:18 GMT 53.657131 -4.005567 25,650 273 364 -2304
2019-12-06 17:11:15 GMT 53.656952 -3.996826 25,850 273 365 -2176
2019-12-06 17:11:12 GMT 53.656815 -3.989607 25,875 273 364 -2752
2019-12-06 17:11:09 GMT 53.656620 -3.981332 26,000 273 364 -2688
2019-12-06 17:11:06 GMT 53.656250 -3.964206 26,275 273 364 -2816
2019-12-06 17:11:00 GMT 53.656036 -3.955863 26,475 273 364 -2688
2019-12-06 17:10:57 GMT 53.655830 -3.945950 26,825 273 364 -2432
2019-12-06 17:10:54 GMT 53.655624 -3.936401 26,725 273 365 -2176
2019-12-06 17:10:51 GMT 53.655411 -3.927855 27,000 273 367 -2176
2019-12-06 17:10:48 GMT 53.655270 -3.921796 26,925 273 366 -2112
2019-12-06 17:10:42 GMT 53.654892 -3.904541 27,125 273 367 -2496
2019-12-06 17:10:39 GMT 53.654709 -3.896066 27,325 273 367 -2624
2019-12-06 17:10:36 GMT 53.654480 -3.885707 27,400 273 367 -2496
2019-12-06 17:10:33 GMT 53.654293 -3.876881 27,750 273 368 -2560
2019-12-06 17:10:30 GMT 53.654156 -3.870984 27,700 273 368 -2560
2019-12-06 17:10:27 GMT 53.653873 -3.858867 27,750 273 368 -2432
2019-12-06 17:10:24 GMT 53.653782 -3.854343 27,975 273 368 -2560
2019-12-06 17:10:21 GMT 53.653595 -3.846427 27,975 273 368 -2496
2019-12-06 17:10:18 GMT 53.653381 -3.837681 28,125 273 368 -2368
2019-12-06 17:10:15 GMT 53.653198 -3.828108 28,200 273 369 -2112
2019-12-06 17:10:12 GMT 53.652760 -3.810559 28,550 273 371 -1920
2019-12-06 17:10:06 GMT 53.652557 -3.800642 28,525 273 372 -2368
2019-12-06 17:10:03 GMT 53.652328 -3.791539 28,675 273 373 -2560
2019-12-06 17:10:00 GMT 53.652107 -3.783255 28,825 273 373 -2624
2019-12-06 17:09:57 GMT 53.651920 -3.774692 28,850 273 373 -2624
2019-12-06 17:09:54 GMT 53.651733 -3.767604 29,000 273 372 -3008
2019-12-06 17:09:51 GMT 53.651501 -3.758374 29,825 273 369 -3776
2019-12-06 17:09:48 GMT 53.651001 -3.737392 32,750 273 367 -3776
2019-12-06 17:09:44 GMT 53.651001 -3.737392 32,750 273 365 -3648
2019-12-06 17:09:41 GMT 53.650726 -3.726327 29,750 273 367 -3776
2019-12-06 17:09:38 GMT 53.650589 -3.720520 30,000 273 365 -3584
2019-12-06 17:09:35 GMT 53.650406 -3.713143 30,175 273 364 -3392
2019-12-06 17:09:32 GMT 53.649918 -3.693991 30,475 273 363 -2880
2019-12-06 17:09:29 GMT 53.649719 -3.685521 30,825 273 363 -2368
2019-12-06 17:09:26 GMT 53.649498 -3.676138 30,825 273 365 -1152
2019-12-06 17:09:23 GMT 53.649361 -3.670726 30,775 273 365 -1408
2019-12-06 17:09:20 GMT 53.649124 -3.661743 30,975 273 367 -1024
2019-12-06 17:09:14 GMT 53.648846 -3.651096 30,925 273 370 -1024
2019-12-06 17:09:11 GMT 53.648476 -3.635909 31,025 273 371 -1472
2019-12-06 17:09:08 GMT 53.648476 -3.635909 32,975 276 392 -1088
2019-12-06 17:09:02 GMT 53.648010 -3.618945 31,300 273 373 -2368
2019-12-06 17:08:59 GMT 53.647823 -3.609655 31,400 273 373 -2432
2019-12-06 17:08:55 GMT 53.647293 -3.588920 31,475 273 373 -2432
2019-12-06 17:08:52 GMT 53.647217 -3.585986 31,675 273 373 -2048
2019-12-06 17:08:49 GMT 53.647110 -3.580444 31,700 273 373 -1984
2019-12-06 17:08:46 GMT 53.646927 -3.572362 31,850 273 374 -1856
2019-12-06 17:08:43 GMT 53.646698 -3.564357 31,900 273 375 -1728
2019-12-06 17:08:40 GMT 53.646469 -3.554156 32,025 273 381 -1472
2019-12-06 17:08:37 GMT 53.646057 -3.537205 32,225 273 376 -1984
2019-12-06 17:08:31 GMT 53.645496 -3.516998 32,350 273 377 -1984
2019-12-06 17:08:28 GMT 53.645496 -3.516998 32,450 273 377 -1920
2019-12-06 17:08:25 GMT 53.645355 -3.510940 32,550 273 378 -1856
2019-12-06 17:08:22 GMT 53.645077 -3.499226 32,650 273 379 -1728
2019-12-06 17:08:19 GMT 53.644844 -3.491067 32,725 273 381 -1536
2019-12-06 17:08:16 GMT 53.644657 -3.483151 32,775 273 381 -1472
2019-12-06 17:08:13 GMT 53.644455 -3.476153 32,850 273 383 -1280
2019-12-06 17:08:10 GMT 53.644180 -3.465323 32,900 273 385 -832
2019-12-06 17:08:07 GMT 53.643959 -3.456897 32,925 273 386 -832
2019-12-06 17:08:04 GMT 53.643631 -3.445156 33,000 274 389 -832
2019-12-06 17:08:01 GMT 53.643074 -3.431289 33,050 275 391 -960
2019-12-06 17:07:55 GMT 53.642624 -3.421535 33,100 276 392 -1088
2019-12-06 17:07:52 GMT 53.642166 -3.413688 33,750 279 397 -2112
2019-12-06 17:07:49 GMT 53.641251 -3.400190 33,225 277 393 -1408
2019-12-06 17:07:45 GMT 53.640327 -3.389282 33,425 279 395 -1792
2019-12-06 17:07:42 GMT 53.639442 -3.379023 33,475 279 395 -1984
2019-12-06 17:07:39 GMT 53.638870 -3.372253 33,625 279 396 -2048
2019-12-06 17:07:36 GMT 53.638000 -3.362947 33,650 279 396 -2048
2019-12-06 17:07:33 GMT 53.636993 -3.351458 33,725 279 396 -2048
2019-12-06 17:07:30 GMT 53.636581 -3.346671 34,075 279 397 -2496
2019-12-06 17:07:27 GMT 53.635345 -3.333220 33,950 279 397 -2240
2019-12-06 17:07:24 GMT 53.634521 -3.323992 34,100 279 396 -2624
2019-12-06 17:07:21 GMT 53.633698 -3.314732 34,150 279 396 -2688
2019-12-06 17:07:18 GMT 53.632229 -3.298726 34,525 280 395 -2496
2019-12-06 17:07:15 GMT 53.631531 -3.290809 34,550 279 395 -2560
2019-12-06 17:07:12 GMT 53.630539 -3.280361 34,750 279 395 -2560
2019-12-06 17:07:09 GMT 53.630539 -3.280361 34,825 279 395 -2560
2019-12-06 17:07:06 GMT 53.629807 -3.272391 34,975 280 395 -2496
2019-12-06 17:07:03 GMT 53.628799 -3.261527 35,500 280 395 -2432
2019-12-06 17:07:00 GMT 53.627792 -3.251090 35,125 280 395 -2432
2019-12-06 17:06:57 GMT 53.627338 -3.246056 35,275 279 396 -2304
2019-12-06 17:06:54 GMT 53.625340 -3.224407 35,325 279 396 -2304
2019-12-06 17:06:51 GMT 53.625340 -3.224407 35,400 279 396 -2176
2019-12-06 17:06:48 GMT 53.624542 -3.215384 35,550 279 397 -1920
2019-12-06 17:06:44 GMT 53.623711 -3.206231 35,600 279 397 -1728
2019-12-06 17:06:41 GMT 53.621708 -3.184096 35,775 279 399 -1152
2019-12-06 17:06:38 GMT 53.621708 -3.184096 35,800 279 399 -1024
2019-12-06 17:06:32 GMT 53.619240 -3.156792 35,925 279 402 -768
2019-12-06 17:06:29 GMT 53.619240 -3.156792 35,950 279 403 -512
2019-12-06 17:06:26 GMT 53.618362 -3.147269 35,950 279 404 -320
2019-12-06 17:06:23 GMT 53.617519 -3.138212 35,975 279 405 128
2019-12-06 17:06:20 GMT 53.616680 -3.128761 35,975 279 405 128
2019-12-06 17:06:17 GMT 53.615982 -3.121451 35,975 279 405 128
2019-12-06 17:06:14 GMT 53.615234 -3.113170 35,975 279 406 64
2019-12-06 17:06:11 GMT 53.614334 -3.103167 35,975 279 406 64
2019-12-06 17:06:08 GMT 53.613419 -3.093515 35,975 279 406 64
2019-12-06 17:06:05 GMT 53.612442 -3.082634 35,950 279 406 64
2019-12-06 17:06:02 GMT 53.611725 -3.074838 35,950 279 406 64
2019-12-06 17:05:58 GMT 53.610809 -3.065186 35,950 279 406 64
2019-12-06 17:05:55 GMT 53.609650 -3.052503 35,950 279 405 -64
2019-12-06 17:05:52 GMT 53.608765 -3.042809 35,950 279 405 0
2019-12-06 17:05:48 GMT 53.607605 -3.030186 35,950 279 405 -64
2019-12-06 17:05:45 GMT 53.606716 -3.020594 35,950 279 402 0
2019-12-06 17:05:42 GMT 53.605881 -3.011708 35,950 279 404 0
2019-12-06 17:05:39 GMT 53.605087 -3.002903 35,950 279 404 64
2019-12-06 17:05:36 GMT 53.604156 -2.993047 35,950 279 404 64
2019-12-06 17:05:33 GMT 53.603413 -2.984808 35,950 279 404 -64
2019-12-06 17:05:30 GMT 53.602386 -2.973921 35,950 279 404 -64
2019-12-06 17:05:27 GMT 53.601791 -2.967172 35,950 279 402 64
2019-12-06 17:05:24 GMT 53.600899 -2.958069 35,950 279 403 -64
2019-12-06 17:05:21 GMT 53.599873 -2.946759 35,950 279 402 0
2019-12-06 17:05:18 GMT 53.599091 -2.938764 35,950 279 403 0
2019-12-06 17:05:15 GMT 53.598061 -2.927776 35,950 279 402 0
2019-12-06 17:05:12 GMT 53.597351 -2.919852 35,950 279 402 64
2019-12-06 17:05:09 GMT 53.596481 -2.910828 35,950 279 402 0
2019-12-06 17:05:06 GMT 53.595638 -2.901845 35,950 279 402 -64
2019-12-06 17:05:03 GMT 53.594799 -2.892636 35,950 279 402 0
2019-12-06 17:05:00 GMT 53.593822 -2.882699 35,950 279 402 0
2019-12-06 17:04:57 GMT 53.592957 -2.873474 35,950 279 402 0
2019-12-06 17:04:54 GMT 53.592052 -2.863796 35,950 279 402 64
2019-12-06 17:04:51 GMT 53.591263 -2.855072 35,950 280 401 0
2019-12-06 17:04:48 GMT 53.590210 -2.843890 35,950 280 401 0
2019-12-06 17:04:45 GMT 53.589584 -2.837704 35,950 280 401 -64
2019-12-06 17:04:42 GMT 53.588840 -2.829626 35,950 280 401 0
2019-12-06 17:04:39 GMT 53.586887 -2.809188 35,950 280 402 0
2019-12-06 17:04:36 GMT 53.585724 -2.796962 35,950 280 402 -128
2019-12-06 17:04:33 GMT 53.585724 -2.796962 35,950 280 402 -128
2019-12-06 17:04:30 GMT 53.584854 -2.787781 35,975 280 402 -128
2019-12-06 17:04:27 GMT 53.583954 -2.778491 35,975 280 402 -128
2019-12-06 17:04:24 GMT 53.583393 -2.772675 35,975 280 402 -128
2019-12-06 17:04:21 GMT 53.582275 -2.761123 35,975 280 402 -128
2019-12-06 17:04:18 GMT 53.581284 -2.750898 36,000 280 402 -128
2019-12-06 17:04:15 GMT 53.580688 -2.744463 36,000 280 402 -192
2019-12-06 17:04:12 GMT 53.579765 -2.734949 36,025 280 402 -128
2019-12-06 17:04:09 GMT 53.577854 -2.714673 36,025 280 402 0
2019-12-06 17:04:06 GMT 53.577156 -2.707726 36,025 280 402 0
2019-12-06 17:04:03 GMT 53.576458 -2.700052 36,025 280 402 -64
2019-12-06 17:03:57 GMT 53.575378 -2.688825 36,025 280 402 64
2019-12-06 17:03:54 GMT 53.574318 -2.677756 36,025 280 403 64
2019-12-06 17:03:51 GMT 53.573547 -2.669992 36,025 280 404 0
2019-12-06 17:03:48 GMT 53.572861 -2.662615 36,025 280 409 0
2019-12-06 17:03:45 GMT 53.571671 -2.650452 36,025 280 405 -64
2019-12-06 17:03:42 GMT 53.569988 -2.633084 36,025 280 406 -128
2019-12-06 17:03:39 GMT 53.569061 -2.623457 36,050 280 406 -128
2019-12-06 17:03:33 GMT 53.567196 -2.604083 36,050 280 410 0
2019-12-06 17:03:30 GMT 53.567196 -2.604083 36,050 280 407 -64
2019-12-06 17:03:27 GMT 53.566223 -2.594264 36,025 280 407 0
2019-12-06 17:03:24 GMT 53.565331 -2.585180 36,025 280 407 0
2019-12-06 17:03:21 GMT 53.564621 -2.577706 36,025 280 407 64
2019-12-06 17:03:18 GMT 53.563660 -2.567976 36,050 280 409 0
2019-12-06 17:03:15 GMT 53.562607 -2.557382 36,025 280 408 64
2019-12-06 17:03:12 GMT 53.561840 -2.549232 36,025 280 408 -64
2019-12-06 17:03:09 GMT 53.560776 -2.538313 36,050 280 409 -128
2019-12-06 17:03:06 GMT 53.559933 -2.529764 36,050 280 409 -128
2019-12-06 17:03:03 GMT 53.559139 -2.521524 36,050 280 409 -64
2019-12-06 17:03:00 GMT 53.557556 -2.505044 36,050 280 409 64
2019-12-06 17:02:54 GMT 53.556107 -2.489973 36,050 280 409 64
2019-12-06 17:02:51 GMT 53.554367 -2.472238 36,050 280 410 0
2019-12-06 17:02:48 GMT 53.554367 -2.472238 36,050 280 410 -64
2019-12-06 17:02:44 GMT 53.553135 -2.459968 36,050 280 410 -64
2019-12-06 17:02:41 GMT 53.552113 -2.449224 36,050 280 411 -64
2019-12-06 17:02:38 GMT 53.551483 -2.442810 36,050 280 411 64
2019-12-06 17:02:35 GMT 53.550201 -2.429917 36,050 280 413 0
2019-12-06 17:02:32 GMT 53.548599 -2.413225 36,050 280 413 64
2019-12-06 17:02:26 GMT 53.547829 -2.405440 36,050 280 413 64
2019-12-06 17:02:23 GMT 53.546036 -2.386858 36,050 280 414 -64
2019-12-06 17:02:17 GMT 53.544983 -2.376264 36,050 280 414 0
2019-12-06 17:02:14 GMT 53.542786 -2.353899 36,050 280 414 64
2019-12-06 17:02:11 GMT 53.542786 -2.353899 36,050 280 414 64
2019-12-06 17:02:05 GMT 53.541218 -2.337907 36,025 280 415 0
2019-12-06 17:02:02 GMT 53.540287 -2.328213 36,050 280 415 -64
2019-12-06 17:01:59 GMT 53.539356 -2.319085 36,050 280 415 -128
2019-12-06 17:01:56 GMT 53.538574 -2.311131 36,050 280 415 -64
2019-12-06 17:01:53 GMT 53.537155 -2.296927 36,050 280 415 -64
2019-12-06 17:01:50 GMT 53.536377 -2.289276 36,050 280 415 64
2019-12-06 17:01:47 GMT 53.534702 -2.272150 36,050 280 415 64
2019-12-06 17:01:41 GMT 53.532700 -2.252520 36,050 280 415 0
2019-12-06 17:01:38 GMT 53.532700 -2.252520 36,050 280 415 0
2019-12-06 17:01:35 GMT 53.531723 -2.242180 36,050 280 416 0
2019-12-06 17:01:32 GMT 53.530560 -2.230790 36,050 280 414 128
2019-12-06 17:01:29 GMT 53.529766 -2.222389 36,050 280 416 0
2019-12-06 17:01:26 GMT 53.528503 -2.209821 36,050 280 416 0
2019-12-06 17:01:23 GMT 53.528091 -2.205819 36,025 280 415 0
2019-12-06 17:01:20 GMT 53.527020 -2.195085 36,025 280 415 0
2019-12-06 17:01:17 GMT 53.526031 -2.185259 36,025 280 415 0
2019-12-06 17:01:14 GMT 53.524925 -2.174566 36,025 280 415 0
2019-12-06 17:01:11 GMT 53.523972 -2.164777 36,025 280 415 64
2019-12-06 17:01:08 GMT 53.523434 -2.159460 36,025 280 414 64
2019-12-06 17:01:05 GMT 53.521820 -2.143747 36,025 280 414 64
2019-12-06 17:01:02 GMT 53.521152 -2.137406 36,025 280 414 128
2019-12-06 17:00:59 GMT 53.520222 -2.127955 36,025 280 414 128
2019-12-06 17:00:56 GMT 53.519257 -2.118478 36,000 280 414 0
2019-12-06 17:00:52 GMT 53.517803 -2.103882 36,000 280 414 64
2019-12-06 17:00:49 GMT 53.516964 -2.095561 36,000 280 414 0
2019-12-06 17:00:46 GMT 53.515942 -2.085383 36,000 280 414 0
2019-12-06 17:00:43 GMT 53.515148 -2.077789 36,000 280 413 64
2019-12-06 17:00:40 GMT 53.514038 -2.066607 35,975 280 410 64
2019-12-06 17:00:36 GMT 53.512032 -2.047254 36,000 280 413 0
2019-12-06 17:00:30 GMT 53.509705 -2.024150 36,000 280 413 -64
2019-12-06 17:00:27 GMT 53.509098 -2.018011 36,000 280 413 -64
2019-12-06 17:00:21 GMT 53.506943 -1.996844 36,000 280 409 -192
2019-12-06 17:00:18 GMT 53.506943 -1.996844 36,000 280 411 0
2019-12-06 17:00:15 GMT 53.506256 -1.990016 36,000 280 410 0
2019-12-06 17:00:12 GMT 53.504116 -1.968895 36,000 280 410 0
2019-12-06 17:00:09 GMT 53.504116 -1.968895 36,000 280 410 64
2019-12-06 17:00:06 GMT 53.503326 -1.961452 36,025 280 410 64
2019-12-06 17:00:03 GMT 53.502182 -1.950152 36,000 280 410 64
2019-12-06 17:00:00 GMT 53.500580 -1.934563 36,000 280 410 0
2019-12-06 16:59:57 GMT 53.499599 -1.925192 36,000 280 410 0
2019-12-06 16:59:51 GMT 53.498474 -1.913975 36,000 280 407 192
2019-12-06 16:59:48 GMT 53.497650 -1.906363 36,000 280 409 0
2019-12-06 16:59:45 GMT 53.496140 -1.891767 36,000 280 409 0
2019-12-06 16:59:42 GMT 53.495270 -1.883186 36,000 280 408 64
2019-12-06 16:59:39 GMT 53.494583 -1.876543 36,000 280 407 256
2019-12-06 16:59:36 GMT 53.493690 -1.867757 36,000 280 407 128
2019-12-06 16:59:33 GMT 53.491360 -1.845542 35,975 280 407 256
2019-12-06 16:59:30 GMT 53.491360 -1.845542 35,975 280 408 128
2019-12-06 16:59:27 GMT 53.489639 -1.828831 35,950 280 408 64
2019-12-06 16:59:24 GMT 53.489639 -1.828831 35,950 280 408 0
2019-12-06 16:59:21 GMT 53.489033 -1.822761 35,950 280 409 -128
2019-12-06 16:59:18 GMT 53.487915 -1.812017 35,975 280 409 -192
2019-12-06 16:59:15 GMT 53.487122 -1.804504 35,975 280 409 -256
2019-12-06 16:59:12 GMT 53.485794 -1.791635 36,000 280 408 -192
2019-12-06 16:59:09 GMT 53.485031 -1.784309 36,000 280 408 -192
2019-12-06 16:59:06 GMT 53.483963 -1.773743 36,000 280 403 128
2019-12-06 16:59:03 GMT 53.483139 -1.765974 36,000 280 405 -64
2019-12-06 16:59:00 GMT 53.480747 -1.742706 36,000 280 403 128
2019-12-06 16:58:57 GMT 53.480747 -1.742706 36,000 280 403 128
2019-12-06 16:58:54 GMT 53.480236 -1.738021 36,000 280 404 128
2019-12-06 16:58:51 GMT 53.479210 -1.728166 36,000 280 404 64
2019-12-06 16:58:48 GMT 53.478470 -1.720930 36,000 281 402 64
2019-12-06 16:58:45 GMT 53.477371 -1.710650 35,975 280 404 -64
2019-12-06 16:58:42 GMT 53.476044 -1.697872 36,000 280 404 -64
2019-12-06 16:58:39 GMT 53.475403 -1.691581 36,000 280 404 -64
2019-12-06 16:58:36 GMT 53.474304 -1.680987 36,000 280 404 -64
2019-12-06 16:58:33 GMT 53.472748 -1.666469 36,000 280 404 -64
2019-12-06 16:58:27 GMT 53.470459 -1.644637 36,000 281 402 0
2019-12-06 16:58:24 GMT 53.470459 -1.644637 36,000 281 402 64
2019-12-06 16:58:18 GMT 53.468132 -1.622826 36,000 281 402 64
2019-12-06 16:58:15 GMT 53.467300 -1.614755 35,975 281 402 64
2019-12-06 16:58:12 GMT 53.466503 -1.607154 35,975 281 402 64
2019-12-06 16:58:09 GMT 53.465523 -1.598026 35,975 280 403 64
2019-12-06 16:58:06 GMT 53.464691 -1.590271 35,975 280 404 0
2019-12-06 16:58:03 GMT 53.463383 -1.577669 35,975 280 404 0
2019-12-06 16:58:00 GMT 53.462593 -1.570318 35,975 280 404 0
2019-12-06 16:57:57 GMT 53.461475 -1.559655 35,975 280 404 0
2019-12-06 16:57:54 GMT 53.460636 -1.551415 35,975 280 403 0
2019-12-06 16:57:51 GMT 53.459793 -1.543501 35,975 280 403 64
2019-12-06 16:57:47 GMT 53.458218 -1.528877 35,975 281 402 128
2019-12-06 16:57:44 GMT 53.456497 -1.512660 35,975 281 402 128
2019-12-06 16:57:41 GMT 53.456497 -1.512660 35,950 281 402 128
2019-12-06 16:57:38 GMT 53.455673 -1.504656 35,950 281 402 128
2019-12-06 16:57:35 GMT 53.454575 -1.494376 35,950 281 402 128
2019-12-06 16:57:32 GMT 53.453430 -1.483547 35,950 281 402 -64
2019-12-06 16:57:29 GMT 53.452332 -1.473580 35,950 281 402 0
2019-12-06 16:57:26 GMT 53.451698 -1.467240 35,950 281 402 -64
2019-12-06 16:57:20 GMT 53.449463 -1.446722 35,950 281 402 0
2019-12-06 16:57:17 GMT 53.447937 -1.432146 35,950 281 402 0
2019-12-06 16:57:11 GMT 53.446609 -1.419904 35,950 281 401 -64
2019-12-06 16:57:08 GMT 53.445648 -1.411016 35,950 281 401 0
2019-12-06 16:57:05 GMT 53.444458 -1.399894 35,975 281 400 -64
2019-12-06 16:57:02 GMT 53.443634 -1.392203 35,975 281 400 -128
2019-12-06 16:56:59 GMT 53.442764 -1.384356 35,975 281 400 -64
2019-12-06 16:56:56 GMT 53.441551 -1.372887 36,000 281 400 -192
2019-12-06 16:56:53 GMT 53.440620 -1.364001 35,975 281 400 -192
2019-12-06 16:56:50 GMT 53.439827 -1.356488 36,000 281 399 -128
2019-12-06 16:56:47 GMT 53.438942 -1.348572 36,000 281 399 -128
2019-12-06 16:56:44 GMT 53.437820 -1.337899 36,000 281 399 -128
2019-12-06 16:56:41 GMT 53.436893 -1.329265 36,000 281 399 -128
2019-12-06 16:56:38 GMT 53.436035 -1.321263 36,000 281 400 -64
2019-12-06 16:56:35 GMT 53.434799 -1.309806 36,025 281 400 -128
2019-12-06 16:56:32 GMT 53.434055 -1.302849 36,050 281 402 -64
2019-12-06 16:56:29 GMT 53.433029 -1.293479 36,025 281 400 -64
2019-12-06 16:56:26 GMT 53.431728 -1.281442 36,025 281 400 -64
2019-12-06 16:56:23 GMT 53.431030 -1.275060 36,025 281 400 0
2019-12-06 16:56:20 GMT 53.428982 -1.256077 36,025 281 401 0
2019-12-06 16:56:14 GMT 53.427864 -1.245817 36,050 281 402 -128
2019-12-06 16:56:11 GMT 53.427166 -1.239436 36,050 281 402 -64
2019-12-06 16:56:08 GMT 53.426003 -1.228368 36,050 281 402 -128
2019-12-06 16:56:05 GMT 53.425003 -1.219325 36,050 281 402 -128
2019-12-06 16:56:02 GMT 53.424046 -1.210273 36,050 281 402 -128
2019-12-06 16:55:59 GMT 53.422977 -1.200499 36,050 281 402 -64
2019-12-06 16:55:56 GMT 53.421673 -1.188301 36,050 281 402 -64
2019-12-06 16:55:53 GMT 53.420975 -1.181838 36,050 281 402 -64
2019-12-06 16:55:50 GMT 53.420288 -1.175459 36,050 281 402 0
2019-12-06 16:55:47 GMT 53.419281 -1.166434 36,050 281 402 192
2019-12-06 16:55:44 GMT 53.418228 -1.156553 36,050 281 402 192
2019-12-06 16:55:41 GMT 53.416832 -1.144032 36,050 281 402 128
2019-12-06 16:55:38 GMT 53.415894 -1.135359 36,025 281 402 64
2019-12-06 16:55:35 GMT 53.414829 -1.125695 36,025 281 404 64
2019-12-06 16:55:32 GMT 53.412968 -1.109054 36,025 281 404 64
2019-12-06 16:55:29 GMT 53.412968 -1.109054 36,025 281 405 0
2019-12-06 16:55:26 GMT 53.412140 -1.101301 36,025 281 405 0
2019-12-06 16:55:23 GMT 53.411133 -1.092276 36,025 281 405 0
2019-12-06 16:55:20 GMT 53.409805 -1.080427 36,025 281 405 192
2019-12-06 16:55:16 GMT 53.407654 -1.060887 36,025 281 405 192
2019-12-06 16:55:13 GMT 53.407654 -1.060887 36,000 281 405 192
2019-12-06 16:55:10 GMT 53.406326 -1.049037 36,000 281 405 128
2019-12-06 16:55:07 GMT 53.405685 -1.043387 35,975 281 405 128
2019-12-06 16:55:04 GMT 53.403469 -1.023263 35,975 281 406 64
2019-12-06 16:54:58 GMT 53.402390 -1.013410 35,975 281 406 0
2019-12-06 16:54:55 GMT 53.400352 -0.994586 35,975 281 406 -64
2019-12-06 16:54:52 GMT 53.400352 -0.994586 35,975 281 405 -64
2019-12-06 16:54:49 GMT 53.399139 -0.983747 36,000 281 404 0
2019-12-06 16:54:46 GMT 53.398117 -0.974552 35,975 281 405 0
2019-12-06 16:54:43 GMT 53.397446 -0.968445 36,000 281 405 0
2019-12-06 16:54:40 GMT 53.396439 -0.959185 35,975 281 405 0
2019-12-06 16:54:37 GMT 53.394241 -0.939723 35,975 281 405 0
2019-12-06 16:54:34 GMT 53.392998 -0.928506 36,000 281 404 0
2019-12-06 16:54:31 GMT 53.392998 -0.928506 36,000 281 404 0
2019-12-06 16:54:28 GMT 53.392365 -0.922538 36,000 281 404 0
2019-12-06 16:54:25 GMT 53.390991 -0.910217 35,975 281 404 0
2019-12-06 16:54:22 GMT 53.390343 -0.904514 36,000 281 404 -64
2019-12-06 16:54:19 GMT 53.389206 -0.894601 35,975 281 404 0
2019-12-06 16:54:16 GMT 53.388203 -0.885530 35,975 281 404 0
2019-12-06 16:54:13 GMT 53.386990 -0.874382 35,975 281 405 -64
2019-12-06 16:54:10 GMT 53.385956 -0.865330 35,975 281 405 -64
2019-12-06 16:54:07 GMT 53.384995 -0.856541 35,975 281 405 -64
2019-12-06 16:54:04 GMT 53.384197 -0.849825 36,000 281 405 -128
2019-12-06 16:54:01 GMT 53.381683 -0.827367 36,000 281 405 -64
2019-12-06 16:53:58 GMT 53.380939 -0.820905 36,000 281 405 -128
2019-12-06 16:53:52 GMT 53.379959 -0.812423 36,000 281 405 -64
2019-12-06 16:53:49 GMT 53.378845 -0.802648 36,000 281 405 128
2019-12-06 16:53:46 GMT 53.377579 -0.791173 36,000 281 405 0
2019-12-06 16:53:43 GMT 53.376480 -0.781756 36,000 281 405 0
2019-12-06 16:53:40 GMT 53.375492 -0.773001 36,000 281 405 0
2019-12-06 16:53:37 GMT 53.374329 -0.762904 36,000 281 405 0
2019-12-06 16:53:34 GMT 53.373398 -0.754421 36,000 281 405 0
2019-12-06 16:53:31 GMT 53.372543 -0.746835 36,000 281 405 64
2019-12-06 16:53:28 GMT 53.371628 -0.738831 36,000 281 405 64
2019-12-06 16:53:25 GMT 53.370438 -0.728158 36,000 281 405 128
2019-12-06 16:53:22 GMT 53.369339 -0.718506 36,000 281 405 128
2019-12-06 16:53:19 GMT 53.368378 -0.709795 36,000 281 406 128
2019-12-06 16:53:16 GMT 53.367485 -0.701832 36,000 281 405 128
2019-12-06 16:53:13 GMT 53.366089 -0.689634 36,000 281 406 64
2019-12-06 16:53:09 GMT 53.363937 -0.670715 36,000 281 406 0
2019-12-06 16:53:03 GMT 53.362930 -0.661691 36,000 281 405 -64
2019-12-06 16:53:00 GMT 53.361759 -0.651667 36,000 281 406 -64
2019-12-06 16:52:57 GMT 53.359451 -0.631400 36,000 281 406 -64
2019-12-06 16:52:54 GMT 53.359451 -0.631400 36,000 281 406 0
2019-12-06 16:52:51 GMT 53.357391 -0.613351 36,000 281 405 0
2019-12-06 16:52:48 GMT 53.357391 -0.613351 36,000 281 405 -64
2019-12-06 16:52:45 GMT 53.356590 -0.606106 36,000 281 405 0
2019-12-06 16:52:42 GMT 53.355522 -0.597058 36,000 281 405 -64
2019-12-06 16:52:39 GMT 53.354279 -0.585885 36,000 281 405 -64
2019-12-06 16:52:36 GMT 53.353363 -0.577959 36,000 281 405 -64
2019-12-06 16:52:33 GMT 53.351349 -0.560146 36,000 281 405 -64
2019-12-06 16:52:30 GMT 53.349976 -0.548218 36,000 282 407 64
2019-12-06 16:52:27 GMT 53.349976 -0.548218 36,025 281 405 -64
2019-12-06 16:52:23 GMT 53.348465 -0.534956 36,025 281 404 -64
2019-12-06 16:52:20 GMT 53.347916 -0.530326 36,025 281 404 0
2019-12-06 16:52:17 GMT 53.346634 -0.519339 36,025 281 404 0
2019-12-06 16:52:13 GMT 53.344303 -0.498909 36,025 281 404 0
2019-12-06 16:52:07 GMT 53.342113 -0.480006 36,025 281 404 0
2019-12-06 16:52:01 GMT 53.340820 -0.468802 36,025 281 405 0
2019-12-06 16:51:58 GMT 53.339722 -0.459229 36,025 282 405 64
2019-12-06 16:51:55 GMT 53.338623 -0.449969 36,000 282 405 64
2019-12-06 16:51:52 GMT 53.337925 -0.443977 36,000 282 406 0
2019-12-06 16:51:49 GMT 53.336655 -0.433332 36,000 282 406 0
2019-12-06 16:51:46 GMT 53.335327 -0.421797 36,000 282 406 0
2019-12-06 16:51:43 GMT 53.334389 -0.413522 36,000 282 406 -64
2019-12-06 16:51:40 GMT 53.333405 -0.405082 36,000 282 406 0
2019-12-06 16:51:37 GMT 53.332153 -0.394619 36,000 282 406 0
2019-12-06 16:51:34 GMT 53.331406 -0.388076 36,000 282 406 0
2019-12-06 16:51:31 GMT 53.330338 -0.378867 36,000 281 406 0
2019-12-06 16:51:28 GMT 53.328289 -0.361176 36,000 281 406 0
2019-12-06 16:51:22 GMT 53.327225 -0.351955 35,975 282 406 64
2019-12-06 16:51:19 GMT 53.325962 -0.341384 36,000 282 406 128
2019-12-06 16:51:16 GMT 53.324707 -0.330532 36,000 282 406 64
2019-12-06 16:51:13 GMT 53.324020 -0.324724 35,975 282 406 64
2019-12-06 16:51:10 GMT 53.322922 -0.315072 35,975 282 406 64
2019-12-06 16:51:07 GMT 53.320469 -0.294207 35,975 282 406 64
2019-12-06 16:51:04 GMT 53.320469 -0.294207 35,975 282 407 64
2019-12-06 16:51:01 GMT 53.319630 -0.287018 35,975 282 407 64
2019-12-06 16:50:58 GMT 53.318481 -0.277012 35,975 282 407 64
2019-12-06 16:50:55 GMT 53.317257 -0.266580 35,975 282 407 64
2019-12-06 16:50:52 GMT 53.315414 -0.250959 35,975 282 406 0
2019-12-06 16:50:49 GMT 53.314682 -0.244681 35,975 282 406 0
2019-12-06 16:50:46 GMT 53.313950 -0.238549 35,975 282 406 0
2019-12-06 16:50:42 GMT 53.311523 -0.218000 35,975 282 406 0
2019-12-06 16:50:39 GMT 53.311523 -0.218000 35,975 282 406 0
2019-12-06 16:50:36 GMT 53.310135 -0.206317 35,975 282 406 0
2019-12-06 16:50:33 GMT 53.309601 -0.201678 35,975 282 406 0
2019-12-06 16:50:30 GMT 53.308270 -0.190241 35,975 282 406 -64
2019-12-06 16:50:27 GMT 53.307220 -0.181588 35,975 282 406 0
2019-12-06 16:50:24 GMT 53.306259 -0.173349 35,975 282 406 0
2019-12-06 16:50:21 GMT 53.305161 -0.163696 35,975 282 405 0
2019-12-06 16:50:18 GMT 53.303879 -0.153102 35,975 282 405 0
2019-12-06 16:50:15 GMT 53.303013 -0.145407 35,975 282 405 0
2019-12-06 16:50:12 GMT 53.301498 -0.132778 35,975 282 405 0
2019-12-06 16:50:09 GMT 53.300812 -0.126971 35,975 282 405 0
2019-12-06 16:50:06 GMT 53.298294 -0.106097 35,975 282 405 0
2019-12-06 16:50:00 GMT 53.296555 -0.091265 35,975 282 405 0
2019-12-06 16:49:54 GMT 53.294998 -0.078395 35,975 282 405 0
2019-12-06 16:49:51 GMT 53.293049 -0.062121 35,975 282 406 0
2019-12-06 16:49:48 GMT 53.292118 -0.054124 35,975 282 406 0
2019-12-06 16:49:45 GMT 53.290924 -0.044024 35,975 282 406 -64
2019-12-06 16:49:39 GMT 53.288532 -0.023992 35,975 282 406 0
2019-12-06 16:49:36 GMT 53.288532 -0.023992 35,975 282 406 0
2019-12-06 16:49:32 GMT 53.287125 -0.012163 35,975 282 405 0
2019-12-06 16:49:29 GMT 53.286205 -0.004362 35,975 282 405 0
2019-12-06 16:49:26 GMT 53.285019 0.005964 35,975 282 405 64
2019-12-06 16:49:22 GMT 53.282639 0.025818 35,975 282 405 0
2019-12-06 16:49:16 GMT 53.281723 0.033430 35,975 282 405 0
2019-12-06 16:49:13 GMT 53.280167 0.046300 36,000 282 405 -64
2019-12-06 16:49:08 GMT 53.277359 0.069634 36,000 282 405 -64
2019-12-06 16:49:05 GMT 53.276337 0.078035 36,000 282 405 -64
2019-12-06 16:49:02 GMT 53.275177 0.087655 36,000 282 405 -64
2019-12-06 16:48:56 GMT 53.274055 0.097019 36,000 282 405 0
2019-12-06 16:48:53 GMT 53.272518 0.109702 36,000 282 405 0
2019-12-06 16:48:50 GMT 53.271400 0.118830 36,000 282 405 0
2019-12-06 16:48:47 GMT 53.270657 0.124808 36,000 282 405 0
2019-12-06 16:48:44 GMT 53.269501 0.134504 36,000 282 405 0
2019-12-06 16:48:41 GMT 53.268703 0.141045 36,000 282 406 0
2019-12-06 16:48:38 GMT 53.266983 0.155378 36,000 282 406 0
2019-12-06 16:48:35 GMT 53.266281 0.161160 36,000 282 406 0
2019-12-06 16:48:32 GMT 53.264923 0.172328 36,000 282 406 -64
2019-12-06 16:48:29 GMT 53.263954 0.180305 36,025 282 407 0
2019-12-06 16:48:26 GMT 53.263046 0.187788 36,000 282 407 -64
2019-12-06 16:48:23 GMT 53.261627 0.199166 36,000 282 407 -64
2019-12-06 16:48:20 GMT 53.260300 0.210388 36,025 282 406 -64
2019-12-06 16:48:14 GMT 53.258194 0.227574 36,025 282 406 -64
2019-12-06 16:48:08 GMT 53.255947 0.245900 36,025 282 406 0
2019-12-06 16:48:05 GMT 53.254990 0.253706 36,025 282 406 -64
2019-12-06 16:48:02 GMT 53.253666 0.264641 36,025 282 406 0
2019-12-06 16:47:59 GMT 53.252426 0.274894 36,025 282 406 0
2019-12-06 16:47:56 GMT 53.251694 0.281093 36,025 282 406 0
2019-12-06 16:47:53 GMT 53.250828 0.288068 36,025 282 406 0
2019-12-06 16:47:50 GMT 53.249542 0.298671 36,025 282 406 64
2019-12-06 16:47:47 GMT 53.248405 0.307860 36,025 282 406 64
2019-12-06 16:47:44 GMT 53.247334 0.316988 36,025 282 406 64
2019-12-06 16:47:41 GMT 53.246311 0.325147 36,025 282 406 64
2019-12-06 16:47:38 GMT 53.244919 0.336574 36,025 282 406 64
2019-12-06 16:47:35 GMT 53.244003 0.344107 36,025 282 406 64
2019-12-06 16:47:32 GMT 53.241165 0.367100 36,025 282 406 64
2019-12-06 16:47:29 GMT 53.240204 0.374869 36,025 282 407 0
2019-12-06 16:47:23 GMT 53.239334 0.381853 36,025 282 407 0
2019-12-06 16:47:20 GMT 53.238209 0.391065 36,025 282 407 0
2019-12-06 16:47:17 GMT 53.237186 0.399385 36,025 282 407 0
2019-12-06 16:47:14 GMT 53.235764 0.410653 36,025 282 407 0
2019-12-06 16:47:11 GMT 53.234814 0.418369 36,025 282 407 0
2019-12-06 16:47:08 GMT 53.232578 0.436787 36,025 282 407 0
2019-12-06 16:47:05 GMT 53.231415 0.446202 36,025 282 407 0
2019-12-06 16:47:02 GMT 53.230297 0.455286 36,025 282 407 0
2019-12-06 16:46:59 GMT 53.229172 0.464408 36,025 282 407 0
2019-12-06 16:46:53 GMT 53.227921 0.474836 36,025 282 407 0
2019-12-06 16:46:50 GMT 53.226944 0.482510 36,025 282 407 0
2019-12-06 16:46:47 GMT 53.225739 0.492266 36,025 282 407 0
2019-12-06 16:46:44 GMT 53.224640 0.501369 36,025 282 407 -64
2019-12-06 16:46:41 GMT 53.223312 0.512041 36,025 282 407 0
2019-12-06 16:46:38 GMT 53.222290 0.520154 36,025 282 407 -64
2019-12-06 16:46:35 GMT 53.220932 0.530797 36,025 282 407 -64
2019-12-06 16:46:32 GMT 53.220146 0.537118 36,025 282 407 0
2019-12-06 16:46:29 GMT 53.218735 0.548375 36,025 282 407 0
2019-12-06 16:46:26 GMT 53.217495 0.558041 36,025 282 407 0
2019-12-06 16:46:23 GMT 53.216583 0.565482 36,025 282 407 0
2019-12-06 16:46:20 GMT 53.214340 0.583139 36,025 282 407 -64
2019-12-06 16:46:14 GMT 53.213074 0.593343 36,025 282 407 -64
2019-12-06 16:46:11 GMT 53.211914 0.602600 36,025 282 407 -64
2019-12-06 16:46:08 GMT 53.209393 0.622586 36,025 282 407 64
2019-12-06 16:46:05 GMT 53.209393 0.622586 36,025 282 407 64
2019-12-06 16:46:02 GMT 53.208370 0.630583 36,025 282 407 64
2019-12-06 16:45:59 GMT 53.207207 0.639873 36,025 282 407 64
2019-12-06 16:45:56 GMT 53.205017 0.657079 36,025 282 406 64
2019-12-06 16:45:53 GMT 53.203434 0.669681 36,025 282 407 64
2019-12-06 16:45:50 GMT 53.203434 0.669681 36,025 282 407 0
2019-12-06 16:45:47 GMT 53.202347 0.678249 35,950 283 402 0
2019-12-06 16:45:44 GMT 53.201481 0.685272 36,025 282 407 0
2019-12-06 16:45:41 GMT 53.199966 0.697396 36,025 282 407 0
2019-12-06 16:45:37 GMT 53.198318 0.710423 36,025 282 407 0
2019-12-06 16:45:34 GMT 53.197311 0.718427 36,025 282 407 0
2019-12-06 16:45:31 GMT 53.196396 0.725568 36,025 282 407 0
2019-12-06 16:45:27 GMT 53.194729 0.738669 36,025 282 407 64
2019-12-06 16:45:24 GMT 53.193787 0.746050 36,025 282 406 64
2019-12-06 16:45:21 GMT 53.190681 0.770982 36,000 282 406 0
2019-12-06 16:45:16 GMT 53.190681 0.770982 36,000 282 406 64
2019-12-06 16:45:13 GMT 53.189053 0.783664 36,000 282 406 64
2019-12-06 16:45:10 GMT 53.188259 0.789965 36,000 282 406 64
2019-12-06 16:45:07 GMT 53.186909 0.800790 36,000 282 405 128
2019-12-06 16:45:04 GMT 53.185654 0.810726 36,000 282 405 64
2019-12-06 16:45:01 GMT 53.184814 0.817027 35,975 282 405 64
2019-12-06 16:44:55 GMT 53.182533 0.835203 35,975 282 404 128
2019-12-06 16:44:52 GMT 53.180859 0.848452 35,975 282 404 128
2019-12-06 16:44:49 GMT 53.179825 0.856306 35,975 282 404 192
2019-12-06 16:44:46 GMT 53.178589 0.866115 35,950 283 403 0
2019-12-06 16:44:43 GMT 53.177834 0.871959 35,950 283 405 128
2019-12-06 16:44:40 GMT 53.176529 0.882380 35,950 283 405 0
2019-12-06 16:44:37 GMT 53.175320 0.891670 35,950 283 405 0
2019-12-06 16:44:34 GMT 53.174423 0.898682 35,950 283 403 0
2019-12-06 16:44:31 GMT 53.173004 0.909668 35,950 283 403 0
2019-12-06 16:44:28 GMT 53.172043 0.917123 36,000 283 401 -64
2019-12-06 16:44:22 GMT 53.168106 0.947649 35,950 283 402 0
2019-12-06 16:44:19 GMT 53.168106 0.947649 35,950 283 402 0
2019-12-06 16:44:16 GMT 53.167313 0.954114 35,950 283 402 -64
2019-12-06 16:44:13 GMT 53.165680 0.966555 35,950 283 402 -64
2019-12-06 16:44:10 GMT 53.165039 0.971505 35,950 283 402 0
2019-12-06 16:44:07 GMT 53.163803 0.981158 35,950 283 402 64
2019-12-06 16:44:04 GMT 53.162384 0.992065 35,950 283 401 0
2019-12-06 16:44:00 GMT 53.161011 1.002659 35,950 283 402 0
2019-12-06 16:43:57 GMT 53.159821 1.011605 35,950 283 400 -64
2019-12-06 16:43:54 GMT 53.157623 1.028713 35,950 283 400 -64
2019-12-06 16:43:51 GMT 53.157623 1.028713 35,975 283 400 -64
2019-12-06 16:43:47 GMT 53.155998 1.041278 35,975 283 400 -64
2019-12-06 16:43:44 GMT 53.154510 1.053072 35,975 283 400 -128
2019-12-06 16:43:41 GMT 53.152039 1.072109 36,025 283 401 0
2019-12-06 16:43:38 GMT 53.152039 1.072109 35,975 283 400 -128
2019-12-06 16:43:35 GMT 53.151016 1.080215 35,975 283 400 -64
2019-12-06 16:43:29 GMT 53.148785 1.097260 35,975 283 400 -64
2019-12-06 16:43:26 GMT 53.147919 1.103891 35,975 283 400 -64
2019-12-06 16:43:23 GMT 53.146549 1.114547 35,975 283 400 -64
2019-12-06 16:43:20 GMT 53.145573 1.121979 36,000 283 400 -64
2019-12-06 16:43:17 GMT 53.143707 1.136457 36,000 283 400 0
2019-12-06 16:43:14 GMT 53.143112 1.140930 36,000 283 401 -64
2019-12-06 16:43:10 GMT 53.141693 1.151995 36,000 283 400 -64
2019-12-06 16:43:07 GMT 53.140137 1.163845 36,000 283 400 0
2019-12-06 16:43:04 GMT 53.138912 1.173114 36,000 283 400 0
2019-12-06 16:43:01 GMT 53.137985 1.180246 36,000 283 401 -64
2019-12-06 16:42:58 GMT 53.136887 1.188799 36,000 283 401 -64
2019-12-06 16:42:55 GMT 53.135605 1.198373 36,000 283 401 -64
2019-12-06 16:42:52 GMT 53.134632 1.205911 36,025 283 401 -64
2019-12-06 16:42:49 GMT 53.133423 1.214878 36,025 283 401 -64
2019-12-06 16:42:46 GMT 53.132126 1.225054 36,025 283 401 -64
2019-12-06 16:42:43 GMT 53.130627 1.236204 36,025 283 401 -64
2019-12-06 16:42:40 GMT 53.129463 1.245333 36,025 283 401 -64
2019-12-06 16:42:37 GMT 53.128765 1.250664 36,025 283 401 -64
2019-12-06 16:42:34 GMT 53.127323 1.261651 36,025 283 401 -64
2019-12-06 16:42:30 GMT 53.125946 1.271903 36,025 283 401 -64
2019-12-06 16:42:27 GMT 53.124573 1.282261 36,025 283 402 0
2019-12-06 16:42:24 GMT 53.123413 1.291297 36,050 283 403 0
2019-12-06 16:42:21 GMT 53.121826 1.303292 36,050 283 401 0
2019-12-06 16:42:15 GMT 53.119675 1.319458 36,025 283 402 0
2019-12-06 16:42:12 GMT 53.118477 1.328296 36,050 283 402 0
2019-12-06 16:42:09 GMT 53.117752 1.333897 36,050 283 403 -64
2019-12-06 16:42:06 GMT 53.116337 1.344856 36,050 283 403 0
2019-12-06 16:42:03 GMT 53.115032 1.354711 36,050 283 403 0
2019-12-06 16:42:00 GMT 53.113960 1.362709 36,050 283 403 0
2019-12-06 16:41:57 GMT 53.112625 1.373213 36,050 283 404 -128
2019-12-06 16:41:54 GMT 53.111115 1.384513 36,050 283 404 -64
2019-12-06 16:41:51 GMT 53.110062 1.392596 36,050 283 404 -64
2019-12-06 16:41:47 GMT 53.108780 1.402248 36,050 283 404 64
2019-12-06 16:41:44 GMT 53.107353 1.413036 36,050 283 404 0
2019-12-06 16:41:41 GMT 53.106236 1.421195 36,050 283 404 0
2019-12-06 16:41:38 GMT 53.104019 1.438189 36,050 283 404 0
2019-12-06 16:41:35 GMT 53.104019 1.438189 36,050 283 404 -64
2019-12-06 16:41:32 GMT 53.102509 1.449489 36,050 283 404 0
2019-12-06 16:41:29 GMT 53.101486 1.457143 36,050 283 404 64
2019-12-06 16:41:26 GMT 53.100082 1.467616 36,050 283 404 64
2019-12-06 16:41:23 GMT 53.099159 1.474834 36,050 283 404 64
2019-12-06 16:41:20 GMT 53.097519 1.487313 36,050 283 404 -64
2019-12-06 16:41:17 GMT 53.096603 1.493905 36,050 283 404 0
2019-12-06 16:41:14 GMT 53.095432 1.502946 36,050 283 404 0
2019-12-06 16:41:11 GMT 53.092987 1.521072 36,050 283 404 64
2019-12-06 16:41:08 GMT 53.091614 1.531448 36,050 283 404 64
2019-12-06 16:41:05 GMT 53.091614 1.531448 36,025 283 404 64
2019-12-06 16:41:02 GMT 53.090546 1.539342 36,050 283 404 128
2019-12-06 16:40:58 GMT 53.088917 1.551426 36,025 283 404 64
2019-12-06 16:40:54 GMT 53.087242 1.563982 36,025 283 404 64
2019-12-06 16:40:51 GMT 53.085659 1.575596 36,025 283 405 0
2019-12-06 16:40:48 GMT 53.084961 1.580933 36,000 283 405 64
2019-12-06 16:40:44 GMT 53.083466 1.592026 36,025 283 405 64
2019-12-06 16:40:41 GMT 53.081772 1.604767 36,025 283 405 64
2019-12-06 16:40:38 GMT 53.081001 1.610517 36,025 283 405 0
2019-12-06 16:40:35 GMT 53.079208 1.623917 36,025 283 405 64
2019-12-06 16:40:31 GMT 53.076782 1.641998 36,000 283 404 64
2019-12-06 16:40:28 GMT 53.075043 1.654698 36,000 283 405 0
2019-12-06 16:40:24 GMT 53.075043 1.654698 36,000 283 405 64
2019-12-06 16:40:20 GMT 53.073555 1.665763 36,000 283 404 64
2019-12-06 16:40:17 GMT 53.071060 1.684570 36,000 283 404 64
2019-12-06 16:40:14 GMT 53.069599 1.695426 36,000 283 404 0
2019-12-06 16:40:11 GMT 53.069599 1.695426 36,000 283 404 0
2019-12-06 16:40:07 GMT 53.068268 1.705322 36,000 283 403 64
2019-12-06 16:40:04 GMT 53.066803 1.715927 36,000 283 403 64
2019-12-06 16:39:59 GMT 53.064709 1.731367 35,975 283 403 64
2019-12-06 16:39:56 GMT 53.062336 1.749102 35,975 283 403 64
2019-12-06 16:39:53 GMT 53.062336 1.749102 35,975 283 403 64
2019-12-06 16:39:50 GMT 53.059341 1.771240 35,975 283 403 64
2019-12-06 16:39:47 GMT 53.059341 1.771240 35,975 283 402 64
2019-12-06 16:39:43 GMT 53.058517 1.777039 35,975 283 403 0
2019-12-06 16:39:40 GMT 53.057308 1.786142 35,950 283 399 -64
2019-12-06 16:39:37 GMT 53.055634 1.798070 35,950 283 403 0
2019-12-06 16:39:33 GMT 53.053352 1.815020 35,950 283 403 0
2019-12-06 16:39:30 GMT 53.053352 1.815020 35,950 283 403 -64
2019-12-06 16:39:27 GMT 53.052002 1.824515 35,950 284 399 -64
2019-12-06 16:39:24 GMT 53.050323 1.836993 35,950 283 402 -64
2019-12-06 16:39:21 GMT 53.047714 1.855698 35,975 283 402 0
2019-12-06 16:39:17 GMT 53.047714 1.855698 35,950 283 402 0
2019-12-06 16:39:14 GMT 53.046524 1.864471 35,950 283 401 0
2019-12-06 16:39:08 GMT 53.043762 1.884312 35,950 283 401 0
2019-12-06 16:39:05 GMT 53.042831 1.891139 35,950 283 400 64
2019-12-06 16:39:02 GMT 53.041805 1.898594 35,950 283 400 64
2019-12-06 16:38:59 GMT 53.040272 1.909816 35,950 283 400 64
2019-12-06 16:38:56 GMT 53.039062 1.918411 35,950 283 400 64
2019-12-06 16:38:53 GMT 53.037918 1.927032 35,950 283 400 64
2019-12-06 16:38:49 GMT 53.035675 1.943207 35,950 283 400 -64
2019-12-06 16:38:46 GMT 53.035007 1.947954 35,950 283 400 0
2019-12-06 16:38:43 GMT 53.033615 1.958084 35,975 283 399 -64
2019-12-06 16:38:40 GMT 53.032402 1.966945 35,975 283 400 -64
2019-12-06 16:38:37 GMT 53.030960 1.977696 35,975 283 399 0
2019-12-06 16:38:34 GMT 53.030262 1.982640 35,975 283 399 -64
2019-12-06 16:38:31 GMT 53.028816 1.993312 35,975 283 398 0
2019-12-06 16:38:28 GMT 53.025932 2.014343 35,975 283 399 -64
2019-12-06 16:38:21 GMT 53.024185 2.026901 35,975 283 399 -64
2019-12-06 16:38:18 GMT 53.023140 2.034746 35,975 283 399 -128
2019-12-06 16:38:15 GMT 53.022171 2.041550 36,025 284 402 0
2019-12-06 16:38:12 GMT 53.020950 2.050520 36,000 284 398 -64
2019-12-06 16:38:09 GMT 53.019791 2.058868 35,975 284 398 -64
2019-12-06 16:38:06 GMT 53.018204 2.069981 36,000 284 398 -64
2019-12-06 16:38:03 GMT 53.017181 2.077358 36,000 284 398 -64
2019-12-06 16:38:00 GMT 53.016014 2.085833 36,025 284 399 -64
2019-12-06 16:37:56 GMT 53.014061 2.099644 36,025 284 401 -64
2019-12-06 16:37:53 GMT 53.012787 2.108841 36,000 284 398 -64
2019-12-06 16:37:50 GMT 53.011406 2.118635 36,000 284 399 -64
2019-12-06 16:37:47 GMT 53.010773 2.123337 36,000 284 399 -64
2019-12-06 16:37:44 GMT 53.009125 2.135114 36,025 283 400 -64
2019-12-06 16:37:41 GMT 53.007706 2.145386 36,025 284 399 -64
2019-12-06 16:37:38 GMT 53.006660 2.153085 36,025 283 400 -64
2019-12-06 16:37:35 GMT 53.005589 2.160618 36,025 283 400 0
2019-12-06 16:37:32 GMT 53.004318 2.169724 36,025 283 400 0
2019-12-06 16:37:29 GMT 53.003128 2.178345 36,025 283 400 -64
2019-12-06 16:37:25 GMT 53.001770 2.188163 36,025 284 403 64
2019-12-06 16:37:22 GMT 53.000050 2.200562 36,025 284 401 0
2019-12-06 16:37:19 GMT 52.999146 2.207031 36,025 284 401 -64
2019-12-06 16:37:16 GMT 52.997406 2.219238 36,025 284 401 -64
2019-12-06 16:37:13 GMT 52.996605 2.224967 36,025 284 402 0
2019-12-06 16:37:10 GMT 52.995255 2.234573 36,025 284 402 -64
2019-12-06 16:37:07 GMT 52.994019 2.243500 36,050 283 402 -64
2019-12-06 16:37:04 GMT 52.992966 2.251282 36,050 283 402 -64
2019-12-06 16:37:01 GMT 52.991226 2.263794 36,050 284 402 0
2019-12-06 16:36:58 GMT 52.990311 2.270126 36,050 284 401 64
2019-12-06 16:36:54 GMT 52.987385 2.290963 36,050 284 401 64
2019-12-06 16:36:47 GMT 52.985336 2.305638 36,025 284 402 64
2019-12-06 16:36:44 GMT 52.984268 2.313093 36,025 284 402 64
2019-12-06 16:36:41 GMT 52.982620 2.324982 36,025 284 402 64
2019-12-06 16:36:38 GMT 52.981754 2.331142 36,025 284 403 0
2019-12-06 16:36:35 GMT 52.980698 2.338715 36,025 284 403 0
2019-12-06 16:36:32 GMT 52.979378 2.347857 36,025 284 403 64
2019-12-06 16:36:29 GMT 52.977814 2.359009 36,025 284 403 0
2019-12-06 16:36:26 GMT 52.976303 2.369843 36,000 284 403 0
2019-12-06 16:36:20 GMT 52.973877 2.386703 36,025 284 403 0
2019-12-06 16:36:17 GMT 52.971840 2.401062 36,025 284 403 0
2019-12-06 16:36:14 GMT 52.971840 2.401062 36,000 284 403 64
2019-12-06 16:36:11 GMT 52.970261 2.412186 36,000 284 403 64
2019-12-06 16:36:07 GMT 52.968674 2.423349 36,000 284 404 64
2019-12-06 16:36:04 GMT 52.967239 2.433472 36,000 284 404 64
2019-12-06 16:36:01 GMT 52.966019 2.442025 36,000 284 404 64
2019-12-06 16:35:56 GMT 52.963783 2.457328 35,975 284 403 64
2019-12-06 16:35:53 GMT 52.962387 2.467041 35,975 284 403 64
2019-12-06 16:35:49 GMT 52.961037 2.476711 35,975 284 403 64
2019-12-06 16:35:46 GMT 52.959549 2.487226 35,975 284 403 64
2019-12-06 16:35:43 GMT 52.958199 2.496408 35,975 284 403 0
2019-12-06 16:35:40 GMT 52.957127 2.504098 35,975 284 403 64
2019-12-06 16:35:37 GMT 52.955265 2.517125 35,975 284 403 64
2019-12-06 16:35:34 GMT 52.954285 2.523804 35,975 284 403 64
2019-12-06 16:35:31 GMT 52.952820 2.534332 35,975 284 403 64
2019-12-06 16:35:25 GMT 52.950657 2.549534 35,975 284 403 64
2019-12-06 16:35:22 GMT 52.949585 2.556989 35,975 284 404 64
2019-12-06 16:35:19 GMT 52.947876 2.568665 35,950 284 403 0
2019-12-06 16:35:15 GMT 52.946281 2.579825 35,950 284 403 0
2019-12-06 16:35:12 GMT 52.944466 2.592538 35,950 284 403 0
2019-12-06 16:35:09 GMT 52.943756 2.597427 35,950 284 404 -64
2019-12-06 16:35:05 GMT 52.941971 2.610016 35,975 284 403 0
2019-12-06 16:35:02 GMT 52.940872 2.617493 35,950 284 404 -64
2019-12-06 16:34:59 GMT 52.939625 2.626125 35,975 284 404 -64
2019-12-06 16:34:56 GMT 52.937805 2.638931 35,975 284 403 0
2019-12-06 16:34:50 GMT 52.934097 2.664642 35,975 284 403 0
2019-12-06 16:34:47 GMT 52.934097 2.664642 35,975 284 403 0
2019-12-06 16:34:44 GMT 52.932549 2.675406 35,975 284 403 0
2019-12-06 16:34:41 GMT 52.931625 2.681656 35,975 284 403 0
2019-12-06 16:34:38 GMT 52.930389 2.690277 35,975 284 403 0
2019-12-06 16:34:35 GMT 52.928963 2.700126 35,975 284 403 0
2019-12-06 16:34:32 GMT 52.927689 2.709045 35,975 284 403 0
2019-12-06 16:34:29 GMT 52.926178 2.719650 35,975 284 403 0
2019-12-06 16:34:26 GMT 52.925262 2.725983 35,975 284 403 0
2019-12-06 16:34:23 GMT 52.923798 2.736053 35,975 284 403 0
2019-12-06 16:34:20 GMT 52.922699 2.743454 35,975 284 403 0
2019-12-06 16:34:17 GMT 52.920731 2.757111 35,975 284 403 0
2019-12-06 16:34:14 GMT 52.920025 2.761884 35,975 284 403 0
2019-12-06 16:34:11 GMT 52.917343 2.780457 35,975 284 403 0
2019-12-06 16:34:03 GMT 52.915138 2.795550 35,975 284 404 -64
2019-12-06 16:34:00 GMT 52.913742 2.805280 36,000 284 404 -128
2019-12-06 16:33:57 GMT 52.912579 2.813442 35,975 284 404 -64
2019-12-06 16:33:54 GMT 52.911209 2.822876 35,975 284 404 -128
2019-12-06 16:33:51 GMT 52.909973 2.831421 36,000 284 404 -128
2019-12-06 16:33:48 GMT 52.908760 2.839887 36,000 284 404 -128
2019-12-06 16:33:45 GMT 52.905579 2.861404 36,000 284 404 -64
2019-12-06 16:33:42 GMT 52.904617 2.868138 36,000 284 404 -64
2019-12-06 16:33:36 GMT 52.903336 2.876740 36,000 284 404 0
2019-12-06 16:33:33 GMT 52.901779 2.887344 36,000 284 404 0
2019-12-06 16:33:30 GMT 52.900452 2.896347 36,000 284 404 0
2019-12-06 16:33:27 GMT 52.899403 2.903687 36,000 284 404 0
2019-12-06 16:33:24 GMT 52.898148 2.912162 36,000 284 404 0
2019-12-06 16:33:21 GMT 52.896881 2.920761 36,000 284 405 64
2019-12-06 16:33:18 GMT 52.895187 2.932587 36,000 284 405 64
2019-12-06 16:33:14 GMT 52.893585 2.943394 36,000 284 405 64
2019-12-06 16:33:11 GMT 52.892303 2.952347 36,000 284 406 0
2019-12-06 16:33:08 GMT 52.891071 2.960737 36,000 285 409 -64
2019-12-06 16:33:05 GMT 52.889694 2.970047 36,000 284 407 0
2019-12-06 16:33:02 GMT 52.888416 2.978629 36,000 284 406 0
2019-12-06 16:32:59 GMT 52.886974 2.988438 36,000 284 406 0
2019-12-06 16:32:56 GMT 52.885437 2.999032 36,000 284 407 0
2019-12-06 16:32:53 GMT 52.884087 3.008135 36,000 284 407 0
2019-12-06 16:32:50 GMT 52.882690 3.017709 36,000 284 407 0
2019-12-06 16:32:46 GMT 52.881527 3.025399 36,000 284 406 0
2019-12-06 16:32:43 GMT 52.878735 3.044547 36,000 284 407 64
2019-12-06 16:32:40 GMT 52.878735 3.044547 36,000 284 406 -64
2019-12-06 16:32:37 GMT 52.877289 3.054199 36,000 284 401 128
2019-12-06 16:32:34 GMT 52.875847 3.063695 36,000 285 409 0
2019-12-06 16:32:31 GMT 52.874451 3.073120 36,000 284 406 0
2019-12-06 16:32:28 GMT 52.873077 3.082199 36,000 285 407 0
2019-12-06 16:32:25 GMT 52.870399 3.100028 36,000 285 407 0
2019-12-06 16:32:22 GMT 52.870399 3.100028 36,000 285 409 0
2019-12-06 16:32:19 GMT 52.868591 3.111877 36,000 285 407 0
2019-12-06 16:32:16 GMT 52.867561 3.118548 36,000 285 408 0
2019-12-06 16:32:13 GMT 52.865982 3.128738 36,000 285 408 0
2019-12-06 16:32:10 GMT 52.864563 3.137741 36,000 285 409 -64
2019-12-06 16:32:07 GMT 52.863419 3.145218 36,000 284 407 64
2019-12-06 16:32:04 GMT 52.861816 3.155823 36,000 285 409 -64
2019-12-06 16:32:01 GMT 52.860397 3.165207 36,000 285 409 0
2019-12-06 16:31:58 GMT 52.859367 3.171910 36,000 285 409 -64
2019-12-06 16:31:55 GMT 52.858109 3.180466 36,000 284 408 0
2019-12-06 16:31:51 GMT 52.856342 3.192078 36,000 285 409 0
2019-12-06 16:31:48 GMT 52.853500 3.211147 36,000 284 407 0
2019-12-06 16:31:42 GMT 52.852058 3.220642 36,000 284 407 64
2019-12-06 16:31:39 GMT 52.849457 3.238144 36,000 284 406 64
2019-12-06 16:31:36 GMT 52.847992 3.247910 36,000 284 405 0
2019-12-06 16:31:30 GMT 52.847076 3.254150 36,000 284 404 -64
2019-12-06 16:31:27 GMT 52.843540 3.277614 36,000 284 404 -64
2019-12-06 16:31:23 GMT 52.843540 3.277614 36,000 284 402 64
2019-12-06 16:31:20 GMT 52.841820 3.289150 36,000 284 402 0
2019-12-06 16:31:17 GMT 52.840935 3.295035 36,000 284 401 64
2019-12-06 16:31:14 GMT 52.839676 3.303432 36,000 284 401 64
2019-12-06 16:31:11 GMT 52.838379 3.312149 35,975 284 402 0
2019-12-06 16:31:08 GMT 52.836838 3.322580 36,000 284 401 64
2019-12-06 16:31:05 GMT 52.835625 3.330584 35,975 284 401 64
2019-12-06 16:31:02 GMT 52.832886 3.348999 35,975 284 402 0
2019-12-06 16:30:56 GMT 52.831669 3.357030 36,000 284 402 -64
2019-12-06 16:30:53 GMT 52.828995 3.375092 36,000 285 402 -64
2019-12-06 16:30:47 GMT 52.825836 3.395844 36,000 285 402 -64
2019-12-06 16:30:41 GMT 52.824738 3.403015 36,025 285 413 128
2019-12-06 16:30:38 GMT 52.823639 3.410339 36,025 285 402 -128
2019-12-06 16:30:35 GMT 52.822220 3.419571 36,025 285 402 -128
2019-12-06 16:30:31 GMT 52.819843 3.435111 36,025 285 402 -64
2019-12-06 16:30:28 GMT 52.817516 3.450413 36,000 285 405 64
2019-12-06 16:30:25 GMT 52.817516 3.450413 36,025 285 402 0
2019-12-06 16:30:22 GMT 52.816040 3.460007 36,025 285 403 64
2019-12-06 16:30:19 GMT 52.814804 3.468246 36,000 285 404 64
2019-12-06 16:30:16 GMT 52.813560 3.476388 36,000 285 406 64
2019-12-06 16:30:13 GMT 52.812210 3.484942 35,975 285 407 64
2019-12-06 16:30:10 GMT 52.810638 3.495255 35,975 285 408 0
2019-12-06 16:30:07 GMT 52.809311 3.503952 35,975 285 410 -128
2019-12-06 16:30:04 GMT 52.808029 3.512115 36,025 285 414 -64
2019-12-06 16:30:01 GMT 52.805008 3.531799 36,050 285 414 128
2019-12-06 16:29:58 GMT 52.805008 3.531799 36,050 285 414 0
2019-12-06 16:29:52 GMT 52.801922 3.551801 36,050 285 414 128
2019-12-06 16:29:49 GMT 52.800751 3.559341 36,050 285 414 128
2019-12-06 16:29:46 GMT 52.799316 3.568673 36,000 285 413 64
2019-12-06 16:29:42 GMT 52.796127 3.589096 36,025 285 414 64
2019-12-06 16:29:36 GMT 52.792564 3.612069 36,025 285 414 64
2019-12-06 16:29:32 GMT 52.792564 3.612069 36,025 285 411 64
2019-12-06 16:29:29 GMT 52.791355 3.619838 36,000 285 412 64
2019-12-06 16:29:26 GMT 52.790146 3.627686 36,000 285 411 128
2019-12-06 16:29:23 GMT 52.788574 3.637924 36,000 285 411 128
2019-12-06 16:29:20 GMT 52.786606 3.650757 36,000 285 411 128
2019-12-06 16:29:16 GMT 52.785461 3.658447 35,975 284 409 256
2019-12-06 16:29:13 GMT 52.783768 3.669815 35,975 284 409 0
2019-12-06 16:29:09 GMT 52.782257 3.680038 35,975 284 409 64
2019-12-06 16:29:06 GMT 52.780838 3.689575 35,975 284 409 128
2019-12-06 16:29:03 GMT 52.779438 3.698626 35,975 286 409 64
2019-12-06 16:29:00 GMT 52.777725 3.709030 35,950 286 410 64
2019-12-06 16:28:57 GMT 52.776398 3.716660 35,950 287 409 0
2019-12-06 16:28:54 GMT 52.774796 3.725433 35,975 288 409 0
2019-12-06 16:28:51 GMT 52.773060 3.734488 35,950 290 409 0
2019-12-06 16:28:48 GMT 52.769211 3.752365 35,975 291 408 0
2019-12-06 16:28:45 GMT 52.769211 3.752365 35,950 291 408 0
2019-12-06 16:28:42 GMT 52.767151 3.761292 35,975 292 408 0
2019-12-06 16:28:39 GMT 52.764999 3.770218 35,950 293 409 0
2019-12-06 16:28:36 GMT 52.759933 3.790676 35,950 293 408 0
2019-12-06 16:28:32 GMT 52.759933 3.790676 35,950 293 407 0
2019-12-06 16:28:29 GMT 52.757931 3.798601 35,950 293 406 64
2019-12-06 16:28:26 GMT 52.755798 3.807068 35,950 293 406 0
2019-12-06 16:28:23 GMT 52.753738 3.815460 35,950 293 406 64
2019-12-06 16:28:20 GMT 52.751274 3.825439 35,950 293 405 64
2019-12-06 16:28:17 GMT 52.749271 3.833365 35,975 293 405 64
2019-12-06 16:28:14 GMT 52.747597 3.840114 35,950 293 405 64
2019-12-06 16:28:11 GMT 52.743034 3.858634 35,950 293 400 -128
2019-12-06 16:28:08 GMT 52.743034 3.858634 35,950 293 402 0
2019-12-06 16:28:05 GMT 52.740192 3.870091 35,950 293 401 0
2019-12-06 16:28:02 GMT 52.738907 3.875275 36,025 293 400 -128
2019-12-06 16:27:59 GMT 52.736843 3.883667 35,950 293 400 -128
2019-12-06 16:27:56 GMT 52.734741 3.891983 35,950 293 401 0
2019-12-06 16:27:53 GMT 52.732452 3.901291 35,950 293 401 -64
2019-12-06 16:27:50 GMT 52.730373 3.909563 35,950 293 401 -64
2019-12-06 16:27:47 GMT 52.726276 3.926043 35,975 293 399 -128
2019-12-06 16:27:41 GMT 52.724213 3.934326 35,975 293 400 -128
2019-12-06 16:27:38 GMT 52.721664 3.944406 36,000 293 397 -64
2019-12-06 16:27:35 GMT 52.719898 3.951390 35,975 293 399 -64
2019-12-06 16:27:32 GMT 52.717575 3.960876 35,975 293 398 -64
2019-12-06 16:27:29 GMT 52.715103 3.970773 36,000 293 397 -64
2019-12-06 16:27:26 GMT 52.714005 3.974991 36,000 293 397 -64
2019-12-06 16:27:23 GMT 52.710709 3.988342 36,000 293 396 -64
2019-12-06 16:27:20 GMT 52.708969 3.995209 36,000 293 397 -64
2019-12-06 16:27:17 GMT 52.706909 4.003339 36,000 293 397 -64
2019-12-06 16:27:13 GMT 52.704758 4.011993 36,000 293 397 -64
2019-12-06 16:27:10 GMT 52.702744 4.020004 36,000 293 397 -64
2019-12-06 16:27:07 GMT 52.700207 4.030099 36,025 293 396 -64
2019-12-06 16:27:04 GMT 52.697739 4.039987 36,025 293 395 0
2019-12-06 16:27:01 GMT 52.695690 4.048070 36,025 293 395 -64
2019-12-06 16:26:58 GMT 52.693314 4.057693 36,025 293 395 128
2019-12-06 16:26:55 GMT 52.691254 4.065857 36,025 293 396 0
2019-12-06 16:26:52 GMT 52.689606 4.072495 36,025 293 395 0
2019-12-06 16:26:48 GMT 52.686661 4.084167 36,000 293 395 0
2019-12-06 16:26:45 GMT 52.684471 4.092957 36,000 293 396 0
2019-12-06 16:26:42 GMT 52.683399 4.097194 36,025 293 396 0
2019-12-06 16:26:39 GMT 52.680679 4.107895 36,025 293 396 -64
2019-12-06 16:26:36 GMT 52.676559 4.124222 36,025 293 395 0
2019-12-06 16:26:30 GMT 52.671936 4.142761 36,025 293 396 -64
2019-12-06 16:26:26 GMT 52.671936 4.142761 36,025 293 395 0
2019-12-06 16:26:23 GMT 52.668777 4.155350 36,025 293 396 64
2019-12-06 16:26:20 GMT 52.667015 4.162249 36,000 293 396 64
2019-12-06 16:26:17 GMT 52.663242 4.177237 36,000 293 396 64
2019-12-06 16:26:11 GMT 52.661381 4.184692 36,000 293 395 128
2019-12-06 16:26:08 GMT 52.659565 4.191755 36,000 293 395 128
2019-12-06 16:26:05 GMT 52.656830 4.202576 35,975 293 396 128
2019-12-06 16:26:02 GMT 52.654400 4.212158 36,000 293 397 -64
2019-12-06 16:25:58 GMT 52.651703 4.222794 35,975 293 396 0
2019-12-06 16:25:55 GMT 52.647835 4.237976 36,000 293 397 -64
2019-12-06 16:25:52 GMT 52.645660 4.246674 36,000 293 397 -64
2019-12-06 16:25:49 GMT 52.645660 4.246674 36,000 293 397 -64
2019-12-06 16:25:45 GMT 52.642685 4.258423 35,975 293 396 0
2019-12-06 16:25:42 GMT 52.640900 4.265363 35,975 293 396 0
2019-12-06 16:25:39 GMT 52.639034 4.272897 35,975 293 396 -64
2019-12-06 16:25:36 GMT 52.636105 4.284354 35,975 293 396 -64
2019-12-06 16:25:33 GMT 52.634380 4.291103 35,975 293 396 -64
2019-12-06 16:25:30 GMT 52.632240 4.299500 36,000 293 396 -64
2019-12-06 16:25:27 GMT 52.629398 4.310800 36,000 293 396 -64
2019-12-06 16:25:24 GMT 52.627632 4.317784 36,000 293 395 -64
2019-12-06 16:25:21 GMT 52.625908 4.324611 36,000 293 395 0
2019-12-06 16:25:18 GMT 52.624146 4.331589 36,000 293 394 128
2019-12-06 16:25:15 GMT 52.621719 4.340934 36,050 293 394 -128
2019-12-06 16:25:12 GMT 52.619530 4.349566 36,000 293 394 128
2019-12-06 16:25:09 GMT 52.617828 4.356308 35,975 293 395 -128
2019-12-06 16:25:06 GMT 52.615219 4.366379 36,000 293 395 0
2019-12-06 16:25:03 GMT 52.611198 4.382211 36,000 293 395 -128
2019-12-06 16:25:00 GMT 52.611198 4.382211 36,000 293 395 -128
2019-12-06 16:24:57 GMT 52.609039 4.390793 36,000 293 395 -128
2019-12-06 16:24:54 GMT 52.606476 4.400711 36,025 293 395 -64
2019-12-06 16:24:51 GMT 52.604122 4.409991 36,025 293 395 -64
2019-12-06 16:24:48 GMT 52.602959 4.414542 36,000 293 394 -64
2019-12-06 16:24:45 GMT 52.599884 4.426498 36,025 293 394 0
2019-12-06 16:24:42 GMT 52.597698 4.435102 36,000 293 394 0
2019-12-06 16:24:39 GMT 52.596222 4.440842 36,000 293 395 0
2019-12-06 16:24:36 GMT 52.593510 4.451425 36,000 293 395 0
2019-12-06 16:24:33 GMT 52.591553 4.459037 36,000 293 395 0
2019-12-06 16:24:30 GMT 52.589924 4.465315 36,025 293 395 0
2019-12-06 16:24:27 GMT 52.587921 4.473162 36,000 293 395 0
2019-12-06 16:24:24 GMT 52.583267 4.491272 36,025 293 395 -64
2019-12-06 16:24:21 GMT 52.583267 4.491272 36,025 293 394 -64
2019-12-06 16:24:18 GMT 52.579285 4.506760 36,050 293 394 -128
2019-12-06 16:24:15 GMT 52.579285 4.506760 36,025 293 394 -128
2019-12-06 16:24:12 GMT 52.576889 4.516087 36,025 293 394 -128
2019-12-06 16:24:09 GMT 52.575493 4.521659 36,050 293 394 0
2019-12-06 16:24:06 GMT 52.572884 4.531782 36,050 293 395 -64
2019-12-06 16:24:03 GMT 52.570835 4.539708 36,050 293 394 -64
2019-12-06 16:24:00 GMT 52.568710 4.548035 36,025 293 394 -64
2019-12-06 16:23:57 GMT 52.567066 4.554304 36,025 293 394 -64
2019-12-06 16:23:54 GMT 52.562347 4.572449 36,050 293 394 0
2019-12-06 16:23:48 GMT 52.558037 4.589225 36,025 293 395 -64
2019-12-06 16:23:45 GMT 52.558037 4.589225 36,050 293 394 64
2019-12-06 16:23:42 GMT 52.555519 4.598877 36,050 293 394 128
2019-12-06 16:23:39 GMT 52.553787 4.605637 36,025 293 394 64
2019-12-06 16:23:36 GMT 52.551983 4.612453 36,025 293 394 64
2019-12-06 16:23:33 GMT 52.549576 4.621887 36,025 293 395 0
2019-12-06 16:23:30 GMT 52.547840 4.628619 36,025 293 395 -64
2019-12-06 16:23:27 GMT 52.545319 4.638443 36,025 293 395 -64
2019-12-06 16:23:24 GMT 52.543533 4.645157 36,050 293 395 -64
2019-12-06 16:23:21 GMT 52.541138 4.654593 36,050 293 395 -64
2019-12-06 16:23:18 GMT 52.539047 4.662628 36,050 293 395 0
2019-12-06 16:23:15 GMT 52.536900 4.670916 36,050 293 394 128
2019-12-06 16:23:12 GMT 52.534431 4.680411 36,025 293 394 128
2019-12-06 16:23:09 GMT 52.532246 4.688965 36,025 293 394 0
2019-12-06 16:23:06 GMT 52.530521 4.695557 36,000 293 394 0
2019-12-06 16:23:03 GMT 52.527916 4.705601 36,000 293 394 0
2019-12-06 16:23:00 GMT 52.526138 4.712448 36,000 293 394 0
2019-12-06 16:22:57 GMT 52.523911 4.721139 36,025 293 394 -64
2019-12-06 16:22:54 GMT 52.521011 4.732285 36,025 293 394 0
2019-12-06 16:22:51 GMT 52.519585 4.737854 36,000 293 394 0
2019-12-06 16:22:48 GMT 52.517715 4.745026 36,000 293 394 0
2019-12-06 16:22:45 GMT 52.515579 4.753313 36,000 293 394 0
2019-12-06 16:22:42 GMT 52.512817 4.763947 36,000 294 393 128
2019-12-06 16:22:39 GMT 52.510620 4.772568 36,000 294 393 128
2019-12-06 16:22:36 GMT 52.509201 4.778033 35,975 294 391 64
2019-12-06 16:22:33 GMT 52.504173 4.797337 36,000 294 393 64
2019-12-06 16:22:27 GMT 52.502289 4.804535 36,000 294 393 64
2019-12-06 16:22:24 GMT 52.500359 4.812012 35,975 294 393 64
2019-12-06 16:22:21 GMT 52.498589 4.818917 35,975 294 393 64
2019-12-06 16:22:18 GMT 52.495834 4.829407 35,975 293 393 0
2019-12-06 16:22:15 GMT 52.494026 4.836417 35,975 293 393 64
2019-12-06 16:22:12 GMT 52.491325 4.846933 35,975 293 393 0
2019-12-06 16:22:09 GMT 52.489601 4.853603 35,975 293 393 0
2019-12-06 16:22:06 GMT 52.487881 4.860352 35,975 294 391 128
2019-12-06 16:22:03 GMT 52.485321 4.870239 35,975 294 391 0
2019-12-06 16:22:00 GMT 52.483475 4.877167 35,975 294 391 -64
2019-12-06 16:21:57 GMT 52.481277 4.885635 35,975 294 391 64
2019-12-06 16:21:54 GMT 52.479362 4.892997 35,975 294 391 64
2019-12-06 16:21:51 GMT 52.476849 4.902570 35,975 294 390 128
2019-12-06 16:21:48 GMT 52.474709 4.910810 35,950 294 390 64
2019-12-06 16:21:45 GMT 52.470612 4.926270 35,950 294 391 0
2019-12-06 16:21:42 GMT 52.467957 4.936314 35,950 294 391 -64
2019-12-06 16:21:39 GMT 52.467957 4.936314 35,950 294 390 -128
2019-12-06 16:21:36 GMT 52.466652 4.941415 35,975 294 390 -128
2019-12-06 16:21:33 GMT 52.463768 4.952480 35,975 294 389 -64
2019-12-06 16:21:30 GMT 52.462372 4.957894 35,975 294 390 -64
2019-12-06 16:21:27 GMT 52.459854 4.967422 35,975 294 389 -64
2019-12-06 16:21:24 GMT 52.457657 4.975815 35,975 294 388 0
2019-12-06 16:21:21 GMT 52.455414 4.984512 35,975 294 388 0
2019-12-06 16:21:18 GMT 52.453491 4.991760 35,975 294 388 0
2019-12-06 16:21:15 GMT 52.450928 5.001450 35,975 294 388 0
2019-12-06 16:21:12 GMT 52.449242 5.007961 35,975 294 388 -64
2019-12-06 16:21:09 GMT 52.446774 5.017299 35,975 294 388 -64
2019-12-06 16:21:06 GMT 52.444866 5.024519 36,000 294 388 -64
2019-12-06 16:21:03 GMT 52.442398 5.033779 35,975 294 388 -64
2019-12-06 16:21:00 GMT 52.440678 5.040370 35,975 294 388 -64
2019-12-06 16:20:57 GMT 52.438629 5.048218 36,000 294 388 -64
2019-12-06 16:20:54 GMT 52.435741 5.059204 36,000 294 388 -64
2019-12-06 16:20:51 GMT 52.434113 5.065325 36,000 294 388 -64
2019-12-06 16:20:48 GMT 52.431702 5.074463 36,000 294 388 -64
2019-12-06 16:20:45 GMT 52.430344 5.079686 36,000 294 388 -64
2019-12-06 16:20:42 GMT 52.427628 5.090027 36,000 294 387 64
2019-12-06 16:20:39 GMT 52.425568 5.097885 36,000 294 387 0
2019-12-06 16:20:36 GMT 52.423462 5.105743 36,000 294 387 64
2019-12-06 16:20:33 GMT 52.422104 5.110997 36,000 294 387 64
2019-12-06 16:20:30 GMT 52.419823 5.119707 36,000 294 387 64
2019-12-06 16:20:27 GMT 52.417374 5.128860 36,000 294 387 64
2019-12-06 16:20:24 GMT 52.415913 5.134460 36,000 294 388 0
2019-12-06 16:20:21 GMT 52.412884 5.145996 36,000 294 388 0
2019-12-06 16:20:18 GMT 52.408928 5.161063 36,000 294 388 0
2019-12-06 16:20:15 GMT 52.406925 5.168753 36,000 294 388 0
2019-12-06 16:20:12 GMT 52.404133 5.179269 36,000 294 388 0
2019-12-06 16:20:09 GMT 52.404133 5.179269 36,000 294 388 -64
2019-12-06 16:20:06 GMT 52.400803 5.192032 36,000 294 388 0
2019-12-06 16:20:03 GMT 52.398033 5.202576 36,000 294 388 0
2019-12-06 16:20:00 GMT 52.398033 5.202576 36,000 294 388 64
2019-12-06 16:19:57 GMT 52.395428 5.212463 36,000 294 388 64
2019-12-06 16:19:54 GMT 52.393658 5.219055 36,000 294 390 0
2019-12-06 16:19:51 GMT 52.391331 5.227923 36,000 294 389 0
2019-12-06 16:19:48 GMT 52.389050 5.236476 36,000 294 389 -64
2019-12-06 16:19:45 GMT 52.386955 5.244481 36,000 294 390 -64
2019-12-06 16:19:42 GMT 52.385193 5.251007 36,000 294 390 0
2019-12-06 16:19:38 GMT 52.381882 5.263550 36,000 294 390 0
2019-12-06 16:19:35 GMT 52.380066 5.270377 36,000 294 390 64
2019-12-06 16:19:28 GMT 52.375854 5.286484 36,000 294 390 0
2019-12-06 16:19:25 GMT 52.373081 5.296744 36,000 294 390 0
2019-12-06 16:19:22 GMT 52.371231 5.303955 36,000 294 390 -64
2019-12-06 16:19:19 GMT 52.369171 5.311661 36,000 294 390 -64
2019-12-06 16:19:16 GMT 52.367264 5.318874 36,000 294 390 0
2019-12-06 16:19:13 GMT 52.364891 5.327820 36,000 294 390 0
2019-12-06 16:19:10 GMT 52.360748 5.343399 36,000 294 390 0
2019-12-06 16:19:07 GMT 52.358372 5.352304 36,025 294 394 64
2019-12-06 16:19:01 GMT 52.355759 5.362167 36,000 294 390 -192
2019-12-06 16:18:57 GMT 52.353104 5.372086 36,000 294 391 -192
2019-12-06 16:18:54 GMT 52.351273 5.378876 36,025 294 391 -192
2019-12-06 16:18:51 GMT 52.349155 5.386989 36,050 294 390 -128
2019-12-06 16:18:48 GMT 52.346603 5.396576 36,050 294 390 -128
2019-12-06 16:18:45 GMT 52.344589 5.404129 36,050 294 390 -64
2019-12-06 16:18:42 GMT 52.342438 5.412140 36,050 294 390 0
2019-12-06 16:18:38 GMT 52.340012 5.421371 36,000 294 390 128
2019-12-06 16:18:35 GMT 52.337471 5.430777 36,025 294 390 128
2019-12-06 16:18:32 GMT 52.335571 5.437927 36,025 294 390 128
2019-12-06 16:18:29 GMT 52.332916 5.447922 36,025 294 390 128
2019-12-06 16:18:26 GMT 52.330673 5.456238 36,025 294 392 64
2019-12-06 16:18:23 GMT 52.329163 5.461731 36,025 294 392 64
2019-12-06 16:18:20 GMT 52.326717 5.470878 36,025 294 393 64
2019-12-06 16:18:17 GMT 52.322342 5.487289 36,000 294 394 64
2019-12-06 16:18:14 GMT 52.320145 5.495529 36,025 294 393 0
2019-12-06 16:18:11 GMT 52.317444 5.505600 36,025 294 394 64
2019-12-06 16:18:08 GMT 52.317444 5.505600 36,025 294 394 64
2019-12-06 16:18:05 GMT 52.314972 5.514832 36,025 294 394 128
2019-12-06 16:18:02 GMT 52.313263 5.521258 36,000 294 394 64
2019-12-06 16:17:59 GMT 52.308792 5.537796 36,000 294 394 128
2019-12-06 16:17:56 GMT 52.308792 5.537796 36,000 294 394 64
2019-12-06 16:17:53 GMT 52.307400 5.542995 36,000 294 394 0
2019-12-06 16:17:50 GMT 52.304764 5.552750 36,000 294 394 0
2019-12-06 16:17:47 GMT 52.302567 5.560760 36,000 294 395 0
2019-12-06 16:17:44 GMT 52.299625 5.571716 36,000 294 394 0
2019-12-06 16:17:41 GMT 52.298172 5.577087 36,000 294 395 0
2019-12-06 16:17:38 GMT 52.295620 5.586626 36,000 294 394 0
2019-12-06 16:17:35 GMT 52.293365 5.594940 36,000 294 394 0
2019-12-06 16:17:32 GMT 52.291149 5.603184 36,000 294 394 0
2019-12-06 16:17:26 GMT 52.286911 5.618896 36,000 294 394 -64
2019-12-06 16:17:23 GMT 52.285034 5.625839 36,000 294 394 0
2019-12-06 16:17:20 GMT 52.283203 5.632553 36,000 294 394 0
2019-12-06 16:17:17 GMT 52.277603 5.653486 36,025 294 395 -128
2019-12-06 16:17:14 GMT 52.277603 5.653486 36,000 294 394 0
2019-12-06 16:17:10 GMT 52.275696 5.660392 36,025 294 395 -64
2019-12-06 16:17:07 GMT 52.273041 5.670319 36,025 294 395 -128
2019-12-06 16:17:04 GMT 52.268387 5.687701 36,025 294 395 -128
2019-12-06 16:16:58 GMT 52.266945 5.693037 36,025 294 394 -64
2019-12-06 16:16:55 GMT 52.262196 5.710458 36,025 294 394 0
2019-12-06 16:16:52 GMT 52.260086 5.718307 36,025 294 394 64
2019-12-06 16:16:49 GMT 52.260086 5.718307 36,025 294 394 64
2019-12-06 16:16:46 GMT 52.257912 5.726310 36,025 294 394 64
2019-12-06 16:16:43 GMT 52.255417 5.735474 36,025 294 394 0
2019-12-06 16:16:39 GMT 52.253304 5.743182 36,025 294 394 0
2019-12-06 16:16:36 GMT 52.247772 5.763626 36,025 294 395 0
2019-12-06 16:16:33 GMT 52.247772 5.763626 36,025 294 394 64
2019-12-06 16:16:30 GMT 52.245808 5.770883 36,025 294 394 64
2019-12-06 16:16:26 GMT 52.242874 5.781631 36,025 294 394 64
2019-12-06 16:16:23 GMT 52.237942 5.799840 36,025 294 394 64
2019-12-06 16:16:20 GMT 52.237942 5.799840 36,025 294 394 64
2019-12-06 16:16:17 GMT 52.236877 5.803680 36,025 294 394 64
2019-12-06 16:16:14 GMT 52.233856 5.814819 36,000 294 394 128
2019-12-06 16:16:11 GMT 52.231750 5.822601 36,025 294 394 128
2019-12-06 16:16:08 GMT 52.229370 5.831299 36,000 294 394 128
2019-12-06 16:16:05 GMT 52.227676 5.837555 36,000 294 394 64
2019-12-06 16:16:02 GMT 52.225559 5.845354 36,000 294 394 0
2019-12-06 16:15:59 GMT 52.223007 5.854797 36,000 294 394 0
2019-12-06 16:15:56 GMT 52.221088 5.861755 36,000 294 394 0
2019-12-06 16:15:53 GMT 52.218887 5.869827 36,000 294 394 0
2019-12-06 16:15:50 GMT 52.214355 5.886459 36,000 294 394 64
2019-12-06 16:15:47 GMT 52.212204 5.894318 35,975 294 394 64
2019-12-06 16:15:44 GMT 52.210510 5.900574 35,975 294 394 64
2019-12-06 16:15:38 GMT 52.207638 5.911037 35,975 294 393 64
2019-12-06 16:15:35 GMT 52.204971 5.920868 35,975 294 393 64
2019-12-06 16:15:32 GMT 52.202637 5.929337 35,975 294 393 0
2019-12-06 16:15:29 GMT 52.200806 5.936203 35,975 294 393 64
2019-12-06 16:15:26 GMT 52.198517 5.944595 35,975 294 393 64
2019-12-06 16:15:23 GMT 52.195953 5.953903 35,975 294 393 0
2019-12-06 16:15:19 GMT 52.191483 5.970285 35,975 294 393 0
2019-12-06 16:15:16 GMT 52.189060 5.979074 35,950 294 392 0
2019-12-06 16:15:13 GMT 52.189060 5.979074 35,950 294 391 64
2019-12-06 16:15:10 GMT 52.186249 5.989456 35,950 294 392 64
2019-12-06 16:15:07 GMT 52.184372 5.996246 35,950 294 392 64
2019-12-06 16:15:04 GMT 52.182495 6.003113 35,950 294 391 0
2019-12-06 16:15:01 GMT 52.180264 6.011405 35,950 294 391 0
2019-12-06 16:14:58 GMT 52.177551 6.021347 35,950 294 391 -64
2019-12-06 16:14:55 GMT 52.175949 6.027222 35,950 294 391 0
2019-12-06 16:14:52 GMT 52.173328 6.036830 35,950 294 391 0
2019-12-06 16:14:49 GMT 52.171600 6.043243 35,950 295 389 -64
2019-12-06 16:14:46 GMT 52.168945 6.052933 35,950 295 390 64
2019-12-06 16:14:43 GMT 52.167252 6.059036 35,950 295 389 -64
2019-12-06 16:14:40 GMT 52.162582 6.076126 35,950 295 389 -64
2019-12-06 16:14:37 GMT 52.160480 6.083915 35,950 295 389 -64
2019-12-06 16:14:31 GMT 52.158188 6.092148 35,975 295 389 -64
2019-12-06 16:14:27 GMT 52.154984 6.103745 35,975 295 389 -64
2019-12-06 16:14:24 GMT 52.152786 6.111755 35,975 295 389 -64
2019-12-06 16:14:21 GMT 52.150562 6.119934 35,975 295 389 -64
2019-12-06 16:14:18 GMT 52.148609 6.126997 35,975 295 389 0
2019-12-06 16:14:15 GMT 52.146561 6.134491 35,975 295 389 0
2019-12-06 16:14:12 GMT 52.143997 6.143723 35,975 295 389 -64
2019-12-06 16:14:06 GMT 52.140087 6.158072 35,975 295 389 0
2019-12-06 16:14:03 GMT 52.137157 6.168745 35,975 295 389 0
2019-12-06 16:14:00 GMT 52.135761 6.173689 35,975 295 389 0
2019-12-06 16:13:57 GMT 52.132828 6.184387 35,975 295 388 0
2019-12-06 16:13:54 GMT 52.131012 6.191031 35,975 295 388 0
2019-12-06 16:13:51 GMT 52.126190 6.208496 35,975 295 388 0
2019-12-06 16:13:48 GMT 52.124542 6.214447 35,975 295 389 0
2019-12-06 16:13:42 GMT 52.122299 6.222610 35,975 295 389 0
2019-12-06 16:13:39 GMT 52.117813 6.238632 35,975 295 389 0
2019-12-06 16:13:36 GMT 52.117813 6.238632 35,975 295 389 0
2019-12-06 16:13:33 GMT 52.115936 6.245422 35,975 295 389 0
2019-12-06 16:13:30 GMT 52.112949 6.256165 35,975 295 390 0
2019-12-06 16:13:26 GMT 52.109970 6.266915 35,975 295 390 64
2019-12-06 16:13:23 GMT 52.108109 6.273664 35,975 295 390 64
2019-12-06 16:13:20 GMT 52.106293 6.280099 35,975 295 390 128
2019-12-06 16:13:17 GMT 52.103916 6.288731 35,975 295 390 128
2019-12-06 16:13:14 GMT 52.102287 6.294538 35,975 295 390 64
2019-12-06 16:13:11 GMT 52.099503 6.304550 35,975 295 392 0
2019-12-06 16:13:08 GMT 52.097542 6.311567 35,950 295 391 0
2019-12-06 16:13:05 GMT 52.094330 6.323103 35,975 295 391 -64
2019-12-06 16:13:02 GMT 52.093094 6.327667 35,975 295 391 0
2019-12-06 16:12:59 GMT 52.091034 6.334991 35,975 295 392 0
2019-12-06 16:12:56 GMT 52.086594 6.351089 35,975 295 392 0
2019-12-06 16:12:50 GMT 52.080597 6.372681 35,975 295 392 0
2019-12-06 16:12:46 GMT 52.078308 6.380920 35,950 295 392 -64
2019-12-06 16:12:40 GMT 52.074543 6.394435 35,975 295 392 0
2019-12-06 16:12:34 GMT 52.071487 6.405411 36,000 295 397 0
2019-12-06 16:12:31 GMT 52.069469 6.412720 35,975 295 392 0
2019-12-06 16:12:28 GMT 52.065216 6.427917 35,975 295 393 -64
2019-12-06 16:12:25 GMT 52.065216 6.427917 35,975 295 393 -128
2019-12-06 16:12:22 GMT 52.062561 6.437378 35,975 295 393 -128
2019-12-06 16:12:19 GMT 52.060730 6.444092 35,975 295 393 -128
2019-12-06 16:12:16 GMT 52.058624 6.451564 36,000 295 394 0
2019-12-06 16:12:13 GMT 52.056152 6.460495 36,000 295 394 -64
2019-12-06 16:12:10 GMT 52.054001 6.468277 36,000 295 395 0
2019-12-06 16:12:07 GMT 52.048801 6.486877 36,000 295 394 0
2019-12-06 16:12:04 GMT 52.048801 6.486877 36,000 295 395 -64
2019-12-06 16:12:01 GMT 52.047363 6.492004 36,000 295 395 0
2019-12-06 16:11:58 GMT 52.044704 6.501552 36,000 295 395 -64
2019-12-06 16:11:55 GMT 52.042515 6.509242 36,000 295 396 -64
2019-12-06 16:11:49 GMT 52.038185 6.524780 36,025 295 396 0
2019-12-06 16:11:46 GMT 52.035858 6.533098 36,000 295 396 0
2019-12-06 16:11:43 GMT 52.033203 6.542594 36,000 295 397 0
2019-12-06 16:11:40 GMT 52.031021 6.550293 36,025 295 405 64
2019-12-06 16:11:37 GMT 52.029015 6.557425 36,000 295 397 0
2019-12-06 16:11:34 GMT 52.027084 6.564484 36,025 295 397 -64
2019-12-06 16:11:31 GMT 52.021801 6.583086 36,025 295 399 -64
2019-12-06 16:11:28 GMT 52.021801 6.583086 36,025 295 399 0
2019-12-06 16:11:25 GMT 52.019623 6.590881 36,025 295 399 0
2019-12-06 16:11:19 GMT 52.014584 6.608826 36,050 295 399 -64
2019-12-06 16:11:16 GMT 52.012711 6.615524 36,025 295 399 -64
2019-12-06 16:11:13 GMT 52.009964 6.625366 36,025 295 399 -64
2019-12-06 16:11:10 GMT 52.007904 6.632614 36,050 295 400 -64
2019-12-06 16:11:07 GMT 52.005787 6.640137 36,050 295 400 -64
2019-12-06 16:11:04 GMT 52.003410 6.648690 36,050 295 400 -64
2019-12-06 16:11:01 GMT 52.001270 6.656381 36,050 295 400 0
2019-12-06 16:10:58 GMT 51.997101 6.671219 36,050 295 400 0
2019-12-06 16:10:52 GMT 51.994400 6.680679 36,050 295 402 0
2019-12-06 16:10:49 GMT 51.992191 6.688634 36,050 295 402 0
2019-12-06 16:10:46 GMT 51.987167 6.706467 36,050 295 403 0
2019-12-06 16:10:43 GMT 51.987167 6.706467 36,050 295 403 -64
2019-12-06 16:10:40 GMT 51.985069 6.713745 36,050 295 403 -64
2019-12-06 16:10:37 GMT 51.983021 6.720965 36,050 295 403 -64
2019-12-06 16:10:34 GMT 51.980324 6.730617 36,050 295 403 -64
2019-12-06 16:10:31 GMT 51.977947 6.738857 36,050 295 404 0
2019-12-06 16:10:28 GMT 51.976318 6.744742 36,050 295 404 0
2019-12-06 16:10:25 GMT 51.973297 6.755371 36,050 295 404 0
2019-12-06 16:10:22 GMT 51.971199 6.762791 36,050 295 405 64
2019-12-06 16:10:19 GMT 51.968216 6.773224 36,050 295 406 0
2019-12-06 16:10:16 GMT 51.966309 6.779899 36,050 295 404 64
2019-12-06 16:10:13 GMT 51.964588 6.786019 36,050 295 405 64
2019-12-06 16:10:10 GMT 51.962311 6.794052 36,050 295 406 0
2019-12-06 16:10:07 GMT 51.959381 6.804428 36,050 295 406 64
2019-12-06 16:10:03 GMT 51.956589 6.814117 36,025 295 406 64
2019-12-06 16:10:00 GMT 51.954300 6.822205 36,025 295 407 64
2019-12-06 16:09:57 GMT 51.951736 6.831284 36,025 295 407 64
2019-12-06 16:09:54 GMT 51.949814 6.838074 36,025 295 408 -64
2019-12-06 16:09:51 GMT 51.944801 6.855704 36,025 295 407 128
2019-12-06 16:09:48 GMT 51.944801 6.855704 36,025 295 407 128
2019-12-06 16:09:45 GMT 51.939495 6.874302 36,000 295 408 0
2019-12-06 16:09:42 GMT 51.939495 6.874302 36,000 295 408 64
2019-12-06 16:09:39 GMT 51.937134 6.882629 36,000 295 408 64
2019-12-06 16:09:36 GMT 51.934700 6.891174 36,000 295 408 64
2019-12-06 16:09:32 GMT 51.931366 6.902771 36,000 295 408 0
2019-12-06 16:09:26 GMT 51.924690 6.926252 36,000 295 408 0
2019-12-06 16:09:23 GMT 51.924690 6.926252 36,000 295 408 0
2019-12-06 16:09:17 GMT 51.919525 6.944380 36,000 295 408 0
2019-12-06 16:09:14 GMT 51.917477 6.951678 36,000 295 407 0
2019-12-06 16:09:11 GMT 51.915482 6.958618 36,000 295 407 64
2019-12-06 16:09:08 GMT 51.912868 6.967765 36,025 296 408 0
2019-12-06 16:09:05 GMT 51.910820 6.974984 36,000 295 407 64
2019-12-06 16:09:02 GMT 51.908844 6.981964 36,000 295 407 0
2019-12-06 16:08:59 GMT 51.903534 7.000580 36,000 295 408 0
2019-12-06 16:08:56 GMT 51.903534 7.000580 36,000 295 406 0
2019-12-06 16:08:53 GMT 51.900810 7.010141 35,975 295 408 0
2019-12-06 16:08:50 GMT 51.899227 7.015555 35,975 295 408 0
2019-12-06 16:08:47 GMT 51.896572 7.024894 36,000 295 408 -64
2019-12-06 16:08:44 GMT 51.894150 7.033386 36,000 295 408 -64
2019-12-06 16:08:41 GMT 51.889664 7.049140 36,000 295 408 -64
2019-12-06 16:08:38 GMT 51.886520 7.060089 36,000 295 408 -64
2019-12-06 16:08:35 GMT 51.884937 7.065506 36,000 295 408 -64
2019-12-06 16:08:32 GMT 51.881699 7.076903 36,000 295 407 -64
2019-12-06 16:08:29 GMT 51.881699 7.076903 36,000 295 406 -64
2019-12-06 16:08:26 GMT 51.877487 7.091526 36,000 295 406 -64
2019-12-06 16:08:23 GMT 51.877487 7.091526 36,000 295 406 -64
2019-12-06 16:08:17 GMT 51.870598 7.115479 36,000 295 406 -64
2019-12-06 16:08:14 GMT 51.870598 7.115479 36,000 295 406 0
2019-12-06 16:08:11 GMT 51.867599 7.126044 36,000 295 406 0
2019-12-06 16:08:08 GMT 51.865894 7.131805 36,000 295 406 0
2019-12-06 16:08:05 GMT 51.863289 7.141037 36,025 295 406 0
2019-12-06 16:08:02 GMT 51.860355 7.151108 36,025 295 406 0
2019-12-06 16:07:59 GMT 51.858215 7.158558 36,025 295 406 0
2019-12-06 16:07:56 GMT 51.856495 7.164688 36,025 295 406 -64
2019-12-06 16:07:53 GMT 51.854095 7.172885 36,025 295 406 0
2019-12-06 16:07:50 GMT 51.851372 7.182465 36,025 295 407 0
2019-12-06 16:07:47 GMT 51.849510 7.188950 36,025 295 407 0
2019-12-06 16:07:44 GMT 51.846542 7.199237 36,025 295 408 0
2019-12-06 16:07:41 GMT 51.843796 7.208813 36,025 295 408 0
2019-12-06 16:07:38 GMT 51.842110 7.214584 36,025 295 408 0
2019-12-06 16:07:35 GMT 51.839676 7.222991 36,025 295 408 -64
2019-12-06 16:07:32 GMT 51.837128 7.231979 36,025 295 408 -64
2019-12-06 16:07:29 GMT 51.832844 7.246704 36,025 296 408 0
2019-12-06 16:07:23 GMT 51.828415 7.262037 36,025 296 408 0
2019-12-06 16:07:17 GMT 51.823013 7.280669 36,025 296 408 0
2019-12-06 16:07:11 GMT 51.820221 7.290319 36,025 295 409 -64
2019-12-06 16:07:08 GMT 51.818275 7.297058 36,025 296 408 0
2019-12-06 16:07:04 GMT 51.815369 7.307096 36,025 295 409 -64
2019-12-06 16:07:01 GMT 51.812550 7.316895 36,025 295 409 -64
2019-12-06 16:06:58 GMT 51.810547 7.323685 36,025 295 409 -64
2019-12-06 16:06:55 GMT 51.807846 7.332993 36,025 295 409 -64
2019-12-06 16:06:52 GMT 51.804680 7.343903 36,025 295 409 -64
2019-12-06 16:06:49 GMT 51.802631 7.350998 36,025 295 409 -64
2019-12-06 16:06:46 GMT 51.800583 7.358019 36,025 296 408 0
2019-12-06 16:06:43 GMT 51.798477 7.365442 36,050 296 408 0
2019-12-06 16:06:40 GMT 51.795368 7.376022 36,025 296 408 -64
2019-12-06 16:06:37 GMT 51.793533 7.382441 36,050 296 408 -64
2019-12-06 16:06:34 GMT 51.788898 7.398376 36,025 296 408 0
2019-12-06 16:06:31 GMT 51.788898 7.398376 36,050 296 407 0
2019-12-06 16:06:28 GMT 51.785965 7.408447 36,050 296 408 64
2019-12-06 16:06:25 GMT 51.782593 7.420003 36,025 296 408 64
2019-12-06 16:06:22 GMT 51.781723 7.423120 36,025 296 408 0
2019-12-06 16:06:19 GMT 51.778702 7.433364 36,050 296 408 0
2019-12-06 16:06:15 GMT 51.776276 7.441753 36,050 296 408 0
2019-12-06 16:06:12 GMT 51.773117 7.452545 36,050 296 408 0
2019-12-06 16:06:06 GMT 51.768448 7.468625 36,025 296 408 64
2019-12-06 16:06:03 GMT 51.765903 7.477264 36,025 296 407 128
2019-12-06 16:06:00 GMT 51.763435 7.485886 36,025 296 408 128
2019-12-06 16:05:57 GMT 51.761490 7.492527 36,025 296 407 64
2019-12-06 16:05:54 GMT 51.758595 7.502441 36,025 296 399 64
2019-12-06 16:05:51 GMT 51.753845 7.518768 35,975 296 402 -64
2019-12-06 16:05:48 GMT 51.752151 7.524521 36,025 296 407 64
2019-12-06 16:05:45 GMT 51.749680 7.532984 36,025 296 407 64
2019-12-06 16:05:42 GMT 51.749680 7.532984 36,000 296 407 64
2019-12-06 16:05:39 GMT 51.747162 7.541595 36,000 296 407 64
2019-12-06 16:05:36 GMT 51.744003 7.552358 36,000 296 407 128
2019-12-06 16:05:33 GMT 51.742115 7.558823 35,975 296 407 0
2019-12-06 16:05:30 GMT 51.740067 7.565765 36,000 296 407 64
2019-12-06 16:05:27 GMT 51.737041 7.576218 36,000 296 407 64
2019-12-06 16:05:23 GMT 51.733292 7.588806 36,000 296 407 0
2019-12-06 16:05:20 GMT 51.731266 7.595749 36,000 296 407 0
2019-12-06 16:05:17 GMT 51.728893 7.603912 36,000 296 407 64
2019-12-06 16:05:14 GMT 51.726101 7.613373 36,000 296 407 64
2019-12-06 16:05:11 GMT 51.721756 7.628149 35,975 296 406 64
2019-12-06 16:05:05 GMT 51.719284 7.636612 35,975 296 406 64
2019-12-06 16:05:02 GMT 51.714935 7.651458 35,975 296 406 64
2019-12-06 16:04:59 GMT 51.712418 7.659920 35,950 296 406 64
2019-12-06 16:04:56 GMT 51.712418 7.659920 35,950 296 405 64
2019-12-06 16:04:53 GMT 51.709248 7.670746 35,950 296 405 0
2019-12-06 16:04:50 GMT 51.707565 7.676400 35,950 296 405 0
2019-12-06 16:04:47 GMT 51.705185 7.684491 35,950 296 404 0
2019-12-06 16:04:43 GMT 51.702545 7.693558 35,950 296 404 0
2019-12-06 16:04:40 GMT 51.699425 7.704163 35,950 296 404 0
2019-12-06 16:04:37 GMT 51.696541 7.713852 35,950 296 403 0
2019-12-06 16:04:34 GMT 51.694164 7.721939 35,950 296 403 0
2019-12-06 16:04:31 GMT 51.692642 7.727175 35,950 296 403 0
2019-12-06 16:04:28 GMT 51.690674 7.733765 35,950 296 403 0
2019-12-06 16:04:25 GMT 51.687881 7.743301 35,950 296 403 0
2019-12-06 16:04:22 GMT 51.682713 7.760773 35,950 296 403 0
2019-12-06 16:04:19 GMT 51.682713 7.760773 35,950 296 403 0
2019-12-06 16:04:14 GMT 51.679138 7.772827 35,950 296 403 0
2019-12-06 16:04:11 GMT 51.676380 7.782211 35,950 296 402 0
2019-12-06 16:04:08 GMT 51.672089 7.796730 35,950 296 402 64
2019-12-06 16:04:05 GMT 51.672089 7.796730 35,950 296 402 0
2019-12-06 16:04:02 GMT 51.669399 7.805710 35,950 296 402 0
2019-12-06 16:03:59 GMT 51.667118 7.813339 35,950 296 402 0
2019-12-06 16:03:56 GMT 51.664627 7.821820 35,950 296 402 0
2019-12-06 16:03:53 GMT 51.661812 7.831345 35,950 296 402 0
2019-12-06 16:03:50 GMT 51.659363 7.839636 35,950 296 402 -64
2019-12-06 16:03:47 GMT 51.657303 7.846614 35,950 296 402 0
2019-12-06 16:03:44 GMT 51.654922 7.854557 35,950 296 402 -64
2019-12-06 16:03:41 GMT 51.651993 7.864504 35,950 296 402 0
2019-12-06 16:03:38 GMT 51.647614 7.879181 35,975 296 402 0
2019-12-06 16:03:35 GMT 51.647614 7.879181 35,950 305 410 -128
2019-12-06 16:03:32 GMT 51.645519 7.886353 35,975 296 402 0
2019-12-06 16:03:29 GMT 51.643250 7.893899 35,950 296 402 64
2019-12-06 16:03:26 GMT 51.640457 7.903401 35,975 296 402 64
2019-12-06 16:03:23 GMT 51.638676 7.909393 35,950 296 402 0
2019-12-06 16:03:20 GMT 51.635376 7.920474 35,950 296 402 0
2019-12-06 16:03:17 GMT 51.633739 7.925873 35,950 296 402 0
2019-12-06 16:03:14 GMT 51.630569 7.936657 35,950 296 402 -64
2019-12-06 16:03:10 GMT 51.627274 7.947643 35,950 296 402 -64
2019-12-06 16:03:07 GMT 51.625534 7.953582 35,950 296 402 -64
2019-12-06 16:03:04 GMT 51.623108 7.961673 35,950 296 402 -64
2019-12-06 16:03:01 GMT 51.619904 7.972511 35,950 296 402 0
2019-12-06 16:02:58 GMT 51.617889 7.979340 35,950 296 402 0
2019-12-06 16:02:55 GMT 51.612793 7.996521 35,950 296 402 -64
2019-12-06 16:02:49 GMT 51.608368 8.011246 35,975 297 402 0
2019-12-06 16:02:43 GMT 51.606400 8.017570 35,975 297 402 -64
2019-12-06 16:02:40 GMT 51.603058 8.028037 35,975 299 404 64
2019-12-06 16:02:37 GMT 51.598389 8.041621 35,975 300 404 64
2019-12-06 16:02:34 GMT 51.598389 8.041621 35,950 301 406 0
2019-12-06 16:02:31 GMT 51.595055 8.050842 35,950 302 407 0
2019-12-06 16:02:28 GMT 51.592682 8.057022 35,950 303 408 -64
2019-12-06 16:02:25 GMT 51.589874 8.064113 35,975 306 412 -128
2019-12-06 16:02:22 GMT 51.585281 8.075027 35,975 305 410 -128
2019-12-06 16:02:18 GMT 51.575912 8.095365 36,000 308 413 -128
2019-12-06 16:02:14 GMT 51.575912 8.095365 36,000 310 414 -64
2019-12-06 16:02:11 GMT 51.574245 8.098679 36,000 311 415 -64
2019-12-06 16:02:08 GMT 51.564926 8.115853 36,000 314 420 -128
2019-12-06 16:02:02 GMT 51.562180 8.120604 36,000 314 419 -128
2019-12-06 16:01:59 GMT 51.558609 8.126617 36,050 314 420 -128
2019-12-06 16:01:56 GMT 51.553894 8.134634 36,025 314 420 -128
2019-12-06 16:01:53 GMT 51.551064 8.139343 36,050 314 420 -64
2019-12-06 16:01:50 GMT 51.545700 8.148441 36,025 314 420 -128
2019-12-06 16:01:47 GMT 51.537872 8.161728 36,050 314 420 -128
2019-12-06 16:01:44 GMT 51.533142 8.169632 36,050 314 422 0
2019-12-06 16:01:41 GMT 51.533142 8.169632 36,050 314 420 -64
2019-12-06 16:01:38 GMT 51.526199 8.181400 36,050 314 421 0
2019-12-06 16:01:35 GMT 51.526199 8.181400 36,050 314 421 0
2019-12-06 16:01:32 GMT 51.522202 8.188248 36,050 314 421 0
2019-12-06 16:01:29 GMT 51.518097 8.195133 36,050 314 421 0
2019-12-06 16:01:26 GMT 51.512936 8.203888 36,050 314 422 0
2019-12-06 16:01:23 GMT 51.508530 8.211315 36,050 314 423 0
2019-12-06 16:01:20 GMT 51.506516 8.214804 36,050 314 423 0
2019-12-06 16:01:17 GMT 51.502350 8.221856 36,050 314 423 0
2019-12-06 16:01:14 GMT 51.494129 8.235703 36,050 314 425 64
2019-12-06 16:01:11 GMT 51.489475 8.243637 36,050 314 425 0
2019-12-06 16:01:08 GMT 51.483891 8.253098 36,050 314 425 64
2019-12-06 16:01:04 GMT 51.483891 8.253098 36,050 314 425 0
2019-12-06 16:01:01 GMT 51.475479 8.267360 36,050 314 425 64
2019-12-06 16:00:58 GMT 51.475479 8.267360 36,050 314 425 64
2019-12-06 16:00:55 GMT 51.472672 8.272171 36,050 314 425 0
2019-12-06 16:00:52 GMT 51.468109 8.279831 36,050 314 426 0
2019-12-06 16:00:49 GMT 51.465221 8.284760 36,025 314 425 -64
2019-12-06 16:00:46 GMT 51.460190 8.293342 36,050 314 426 0
2019-12-06 16:00:43 GMT 51.456051 8.300400 36,050 314 426 0
2019-12-06 16:00:40 GMT 51.446415 8.316803 36,050 314 426 0
2019-12-06 16:00:36 GMT 51.446415 8.316803 36,050 314 426 0
2019-12-06 16:00:33 GMT 51.442364 8.323669 36,050 314 427 0
2019-12-06 16:00:30 GMT 51.439339 8.328857 36,050 314 427 0
2019-12-06 16:00:27 GMT 51.434635 8.336868 36,050 314 427 64
2019-12-06 16:00:24 GMT 51.430725 8.343582 36,050 314 427 64
2019-12-06 16:00:21 GMT 51.421043 8.360138 36,050 314 428 -64
2019-12-06 16:00:18 GMT 51.421043 8.360138 36,025 312 421 0
2019-12-06 16:00:15 GMT 51.414001 8.372176 36,050 313 428 0
2019-12-06 16:00:09 GMT 51.410618 8.377991 36,050 314 428 0
2019-12-06 16:00:06 GMT 51.406612 8.384857 36,050 314 428 0
2019-12-06 16:00:02 GMT 51.401306 8.393936 36,050 313 428 -64
2019-12-06 15:59:59 GMT 51.397064 8.401201 36,050 313 428 0
2019-12-06 15:59:55 GMT 51.390289 8.412855 36,050 313 428 0
2019-12-06 15:59:52 GMT 51.387711 8.417282 35,975 313 429 64
2019-12-06 15:59:49 GMT 51.383289 8.424911 36,050 313 428 0
2019-12-06 15:59:46 GMT 51.378075 8.433914 36,025 313 429 64
2019-12-06 15:59:43 GMT 51.374771 8.439560 36,050 313 428 0
2019-12-06 15:59:38 GMT 51.364700 8.456949 36,050 313 428 64
2019-12-06 15:59:35 GMT 51.364700 8.456949 36,050 313 428 128
2019-12-06 15:59:32 GMT 51.361359 8.462739 36,050 313 428 64
2019-12-06 15:59:29 GMT 51.355217 8.473358 36,050 313 429 64
2019-12-06 15:59:26 GMT 51.351261 8.480301 36,050 313 429 64
2019-12-06 15:59:23 GMT 51.347912 8.486099 36,050 313 429 0
2019-12-06 15:59:20 GMT 51.340229 8.499451 36,050 313 429 64
2019-12-06 15:59:14 GMT 51.337296 8.504562 36,025 313 429 64
2019-12-06 15:59:11 GMT 51.333435 8.511287 36,025 313 429 64
2019-12-06 15:59:08 GMT 51.323502 8.528583 36,025 313 429 64
2019-12-06 15:59:05 GMT 51.323502 8.528583 36,000 313 429 64
2019-12-06 15:59:02 GMT 51.320206 8.534224 36,025 313 429 64
2019-12-06 15:58:56 GMT 51.311832 8.548813 36,000 313 429 64
2019-12-06 15:58:50 GMT 51.304047 8.562358 35,975 313 429 128
2019-12-06 15:58:46 GMT 51.299355 8.570557 36,000 313 429 128
2019-12-06 15:58:43 GMT 51.293816 8.580246 35,975 313 428 64
2019-12-06 15:58:39 GMT 51.290230 8.586426 35,975 313 427 64
2019-12-06 15:58:36 GMT 51.285278 8.595094 35,975 313 428 64
2019-12-06 15:58:33 GMT 51.281666 8.601379 35,975 313 428 0
2019-12-06 15:58:30 GMT 51.277012 8.609543 35,975 313 428 0
2019-12-06 15:58:27 GMT 51.273937 8.614883 35,975 313 427 64
2019-12-06 15:58:24 GMT 51.265778 8.629167 35,975 313 422 0
2019-12-06 15:58:18 GMT 51.257675 8.643345 35,975 313 425 0
2019-12-06 15:58:15 GMT 51.252895 8.651657 35,975 313 426 0
2019-12-06 15:58:09 GMT 51.250443 8.655965 35,975 313 426 0
2019-12-06 15:58:06 GMT 51.245590 8.664427 35,975 313 426 0
2019-12-06 15:58:03 GMT 51.242191 8.670349 35,975 313 425 0
2019-12-06 15:58:00 GMT 51.236755 8.679867 35,975 313 423 0
2019-12-06 15:57:56 GMT 51.232784 8.686829 35,975 313 423 0
2019-12-06 15:57:52 GMT 51.223709 8.702657 35,975 313 423 0
2019-12-06 15:57:46 GMT 51.220451 8.708496 35,975 313 423 0
2019-12-06 15:57:43 GMT 51.214142 8.719507 35,950 313 422 0
2019-12-06 15:57:40 GMT 51.206360 8.733166 35,975 313 422 0
2019-12-06 15:57:37 GMT 51.206360 8.733166 35,975 313 421 0
2019-12-06 15:57:33 GMT 51.202835 8.739327 35,975 313 421 -64
2019-12-06 15:57:30 GMT 51.198212 8.747418 35,975 313 421 0
2019-12-06 15:57:27 GMT 51.193588 8.755658 35,975 313 421 0
2019-12-06 15:57:24 GMT 51.189632 8.762589 35,975 313 421 0
2019-12-06 15:57:20 GMT 51.184341 8.771841 35,975 313 420 0
2019-12-06 15:57:16 GMT 51.180599 8.778381 35,975 313 420 64
2019-12-06 15:57:13 GMT 51.175140 8.788023 35,975 313 420 64
2019-12-06 15:57:09 GMT 51.167587 8.801311 35,975 313 420 0
2019-12-06 15:57:03 GMT 51.158386 8.817419 35,975 313 420 -64
2019-12-06 15:57:00 GMT 51.158386 8.817419 35,975 313 419 0
2019-12-06 15:56:57 GMT 51.151520 8.829445 35,975 313 419 0
2019-12-06 15:56:54 GMT 51.147549 8.836517 35,975 313 419 0
2019-12-06 15:56:51 GMT 51.144058 8.842658 35,975 313 419 0
2019-12-06 15:56:45 GMT 51.139122 8.851395 35,975 312 420 -64
2019-12-06 15:56:42 GMT 51.135910 8.857059 35,975 312 420 -64
2019-12-06 15:56:39 GMT 51.132046 8.863907 35,975 312 420 -64
2019-12-06 15:56:36 GMT 51.127251 8.872375 35,975 312 420 -64
2019-12-06 15:56:33 GMT 51.122829 8.880234 36,000 312 419 0
2019-12-06 15:56:29 GMT 51.113659 8.896484 36,000 312 419 -64
2019-12-06 15:56:26 GMT 51.113659 8.896484 36,000 312 419 -64
2019-12-06 15:56:20 GMT 51.103512 8.914490 36,000 312 419 -64
2019-12-06 15:56:17 GMT 51.099060 8.922457 36,000 312 419 -64
2019-12-06 15:56:14 GMT 51.099060 8.922457 36,000 312 419 0
2019-12-06 15:56:11 GMT 51.094990 8.929672 36,000 312 419 0
2019-12-06 15:56:07 GMT 51.091080 8.936691 36,000 312 419 0
2019-12-06 15:56:03 GMT 51.084457 8.948438 36,000 312 420 64
2019-12-06 15:56:00 GMT 51.082581 8.951779 36,000 312 420 64
2019-12-06 15:55:57 GMT 51.078094 8.959732 36,000 312 420 -64
2019-12-06 15:55:54 GMT 51.072418 8.969892 36,000 312 420 -64
2019-12-06 15:55:51 GMT 51.069157 8.975677 36,000 312 420 -64
2019-12-06 15:55:48 GMT 51.066742 8.979987 36,000 312 421 0
2019-12-06 15:55:45 GMT 51.062073 8.988227 36,000 312 421 0
2019-12-06 15:55:42 GMT 51.058960 8.993794 36,000 312 421 0
2019-12-06 15:55:39 GMT 51.055069 9.000698 36,000 312 421 0
2019-12-06 15:55:36 GMT 51.051327 9.007263 36,000 308 421 64
2019-12-06 15:55:33 GMT 51.046436 9.016037 36,000 312 421 0
2019-12-06 15:55:30 GMT 51.038197 9.030533 36,000 312 422 -64
2019-12-06 15:55:27 GMT 51.033234 9.039298 36,000 313 422 -64
2019-12-06 15:55:23 GMT 51.033234 9.039298 36,000 313 422 -64
2019-12-06 15:55:20 GMT 51.029892 9.045163 36,000 313 421 -64
2019-12-06 15:55:17 GMT 51.024216 9.055110 36,000 313 421 -64
2019-12-06 15:55:14 GMT 51.021744 9.059489 36,000 313 422 64
2019-12-06 15:55:11 GMT 51.017715 9.066467 36,000 313 421 64
2019-12-06 15:55:08 GMT 51.013550 9.073816 36,000 312 422 64
2019-12-06 15:55:04 GMT 51.008972 9.081759 36,000 312 422 64
2019-12-06 15:55:01 GMT 51.003937 9.090729 36,000 312 422 128
2019-12-06 15:54:58 GMT 51.000725 9.096451 36,000 311 422 128
2019-12-06 15:54:55 GMT 50.996861 9.103546 36,000 311 421 64
2019-12-06 15:54:52 GMT 50.993134 9.110413 36,000 310 421 0
2019-12-06 15:54:49 GMT 50.989971 9.116592 36,000 310 421 -64
2019-12-06 15:54:46 GMT 50.986153 9.124069 36,000 309 420 -64
2019-12-06 15:54:43 GMT 50.982239 9.132014 36,000 308 421 0
2019-12-06 15:54:40 GMT 50.978287 9.140167 36,000 308 420 64
2019-12-06 15:54:37 GMT 50.971298 9.154729 36,000 308 421 0
2019-12-06 15:54:34 GMT 50.971298 9.154729 36,000 308 421 64
2019-12-06 15:54:31 GMT 50.968323 9.160965 36,000 308 421 64
2019-12-06 15:54:28 GMT 50.964554 9.168777 36,000 308 421 64
2019-12-06 15:54:25 GMT 50.957016 9.184422 36,000 308 422 64
2019-12-06 15:54:22 GMT 50.957016 9.184422 36,000 308 421 0
2019-12-06 15:54:19 GMT 50.953995 9.190732 36,000 308 422 64
2019-12-06 15:54:16 GMT 50.949966 9.199120 36,000 308 421 0
2019-12-06 15:54:13 GMT 50.947002 9.205322 36,000 308 422 0
2019-12-06 15:54:10 GMT 50.943604 9.212341 36,000 308 422 0
2019-12-06 15:54:07 GMT 50.939972 9.219971 36,000 308 422 0
2019-12-06 15:54:04 GMT 50.936508 9.227105 36,000 308 422 64
2019-12-06 15:54:01 GMT 50.932941 9.234543 35,975 308 422 64
2019-12-06 15:53:58 GMT 50.929459 9.241729 35,975 308 422 0
2019-12-06 15:53:55 GMT 50.925915 9.249191 35,975 308 423 0
2019-12-06 15:53:52 GMT 50.918884 9.263702 35,975 308 422 0
2019-12-06 15:53:46 GMT 50.915955 9.269789 35,975 308 422 0
2019-12-06 15:53:43 GMT 50.907944 9.286417 35,975 308 422 -64
2019-12-06 15:53:40 GMT 50.907944 9.286417 35,975 308 422 -64
2019-12-06 15:53:36 GMT 50.902725 9.297329 35,975 308 423 0
2019-12-06 15:53:30 GMT 50.895840 9.311600 35,975 308 423 -64
2019-12-06 15:53:27 GMT 50.892059 9.319450 35,975 308 423 0
2019-12-06 15:53:21 GMT 50.882950 9.338156 35,975 308 423 0
2019-12-06 15:53:15 GMT 50.875626 9.353300 35,975 308 424 -128
2019-12-06 15:53:12 GMT 50.875626 9.353300 35,975 308 423 -64
2019-12-06 15:53:09 GMT 50.871826 9.361168 36,000 308 423 -64
2019-12-06 15:53:06 GMT 50.867889 9.369334 36,000 308 424 -64
2019-12-06 15:53:03 GMT 50.863770 9.377796 36,000 308 423 -64
2019-12-06 15:53:00 GMT 50.860462 9.384613 36,000 308 423 -64
2019-12-06 15:52:57 GMT 50.856785 9.392166 36,000 308 423 0
2019-12-06 15:52:53 GMT 50.849426 9.407349 36,000 308 423 -64
2019-12-06 15:52:47 GMT 50.844635 9.417213 36,000 308 423 -64
2019-12-06 15:52:44 GMT 50.841980 9.422706 36,000 308 423 -64
2019-12-06 15:52:40 GMT 50.837044 9.432831 36,025 308 423 -64
2019-12-06 15:52:37 GMT 50.833649 9.439854 36,025 308 424 0
2019-12-06 15:52:34 GMT 50.829597 9.448166 36,025 308 425 0
2019-12-06 15:52:30 GMT 50.824356 9.459006 36,025 308 425 -64
2019-12-06 15:52:27 GMT 50.820648 9.466652 36,025 308 424 0
2019-12-06 15:52:24 GMT 50.813644 9.481053 36,025 308 425 64
2019-12-06 15:52:21 GMT 50.813644 9.481053 36,025 308 424 64
2019-12-06 15:52:18 GMT 50.809395 9.489746 36,025 308 425 0
2019-12-06 15:52:15 GMT 50.806229 9.496231 36,025 308 425 0
2019-12-06 15:52:12 GMT 50.802612 9.503619 36,025 308 425 0
2019-12-06 15:52:09 GMT 50.799572 9.509888 36,025 308 425 0
2019-12-06 15:52:06 GMT 50.795700 9.517872 36,025 308 425 0
2019-12-06 15:52:03 GMT 50.793427 9.522552 36,025 308 425 -64
2019-12-06 15:52:00 GMT 50.788586 9.532471 36,025 308 425 0
2019-12-06 15:51:57 GMT 50.785511 9.538803 36,025 308 427 -64
2019-12-06 15:51:54 GMT 50.777367 9.555511 36,025 308 425 64
2019-12-06 15:51:50 GMT 50.773682 9.563079 36,000 308 426 0
2019-12-06 15:51:47 GMT 50.773682 9.563079 36,000 308 427 -64
2019-12-06 15:51:44 GMT 50.769791 9.571022 36,000 308 429 0
2019-12-06 15:51:37 GMT 50.758072 9.594999 36,000 308 427 0
2019-12-06 15:51:34 GMT 50.758072 9.594999 36,000 308 427 -64
2019-12-06 15:51:31 GMT 50.754181 9.603043 36,000 308 427 0
2019-12-06 15:51:28 GMT 50.750702 9.610142 36,025 308 427 0
2019-12-06 15:51:25 GMT 50.747433 9.616776 36,000 308 427 0
2019-12-06 15:51:22 GMT 50.743515 9.624840 36,025 308 427 0
2019-12-06 15:51:19 GMT 50.739853 9.632412 36,025 308 427 0
2019-12-06 15:51:16 GMT 50.736259 9.639740 36,025 308 428 0
2019-12-06 15:51:12 GMT 50.731155 9.650153 36,025 308 428 0
2019-12-06 15:51:09 GMT 50.728088 9.656389 36,000 308 428 0
2019-12-06 15:51:06 GMT 50.720619 9.671631 36,025 308 428 -64
2019-12-06 15:51:03 GMT 50.720619 9.671631 36,025 308 428 -64
2019-12-06 15:51:00 GMT 50.716782 9.679475 36,025 308 428 -64
2019-12-06 15:50:54 GMT 50.705978 9.701522 36,025 308 428 0
2019-12-06 15:50:51 GMT 50.705978 9.701522 36,025 308 428 -64
2019-12-06 15:50:48 GMT 50.702324 9.708939 36,025 308 428 0
2019-12-06 15:50:45 GMT 50.698654 9.716368 36,025 308 428 -64
2019-12-06 15:50:42 GMT 50.690079 9.733887 36,025 308 428 -64
2019-12-06 15:50:38 GMT 50.690079 9.733887 36,025 308 430 0
2019-12-06 15:50:35 GMT 50.687054 9.739990 36,025 308 428 0
2019-12-06 15:50:32 GMT 50.682770 9.748807 36,025 308 429 0
2019-12-06 15:50:28 GMT 50.677464 9.759598 36,025 308 429 0
2019-12-06 15:50:24 GMT 50.672951 9.768677 36,025 308 429 0
2019-12-06 15:50:21 GMT 50.669830 9.775085 36,025 308 429 -64
2019-12-06 15:50:18 GMT 50.666565 9.781663 36,025 308 430 0
2019-12-06 15:50:15 GMT 50.662308 9.790336 36,025 308 430 -64
2019-12-06 15:50:11 GMT 50.657635 9.799805 36,050 308 430 0
2019-12-06 15:50:08 GMT 50.648460 9.818437 36,025 308 431 0
2019-12-06 15:50:04 GMT 50.648460 9.818437 36,050 308 431 -64
2019-12-06 15:50:01 GMT 50.644684 9.826042 36,050 308 431 -64
2019-12-06 15:49:58 GMT 50.641708 9.832113 36,050 308 431 -64
2019-12-06 15:49:54 GMT 50.637131 9.841365 36,050 308 431 0
2019-12-06 15:49:51 GMT 50.629562 9.856741 36,050 308 430 64
2019-12-06 15:49:48 GMT 50.629562 9.856741 36,025 308 430 64
2019-12-06 15:49:44 GMT 50.624626 9.866762 36,025 308 430 128
2019-12-06 15:49:41 GMT 50.619694 9.876709 36,025 308 430 128
2019-12-06 15:49:38 GMT 50.612686 9.890948 35,975 308 431 64
2019-12-06 15:49:32 GMT 50.604843 9.906847 36,000 308 431 64
2019-12-06 15:49:29 GMT 50.604843 9.906847 36,000 308 431 0
2019-12-06 15:49:26 GMT 50.601746 9.913065 36,000 308 431 0
2019-12-06 15:49:20 GMT 50.595207 9.926296 36,000 308 431 0
2019-12-06 15:49:17 GMT 50.591446 9.933881 36,000 308 431 64
2019-12-06 15:49:14 GMT 50.586594 9.943740 36,000 308 431 64
2019-12-06 15:49:11 GMT 50.584030 9.948915 36,000 308 431 64
2019-12-06 15:49:08 GMT 50.579453 9.958167 35,975 308 431 64
2019-12-06 15:49:05 GMT 50.577484 9.962142 35,975 308 431 64
2019-12-06 15:49:01 GMT 50.571579 9.973996 35,975 308 431 64
2019-12-06 15:48:58 GMT 50.567509 9.982193 35,975 308 431 64
2019-12-06 15:48:55 GMT 50.564484 9.988280 35,975 308 431 64
2019-12-06 15:48:52 GMT 50.561417 9.994523 35,975 308 431 0
2019-12-06 15:48:49 GMT 50.557266 10.002903 35,975 308 431 64
2019-12-06 15:48:46 GMT 50.553497 10.010475 35,975 308 431 -64
2019-12-06 15:48:43 GMT 50.546265 10.025097 35,975 308 431 0
2019-12-06 15:48:40 GMT 50.546265 10.025097 35,975 308 431 0
2019-12-06 15:48:37 GMT 50.542137 10.033338 35,975 308 431 64
2019-12-06 15:48:33 GMT 50.538460 10.040762 35,975 308 431 64
2019-12-06 15:48:30 GMT 50.533432 10.050931 35,975 308 431 64
2019-12-06 15:48:27 GMT 50.530827 10.056128 35,975 308 431 0
2019-12-06 15:48:24 GMT 50.527267 10.063260 35,975 308 431 0
2019-12-06 15:48:21 GMT 50.519093 10.079659 35,975 309 431 -64
2019-12-06 15:48:15 GMT 50.516624 10.084633 35,975 309 431 -64
2019-12-06 15:48:12 GMT 50.512482 10.092966 35,975 308 431 -64
2019-12-06 15:48:09 GMT 50.507175 10.103636 35,975 309 430 -64
2019-12-06 15:48:06 GMT 50.504105 10.109735 35,975 309 430 -64
2019-12-06 15:48:02 GMT 50.499802 10.118408 36,000 309 430 -64
2019-12-06 15:47:59 GMT 50.495819 10.126359 35,975 308 428 -64
2019-12-06 15:47:56 GMT 50.488861 10.140381 36,000 308 429 -64
2019-12-06 15:47:53 GMT 50.484272 10.149586 36,000 308 428 -64
2019-12-06 15:47:50 GMT 50.484272 10.149586 36,000 308 428 -64
2019-12-06 15:47:47 GMT 50.480621 10.156860 36,000 309 428 0
2019-12-06 15:47:43 GMT 50.476822 10.164522 36,000 309 428 0
2019-12-06 15:47:39 GMT 50.468864 10.180392 36,000 309 428 0
2019-12-06 15:47:33 GMT 50.460205 10.197770 36,000 309 428 -64
2019-12-06 15:47:30 GMT 50.460205 10.197770 36,000 309 428 0
2019-12-06 15:47:27 GMT 50.456451 10.205215 36,000 309 428 0
2019-12-06 15:47:24 GMT 50.450180 10.217791 36,000 309 428 0
2019-12-06 15:47:21 GMT 50.450180 10.217791 36,000 309 428 0
2019-12-06 15:47:18 GMT 50.446060 10.225959 36,000 309 428 0
2019-12-06 15:47:14 GMT 50.436859 10.244390 36,000 309 428 0
2019-12-06 15:47:11 GMT 50.436859 10.244390 36,000 309 428 0
2019-12-06 15:47:08 GMT 50.433250 10.251580 36,000 309 428 0
2019-12-06 15:47:05 GMT 50.430222 10.257617 36,000 309 428 0
2019-12-06 15:47:02 GMT 50.426285 10.265495 36,000 309 428 0
2019-12-06 15:46:58 GMT 50.417191 10.283574 36,000 309 428 0
2019-12-06 15:46:55 GMT 50.417191 10.283574 36,000 309 428 0
2019-12-06 15:46:52 GMT 50.413879 10.290214 36,000 309 428 64
2019-12-06 15:46:47 GMT 50.408672 10.300573 36,000 309 428 64
2019-12-06 15:46:44 GMT 50.400620 10.316608 36,000 309 428 64
2019-12-06 15:46:37 GMT 50.396255 10.325197 36,000 309 428 0
2019-12-06 15:46:34 GMT 50.391769 10.334159 36,000 309 428 0
2019-12-06 15:46:31 GMT 50.388657 10.340303 36,000 309 429 0
2019-12-06 15:46:28 GMT 50.383720 10.350235 36,000 309 429 0
2019-12-06 15:46:25 GMT 50.381378 10.354759 36,000 308 428 0
2019-12-06 15:46:22 GMT 50.377533 10.362493 36,000 309 428 0
2019-12-06 15:46:19 GMT 50.374084 10.369461 36,000 309 428 0
2019-12-06 15:46:16 GMT 50.370358 10.376884 36,000 309 429 0
2019-12-06 15:46:13 GMT 50.363281 10.390914 36,000 309 429 0
2019-12-06 15:46:07 GMT 50.359177 10.398993 36,000 309 429 64
2019-12-06 15:46:04 GMT 50.355927 10.405463 35,975 309 429 0
2019-12-06 15:46:01 GMT 50.351601 10.414074 35,975 309 428 0
2019-12-06 15:45:57 GMT 50.345947 10.425303 35,975 309 429 64
2019-12-06 15:45:54 GMT 50.337170 10.442653 35,975 309 429 -64
2019-12-06 15:45:49 GMT 50.337170 10.442653 35,975 309 429 0
2019-12-06 15:45:46 GMT 50.334003 10.448963 35,975 309 429 64
2019-12-06 15:45:43 GMT 50.324661 10.467369 35,975 309 429 0
2019-12-06 15:45:39 GMT 50.324661 10.467369 35,975 309 429 0
2019-12-06 15:45:36 GMT 50.320267 10.476114 35,975 309 429 0
2019-12-06 15:45:33 GMT 50.317154 10.482186 35,975 309 429 0
2019-12-06 15:45:27 GMT 50.309006 10.498376 35,975 309 429 64
2019-12-06 15:45:24 GMT 50.306583 10.503152 35,975 309 429 -64
2019-12-06 15:45:21 GMT 50.302139 10.511892 35,975 309 429 -64
2019-12-06 15:45:15 GMT 50.294434 10.527129 35,975 309 429 -64
2019-12-06 15:45:12 GMT 50.291885 10.532202 35,975 309 429 -64
2019-12-06 15:45:09 GMT 50.288315 10.539213 35,975 309 429 -64
2019-12-06 15:45:06 GMT 50.284332 10.547092 36,000 309 429 -64
2019-12-06 15:45:03 GMT 50.281769 10.552151 36,025 309 428 -64
2019-12-06 15:45:00 GMT 50.277512 10.560608 36,000 309 428 -64
2019-12-06 15:44:57 GMT 50.272385 10.570655 36,000 309 428 -64
2019-12-06 15:44:54 GMT 50.269089 10.577160 36,000 309 428 -128
2019-12-06 15:44:49 GMT 50.263474 10.588222 36,025 309 428 -64
2019-12-06 15:44:46 GMT 50.259933 10.595229 36,025 309 428 -64
2019-12-06 15:44:43 GMT 50.254818 10.605296 36,025 309 428 -64
2019-12-06 15:44:40 GMT 50.252441 10.609898 36,025 309 428 64
2019-12-06 15:44:37 GMT 50.248997 10.616653 36,025 309 428 0
2019-12-06 15:44:34 GMT 50.245285 10.623996 36,025 309 428 0
2019-12-06 15:44:30 GMT 50.239563 10.635272 36,025 309 428 64
2019-12-06 15:44:26 GMT 50.234619 10.645029 36,025 309 429 0
2019-12-06 15:44:22 GMT 50.229771 10.654511 36,025 309 429 64
2019-12-06 15:44:19 GMT 50.226280 10.661489 36,025 309 429 0
2019-12-06 15:44:16 GMT 50.222488 10.668953 36,025 309 429 64
2019-12-06 15:44:13 GMT 50.220062 10.673724 36,025 309 429 64
2019-12-06 15:44:10 GMT 50.215759 10.682108 36,025 309 429 0
2019-12-06 15:44:07 GMT 50.211849 10.689846 36,025 309 430 0
2019-12-06 15:44:04 GMT 50.207378 10.698605 36,000 309 431 -64
2019-12-06 15:44:01 GMT 50.204681 10.703876 36,000 309 430 64
2019-12-06 15:43:57 GMT 50.198730 10.715573 36,000 309 430 64
2019-12-06 15:43:53 GMT 50.188751 10.735088 36,000 309 431 0
2019-12-06 15:43:49 GMT 50.188751 10.735088 36,000 309 431 -64
2019-12-06 15:43:46 GMT 50.184753 10.742922 36,000 309 431 0
2019-12-06 15:43:43 GMT 50.181915 10.748563 36,000 309 431 0
2019-12-06 15:43:40 GMT 50.178612 10.754947 36,000 309 431 0
2019-12-06 15:43:37 GMT 50.174980 10.762148 36,000 309 431 -64
2019-12-06 15:43:34 GMT 50.172043 10.767830 36,000 309 431 0
2019-12-06 15:43:31 GMT 50.166973 10.777736 36,000 309 431 0
2019-12-06 15:43:28 GMT 50.163761 10.784046 36,025 309 433 0
2019-12-06 15:43:25 GMT 50.159317 10.792694 36,000 309 433 0
2019-12-06 15:43:21 GMT 50.153961 10.803102 36,000 309 433 0
2019-12-06 15:43:18 GMT 50.151535 10.807945 36,000 309 433 -64
2019-12-06 15:43:15 GMT 50.146538 10.817599 36,000 309 433 -64
2019-12-06 15:43:12 GMT 50.143982 10.822617 36,000 309 433 0
2019-12-06 15:43:09 GMT 50.139450 10.831508 36,000 309 433 -64
2019-12-06 15:43:06 GMT 50.131592 10.846772 36,025 309 434 0
2019-12-06 15:43:00 GMT 50.128567 10.852711 36,025 309 433 0
2019-12-06 15:42:56 GMT 50.118698 10.872011 36,025 309 433 0
2019-12-06 15:42:53 GMT 50.118698 10.872011 36,025 309 433 64
2019-12-06 15:42:50 GMT 50.115555 10.878127 36,025 309 433 64
2019-12-06 15:42:47 GMT 50.112694 10.883665 36,025 309 434 0
2019-12-06 15:42:44 GMT 50.107712 10.893390 36,000 309 434 0
2019-12-06 15:42:40 GMT 50.103104 10.902413 36,000 309 434 0
2019-12-06 15:42:37 GMT 50.098587 10.911205 36,025 309 434 0
2019-12-06 15:42:31 GMT 50.088959 10.930023 36,000 309 435 0
2019-12-06 15:42:28 GMT 50.088959 10.930023 36,025 309 435 0
2019-12-06 15:42:25 GMT 50.084473 10.938769 36,025 309 435 0
2019-12-06 15:42:22 GMT 50.082047 10.943467 36,025 309 436 0
2019-12-06 15:42:19 GMT 50.077591 10.952107 36,025 309 436 64
2019-12-06 15:42:16 GMT 50.072613 10.961757 36,025 309 435 -64
2019-12-06 15:42:13 GMT 50.066895 10.972812 36,025 309 435 -64
2019-12-06 15:42:06 GMT 50.060989 10.984377 36,025 309 435 0
2019-12-06 15:42:03 GMT 50.057236 10.991532 36,025 309 435 0
2019-12-06 15:42:00 GMT 50.054455 10.996943 36,025 309 435 0
2019-12-06 15:41:57 GMT 50.049637 11.006277 36,025 309 435 0
2019-12-06 15:41:54 GMT 50.046432 11.012565 36,025 309 435 64
2019-12-06 15:41:51 GMT 50.042816 11.019584 36,000 309 436 64
2019-12-06 15:41:48 GMT 50.037735 11.029406 36,000 309 436 128
2019-12-06 15:41:43 GMT 50.032288 11.039959 36,000 309 436 64
2019-12-06 15:41:40 GMT 50.028900 11.046530 36,000 309 436 0
2019-12-06 15:41:36 GMT 50.023594 11.056774 36,000 309 436 64
2019-12-06 15:41:33 GMT 50.015717 11.072050 36,000 309 436 0
2019-12-06 15:41:27 GMT 50.012001 11.079267 36,000 309 436 0
2019-12-06 15:41:22 GMT 50.005554 11.091710 36,000 309 436 -64
2019-12-06 15:41:18 GMT 50.000885 11.100745 36,000 309 436 -64
2019-12-06 15:41:15 GMT 49.996994 11.108262 36,000 309 436 0
2019-12-06 15:41:12 GMT 49.992729 11.116457 36,025 309 436 0
2019-12-06 15:41:09 GMT 49.989258 11.123224 36,000 309 436 0
2019-12-06 15:41:05 GMT 49.983788 11.133753 36,000 309 436 0
2019-12-06 15:41:02 GMT 49.981430 11.138330 36,000 309 436 0
2019-12-06 15:40:59 GMT 49.976528 11.147857 36,000 309 436 0
2019-12-06 15:40:56 GMT 49.972153 11.156319 36,000 309 436 0
2019-12-06 15:40:52 GMT 49.968006 11.164336 36,000 309 436 0
2019-12-06 15:40:49 GMT 49.964035 11.171939 36,000 309 436 0
2019-12-06 15:40:45 GMT 49.957722 11.184156 36,000 309 436 0
2019-12-06 15:40:42 GMT 49.954514 11.190370 36,000 309 436 0
2019-12-06 15:40:37 GMT 49.948837 11.201284 36,000 309 436 0
2019-12-06 15:40:34 GMT 49.944489 11.209596 36,000 309 436 0
2019-12-06 15:40:31 GMT 49.940689 11.216969 36,000 309 437 0
2019-12-06 15:40:28 GMT 49.938122 11.221866 36,000 309 436 0
2019-12-06 15:40:24 GMT 49.932442 11.232778 36,000 309 436 0
2019-12-06 15:40:21 GMT 49.928860 11.239682 36,000 309 436 0
2019-12-06 15:40:18 GMT 49.924900 11.247179 36,000 309 436 64
2019-12-06 15:40:14 GMT 49.916519 11.263362 36,000 309 436 0
2019-12-06 15:40:11 GMT 49.916519 11.263362 36,000 309 436 0
2019-12-06 15:40:07 GMT 49.910477 11.274936 36,000 309 436 0
2019-12-06 15:40:04 GMT 49.906235 11.283033 36,000 309 436 0
2019-12-06 15:40:01 GMT 49.903488 11.288304 36,000 309 436 64
2019-12-06 15:39:58 GMT 49.895966 11.302836 36,000 309 436 0
2019-12-06 15:39:52 GMT 49.892128 11.310128 36,000 309 436 64
2019-12-06 15:39:49 GMT 49.887085 11.319821 36,000 310 436 0
2019-12-06 15:39:43 GMT 49.880535 11.332323 36,000 309 437 64
2019-12-06 15:39:39 GMT 49.875370 11.342270 36,000 309 437 64
2019-12-06 15:39:36 GMT 49.870621 11.351327 36,000 309 437 0
2019-12-06 15:39:33 GMT 49.864754 11.362610 36,000 309 437 0
2019-12-06 15:39:27 GMT 49.856609 11.378124 36,000 310 436 64
2019-12-06 15:39:24 GMT 49.852654 11.385696 35,975 310 436 64
2019-12-06 15:39:18 GMT 49.848495 11.393617 35,975 310 436 0
2019-12-06 15:39:15 GMT 49.845749 11.398894 35,975 310 436 0
2019-12-06 15:39:12 GMT 49.841572 11.406852 35,975 310 436 0
2019-12-06 15:39:09 GMT 49.837803 11.414053 35,975 310 436 0
2019-12-06 15:39:05 GMT 49.832214 11.424668 35,975 310 436 0
2019-12-06 15:39:02 GMT 49.828033 11.432648 35,975 310 436 0
2019-12-06 15:38:56 GMT 49.817780 11.452235 35,975 310 436 0
2019-12-06 15:38:50 GMT 49.812897 11.461561 35,975 310 436 0
2019-12-06 15:38:47 GMT 49.806423 11.473884 35,975 310 436 0
2019-12-06 15:38:44 GMT 49.806423 11.473884 35,975 310 436 0
2019-12-06 15:38:41 GMT 49.801956 11.482346 35,975 310 436 0
2019-12-06 15:38:38 GMT 49.798187 11.489546 35,975 310 436 0
2019-12-06 15:38:35 GMT 49.789673 11.505794 35,975 310 436 0
2019-12-06 15:38:31 GMT 49.789673 11.505794 35,975 310 436 0
2019-12-06 15:38:28 GMT 49.785370 11.513889 35,975 310 436 0
2019-12-06 15:38:25 GMT 49.781658 11.521021 35,975 310 436 0
2019-12-06 15:38:22 GMT 49.777679 11.528561 35,975 310 437 0
2019-12-06 15:38:19 GMT 49.774292 11.534994 35,975 310 436 0
2019-12-06 15:38:16 GMT 49.771133 11.540993 35,975 310 437 0
2019-12-06 15:38:13 GMT 49.765877 11.550936 35,975 310 436 0
2019-12-06 15:38:10 GMT 49.763535 11.555449 35,975 310 436 0
2019-12-06 15:38:07 GMT 49.757904 11.566074 35,975 310 437 0
2019-12-06 15:38:02 GMT 49.752182 11.576916 35,975 310 437 0
2019-12-06 15:37:59 GMT 49.747147 11.586456 35,975 310 437 0
2019-12-06 15:37:56 GMT 49.744720 11.591082 35,975 310 437 -64
2019-12-06 15:37:53 GMT 49.739857 11.600226 35,975 310 437 -64
2019-12-06 15:37:50 GMT 49.736206 11.607128 35,975 310 437 -64
2019-12-06 15:37:47 GMT 49.729065 11.620644 36,000 310 437 0
2019-12-06 15:37:44 GMT 49.724167 11.629968 36,000 310 437 0
2019-12-06 15:37:40 GMT 49.724167 11.629968 36,000 310 437 -64
2019-12-06 15:37:37 GMT 49.714577 11.648106 36,000 310 437 -64
2019-12-06 15:37:33 GMT 49.714577 11.648106 36,000 310 437 0
2019-12-06 15:37:30 GMT 49.711441 11.653964 36,000 310 437 0
2019-12-06 15:37:27 GMT 49.707825 11.660903 36,000 310 437 -64
2019-12-06 15:37:24 GMT 49.703079 11.669930 36,000 310 437 -64
2019-12-06 15:37:18 GMT 49.696468 11.682401 36,000 310 437 0
2019-12-06 15:37:15 GMT 49.692604 11.689676 36,000 310 437 0
2019-12-06 15:37:11 GMT 49.687576 11.699178 36,000 310 437 0
2019-12-06 15:37:08 GMT 49.674541 11.723748 36,000 310 437 0
2019-12-06 15:37:02 GMT 49.674541 11.723748 36,000 310 437 0
2019-12-06 15:36:59 GMT 49.672028 11.728484 36,000 310 437 0
2019-12-06 15:36:53 GMT 49.664490 11.742677 36,000 310 437 0
2019-12-06 15:36:50 GMT 49.659027 11.753058 36,000 310 438 0
2019-12-06 15:36:46 GMT 49.656143 11.758479 36,000 310 438 0
2019-12-06 15:36:43 GMT 49.650894 11.768362 36,025 310 438 0
2019-12-06 15:36:36 GMT 49.643494 11.782317 36,025 310 439 -64
2019-12-06 15:36:31 GMT 49.636276 11.795919 36,025 310 439 0
2019-12-06 15:36:27 GMT 49.630596 11.806591 36,025 310 439 0
2019-12-06 15:36:22 GMT 49.624741 11.817603 36,025 310 439 0
2019-12-06 15:36:19 GMT 49.621124 11.824469 36,025 310 439 0
2019-12-06 15:36:16 GMT 49.617233 11.831769 36,025 310 440 0
2019-12-06 15:36:10 GMT 49.608170 11.848827 36,025 310 440 0
2019-12-06 15:36:06 GMT 49.598190 11.867547 36,025 310 440 64
2019-12-06 15:36:02 GMT 49.598190 11.867547 36,025 310 440 64
2019-12-06 15:35:59 GMT 49.593475 11.876438 36,025 310 441 64
2019-12-06 15:35:55 GMT 49.590546 11.881858 36,025 310 441 0
2019-12-06 15:35:51 GMT 49.578274 11.904948 36,025 310 442 0
2019-12-06 15:35:47 GMT 49.578274 11.904948 36,025 310 442 0
2019-12-06 15:35:44 GMT 49.569614 11.921205 36,025 310 442 -64
2019-12-06 15:35:39 GMT 49.565144 11.929593 36,025 310 442 0
2019-12-06 15:35:36 GMT 49.565144 11.929593 36,025 310 442 0
2019-12-06 15:35:32 GMT 49.559513 11.940060 36,025 310 442 0
2019-12-06 15:35:28 GMT 49.554977 11.948644 36,000 310 442 64
2019-12-06 15:35:25 GMT 49.550808 11.956465 36,025 310 442 64
2019-12-06 15:35:21 GMT 49.545044 11.967147 36,025 310 442 0
2019-12-06 15:35:15 GMT 49.538086 11.980229 36,025 310 442 64
2019-12-06 15:35:12 GMT 49.533463 11.988831 36,025 310 442 64
2019-12-06 15:35:08 GMT 49.528229 11.998703 36,025 310 442 0
2019-12-06 15:35:03 GMT 49.522110 12.010080 36,000 310 442 64
2019-12-06 15:35:00 GMT 49.518814 12.016224 36,000 310 442 64
2019-12-06 15:34:57 GMT 49.514774 12.023794 36,000 310 443 64
2019-12-06 15:34:53 GMT 49.509750 12.033137 36,000 310 443 64
2019-12-06 15:34:49 GMT 49.501087 12.049255 35,975 310 443 64
2019-12-06 15:34:43 GMT 49.492401 12.065446 36,000 310 442 -64
2019-12-06 15:34:40 GMT 49.489357 12.071154 35,975 310 443 64
2019-12-06 15:34:34 GMT 49.485401 12.078503 35,975 310 443 64
2019-12-06 15:34:31 GMT 49.480839 12.087039 35,975 310 443 64
2019-12-06 15:34:27 GMT 49.471527 12.104335 35,975 310 443 64
2019-12-06 15:34:24 GMT 49.466949 12.112860 35,975 310 442 0
2019-12-06 15:34:21 GMT 49.466949 12.112860 35,975 310 443 0
2019-12-06 15:34:15 GMT 49.453934 12.137072 35,975 310 443 64
2019-12-06 15:34:11 GMT 49.453934 12.137072 35,975 310 442 0
2019-12-06 15:34:08 GMT 49.450722 12.142936 35,975 310 442 0
2019-12-06 15:34:05 GMT 49.446213 12.151313 35,975 310 442 -64
2019-12-06 15:34:01 GMT 49.441921 12.159341 35,975 310 442 -64
2019-12-06 15:33:58 GMT 49.437561 12.167286 35,975 310 442 -64
2019-12-06 15:33:55 GMT 49.433960 12.174039 35,975 310 442 -64
2019-12-06 15:33:52 GMT 49.429913 12.181537 35,975 310 442 -64
2019-12-06 15:33:49 GMT 49.424606 12.191303 35,975 310 442 -64
2019-12-06 15:33:46 GMT 49.422546 12.195106 35,975 310 442 -64
2019-12-06 15:33:43 GMT 49.411880 12.214966 35,975 310 443 0
2019-12-06 15:33:39 GMT 49.411880 12.214966 35,975 310 441 0
2019-12-06 15:33:36 GMT 49.409286 12.219760 35,975 310 441 0
2019-12-06 15:33:33 GMT 49.405376 12.226988 35,975 310 441 0
2019-12-06 15:33:29 GMT 49.400955 12.235156 36,000 310 441 0
2019-12-06 15:33:26 GMT 49.395630 12.245108 35,975 310 441 -64
2019-12-06 15:33:18 GMT 49.386795 12.261376 36,000 310 441 -64
2019-12-06 15:33:15 GMT 49.381405 12.271367 36,000 310 441 -64
2019-12-06 15:33:11 GMT 49.371964 12.288842 36,000 310 441 -64
2019-12-06 15:33:08 GMT 49.371964 12.288842 36,000 310 441 -64
2019-12-06 15:33:04 GMT 49.364319 12.302927 36,025 310 441 -64
2019-12-06 15:33:01 GMT 49.358322 12.314054 36,025 310 441 -64
2019-12-06 15:32:58 GMT 49.358322 12.314054 36,025 310 441 -64
2019-12-06 15:32:52 GMT 49.352142 12.325533 36,025 310 441 -64
2019-12-06 15:32:49 GMT 49.343975 12.340610 36,025 310 441 0
2019-12-06 15:32:46 GMT 49.343975 12.340610 36,025 310 441 0
2019-12-06 15:32:42 GMT 49.339508 12.348850 36,025 310 441 -64
2019-12-06 15:32:39 GMT 49.334839 12.357506 36,050 310 440 -64
2019-12-06 15:32:35 GMT 49.329346 12.367577 36,025 310 442 -64
2019-12-06 15:32:31 GMT 49.324612 12.376315 36,025 310 442 -64
2019-12-06 15:32:27 GMT 49.315022 12.393951 36,050 310 442 -64
2019-12-06 15:32:24 GMT 49.315022 12.393951 36,050 310 442 -64
2019-12-06 15:32:19 GMT 49.307571 12.407684 36,050 310 442 -64
2019-12-06 15:32:15 GMT 49.302963 12.416141 36,050 310 442 -64
2019-12-06 15:32:11 GMT 49.292583 12.435222 36,050 310 442 0
2019-12-06 15:32:07 GMT 49.292583 12.435222 36,050 310 442 0
2019-12-06 15:32:04 GMT 49.287834 12.443968 36,050 310 443 0
2019-12-06 15:32:01 GMT 49.285786 12.447727 36,050 310 443 0
2019-12-06 15:31:58 GMT 49.281326 12.455961 36,050 310 443 0
2019-12-06 15:31:55 GMT 49.276337 12.465073 36,050 310 443 0
2019-12-06 15:31:52 GMT 49.274193 12.468976 36,050 310 443 0
2019-12-06 15:31:48 GMT 49.268417 12.479553 36,050 310 443 64
2019-12-06 15:31:45 GMT 49.261093 12.493075 36,050 310 443 64
2019-12-06 15:31:42 GMT 49.261093 12.493075 36,025 310 443 64
2019-12-06 15:31:39 GMT 49.255463 12.503427 36,050 310 443 64
2019-12-06 15:31:35 GMT 49.250702 12.512160 36,025 310 443 64
2019-12-06 15:31:32 GMT 49.247223 12.518498 36,025 310 443 64
2019-12-06 15:31:29 GMT 49.243889 12.524631 36,025 310 444 128
2019-12-06 15:31:25 GMT 49.238113 12.535260 36,000 310 444 128
2019-12-06 15:31:22 GMT 49.234497 12.541880 36,000 310 444 128
2019-12-06 15:31:19 GMT 49.229877 12.550434 36,000 310 444 64
2019-12-06 15:31:15 GMT 49.224800 12.559686 36,000 310 444 0
2019-12-06 15:31:12 GMT 49.221542 12.565683 36,000 310 444 0
2019-12-06 15:31:09 GMT 49.216843 12.574431 36,000 310 444 0
2019-12-06 15:31:05 GMT 49.210884 12.585273 36,000 310 443 0
2019-12-06 15:31:02 GMT 49.208183 12.590260 36,000 310 443 0
2019-12-06 15:30:59 GMT 49.204010 12.597868 36,000 310 443 0
2019-12-06 15:30:55 GMT 49.198288 12.608431 36,000 310 443 0
2019-12-06 15:30:52 GMT 49.193848 12.616530 36,000 310 443 0
2019-12-06 15:30:49 GMT 49.191833 12.620192 36,000 310 443 0
2019-12-06 15:30:46 GMT 49.187187 12.628712 36,000 310 443 0
2019-12-06 15:30:43 GMT 49.183323 12.635723 36,000 310 443 0
2019-12-06 15:30:40 GMT 49.178158 12.645191 36,000 310 443 0
2019-12-06 15:30:37 GMT 49.175766 12.649560 36,000 310 443 -64
2019-12-06 15:30:34 GMT 49.166794 12.665898 36,000 310 443 0
2019-12-06 15:30:27 GMT 49.161438 12.675617 36,025 310 442 0
2019-12-06 15:30:24 GMT 49.157394 12.682993 36,000 310 442 0
2019-12-06 15:30:20 GMT 49.153107 12.690829 36,000 310 442 64
2019-12-06 15:30:17 GMT 49.149216 12.697871 36,000 310 442 64
2019-12-06 15:30:14 GMT 49.145325 12.704984 36,000 310 442 0
2019-12-06 15:30:11 GMT 49.141251 12.712379 36,000 310 442 -64
2019-12-06 15:30:07 GMT 49.135281 12.723180 36,000 311 442 0
2019-12-06 15:30:04 GMT 49.132187 12.728858 36,000 311 442 0
2019-12-06 15:30:01 GMT 49.128113 12.736183 36,000 310 443 -64
2019-12-06 15:29:58 GMT 49.122711 12.745972 36,000 310 443 -64
2019-12-06 15:29:52 GMT 49.116337 12.757512 36,000 310 443 0
2019-12-06 15:29:49 GMT 49.111679 12.766041 36,025 311 444 0
2019-12-06 15:29:46 GMT 49.108562 12.771679 36,000 311 444 -64
2019-12-06 15:29:43 GMT 49.103485 12.780832 36,000 311 444 0
2019-12-06 15:29:40 GMT 49.100922 12.785480 36,000 311 446 64
2019-12-06 15:29:37 GMT 49.096363 12.793724 36,000 311 444 0
2019-12-06 15:29:34 GMT 49.091476 12.802542 36,000 311 445 64
2019-12-06 15:29:30 GMT 49.087891 12.808974 36,000 311 446 64
2019-12-06 15:29:27 GMT 49.083206 12.817383 36,000 311 446 64
2019-12-06 15:29:23 GMT 49.077850 12.827031 35,975 311 448 64
2019-12-06 15:29:20 GMT 49.073833 12.834200 35,975 311 448 64
2019-12-06 15:29:16 GMT 49.067322 12.845905 35,975 311 449 -64
2019-12-06 15:29:12 GMT 49.062241 12.855088 35,975 311 449 -64
2019-12-06 15:29:08 GMT 49.057961 12.862750 35,975 311 447 192
2019-12-06 15:29:05 GMT 49.052948 12.871821 36,000 311 448 128
2019-12-06 15:29:01 GMT 49.048416 12.879952 35,975 311 447 320
2019-12-06 15:28:57 GMT 49.038174 12.898455 35,925 311 446 832
2019-12-06 15:28:54 GMT 49.038174 12.898455 35,900 311 446 768
2019-12-06 15:28:51 GMT 49.030197 12.912809 35,850 311 446 832
2019-12-06 15:28:48 GMT 49.030197 12.912809 35,825 311 447 768
2019-12-06 15:28:45 GMT 49.022018 12.927583 35,725 311 447 768
2019-12-06 15:28:41 GMT 49.022018 12.927583 35,750 311 447 704
2019-12-06 15:28:38 GMT 49.016830 12.936965 35,675 311 446 704
2019-12-06 15:28:34 GMT 49.012619 12.944571 35,675 311 446 960
2019-12-06 15:28:31 GMT 49.007950 12.953022 35,625 311 445 768
2019-12-06 15:28:27 GMT 49.002377 12.963072 35,575 311 446 832
2019-12-06 15:28:24 GMT 48.999023 12.969144 35,525 311 446 896
2019-12-06 15:28:21 GMT 48.995132 12.976121 35,450 311 446 960
2019-12-06 15:28:18 GMT 48.992111 12.981614 35,450 311 446 1024
2019-12-06 15:28:15 GMT 48.987713 12.989526 35,225 311 446 1024
2019-12-06 15:28:11 GMT 48.981995 12.999784 35,200 311 446 1024
2019-12-06 15:28:08 GMT 48.978699 13.005700 35,275 311 447 1024
2019-12-06 15:28:04 GMT 48.971466 13.018727 35,175 311 446 0
2019-12-06 15:27:58 GMT 48.960480 13.038447 35,100 311 447 640
2019-12-06 15:27:55 GMT 48.960480 13.038447 35,050 311 447 768
2019-12-06 15:27:52 GMT 48.956333 13.045831 35,025 311 447 320
2019-12-06 15:27:49 GMT 48.951508 13.054645 35,000 311 447 256
2019-12-06 15:27:45 GMT 48.948189 13.060576 35,000 311 447 0
2019-12-06 15:27:42 GMT 48.937668 13.079440 35,000 311 446 0
2019-12-06 15:27:38 GMT 48.933151 13.087534 35,000 311 446 0
2019-12-06 15:27:35 GMT 48.933151 13.087534 35,000 311 446 0
2019-12-06 15:27:31 GMT 48.929382 13.094258 35,000 311 444 0
2019-12-06 15:27:28 GMT 48.924446 13.103076 35,000 311 446 0
2019-12-06 15:27:24 GMT 48.918442 13.113845 35,000 311 446 0
2019-12-06 15:27:21 GMT 48.915161 13.119648 35,000 311 446 0
2019-12-06 15:27:18 GMT 48.911270 13.126638 35,000 311 446 0
2019-12-06 15:27:15 GMT 48.905918 13.136107 35,000 311 444 -64
2019-12-06 15:27:12 GMT 48.902569 13.142178 35,000 311 444 -64
2019-12-06 15:27:09 GMT 48.899261 13.148033 35,000 311 444 -64
2019-12-06 15:27:06 GMT 48.893909 13.157646 35,000 311 443 0
2019-12-06 15:27:02 GMT 48.889393 13.165669 35,000 311 444 0
2019-12-06 15:26:58 GMT 48.882877 13.177233 35,000 311 443 0
2019-12-06 15:26:53 GMT 48.878082 13.185834 35,000 311 443 0
2019-12-06 15:26:50 GMT 48.874588 13.192050 35,000 311 443 0
2019-12-06 15:26:47 GMT 48.869888 13.200425 35,000 311 443 0
2019-12-06 15:26:43 GMT 48.865585 13.208102 35,000 311 443 0
2019-12-06 15:26:40 GMT 48.855057 13.227046 35,000 311 442 -64
2019-12-06 15:26:36 GMT 48.855057 13.227046 35,000 311 442 0
2019-12-06 15:26:33 GMT 48.851826 13.232815 35,000 311 442 0
2019-12-06 15:26:30 GMT 48.846333 13.242645 35,000 311 442 0
2019-12-06 15:26:27 GMT 48.842880 13.248878 35,000 311 442 0
2019-12-06 15:26:23 GMT 48.837662 13.258244 35,000 311 442 0
2019-12-06 15:26:19 GMT 48.833313 13.265991 34,225 311 443 128
2019-12-06 15:26:16 GMT 48.828186 13.275217 35,000 311 442 128
2019-12-06 15:26:11 GMT 48.820869 13.288253 35,000 311 442 128
2019-12-06 15:26:07 GMT 48.817749 13.293809 34,975 311 444 128
2019-12-06 15:26:04 GMT 48.813812 13.300781 34,950 311 444 128
2019-12-06 15:26:00 GMT 48.806389 13.313984 34,975 311 445 320
2019-12-06 15:25:57 GMT 48.803085 13.319839 34,950 311 445 256
2019-12-06 15:25:53 GMT 48.799072 13.326979 34,950 311 445 512
2019-12-06 15:25:50 GMT 48.793762 13.336487 34,925 311 444 896
2019-12-06 15:25:47 GMT 48.790009 13.343107 34,900 311 444 768
2019-12-06 15:25:42 GMT 48.784138 13.353520 34,150 311 445 960
2019-12-06 15:25:39 GMT 48.780136 13.360604 34,725 311 445 960
2019-12-06 15:25:34 GMT 48.770218 13.378240 34,650 311 446 960
2019-12-06 15:25:27 GMT 48.763367 13.390362 34,575 311 446 1024
2019-12-06 15:25:24 GMT 48.758766 13.398622 34,500 311 446 1024
2019-12-06 15:25:20 GMT 48.754158 13.406790 34,450 311 446 1024
2019-12-06 15:25:13 GMT 48.745316 13.422474 34,325 311 446 1024
2019-12-06 15:25:10 GMT 48.740192 13.431509 34,225 311 446 1024
2019-12-06 15:25:07 GMT 48.732651 13.444942 34,225 311 446 960
2019-12-06 15:25:04 GMT 48.732651 13.444942 34,050 311 446 896
2019-12-06 15:25:01 GMT 48.729393 13.450735 34,125 311 446 896
2019-12-06 15:24:58 GMT 48.725693 13.457266 34,000 300 447 192
2019-12-06 15:24:55 GMT 48.720875 13.465769 34,050 311 446 640
2019-12-06 15:24:52 GMT 48.716778 13.473141 34,025 310 447 448
2019-12-06 15:24:49 GMT 48.712692 13.480647 34,000 300 447 192
2019-12-06 15:24:45 GMT 48.707653 13.490199 34,000 307 446 0
2019-12-06 15:24:42 GMT 48.704590 13.496141 34,000 308 447 0
2019-12-06 15:24:39 GMT 48.699234 13.506845 34,000 300 448 192
2019-12-06 15:24:36 GMT 48.696625 13.512268 34,000 306 446 0
2019-12-06 15:24:33 GMT 48.692825 13.520367 34,000 305 446 0
2019-12-06 15:24:30 GMT 48.689732 13.526989 34,025 305 446 -64
2019-12-06 15:24:23 GMT 48.680698 13.547733 33,975 301 446 128
2019-12-06 15:24:16 GMT 48.673050 13.566495 34,000 301 446 128
2019-12-06 15:24:13 GMT 48.670441 13.573397 34,000 300 447 192
2019-12-06 15:24:10 GMT 48.667419 13.581355 33,975 300 448 192
2019-12-06 15:24:07 GMT 48.664581 13.589172 33,950 299 449 192
2019-12-06 15:24:04 GMT 48.659054 13.605050 33,950 298 450 320
2019-12-06 15:24:01 GMT 48.659054 13.605050 33,950 298 451 384
2019-12-06 15:23:58 GMT 48.655609 13.615371 33,875 296 453 896
2019-12-06 15:23:54 GMT 48.649658 13.634385 33,825 295 452 1152
2019-12-06 15:23:50 GMT 48.649658 13.634385 33,725 294 453 1216
2019-12-06 15:23:46 GMT 48.645969 13.646899 33,475 294 453 1216
2019-12-06 15:23:42 GMT 48.641644 13.662583 33,600 292 454 1280
2019-12-06 15:23:39 GMT 48.640549 13.666851 33,475 292 454 1216
2019-12-06 15:23:36 GMT 48.637405 13.679063 33,500 290 454 1088
2019-12-06 15:23:33 GMT 48.635590 13.686435 33,450 290 454 1152
2019-12-06 15:23:30 GMT 48.633167 13.696771 33,025 286 453 640
2019-12-06 15:23:26 GMT 48.630615 13.708473 33,325 288 454 1024
2019-12-06 15:23:22 GMT 48.628326 13.719466 33,275 288 455 1024
2019-12-06 15:23:19 GMT 48.626816 13.726994 33,225 287 455 960
2019-12-06 15:23:15 GMT 48.624184 13.740861 33,175 286 455 960
2019-12-06 15:23:11 GMT 48.621532 13.754811 32,950 286 454 832
2019-12-06 15:23:05 GMT 48.618484 13.770869 32,900 286 454 768
2019-12-06 15:23:02 GMT 48.616364 13.782204 32,925 286 453 640
2019-12-06 15:22:58 GMT 48.614643 13.791167 32,925 286 453 640
2019-12-06 15:22:54 GMT 48.609055 13.820590 32,850 287 452 512
2019-12-06 15:22:49 GMT 48.609055 13.820590 32,825 287 451 576
2019-12-06 15:22:43 GMT 48.605843 13.837425 32,725 287 450 832
2019-12-06 15:22:40 GMT 48.603745 13.848478 32,725 287 450 832
2019-12-06 15:22:34 GMT 48.600128 13.867211 32,550 287 449 960
2019-12-06 15:22:31 GMT 48.597565 13.880592 32,575 287 449 1024
2019-12-06 15:22:28 GMT 48.597565 13.880592 32,475 287 449 1344
2019-12-06 15:22:25 GMT 48.595413 13.891860 32,450 287 450 1536
2019-12-06 15:22:22 GMT 48.593693 13.901030 32,350 286 450 1664
2019-12-06 15:22:18 GMT 48.591785 13.910860 32,300 287 451 1792
2019-12-06 15:22:12 GMT 48.585827 13.942229 32,050 287 453 1664
2019-12-06 15:22:09 GMT 48.585827 13.942229 32,000 287 453 1600
2019-12-06 15:22:04 GMT 48.582825 13.957919 31,900 287 454 1600
2019-12-06 15:22:00 GMT 48.580582 13.969750 31,800 287 455 1536
2019-12-06 15:21:57 GMT 48.579391 13.975807 31,700 287 457 1472
2019-12-06 15:21:54 GMT 48.577515 13.985737 31,650 287 457 1280
2019-12-06 15:21:51 GMT 48.575771 13.994703 31,525 287 457 1024
2019-12-06 15:21:48 GMT 48.574036 14.003906 31,475 287 457 1024
2019-12-06 15:21:45 GMT 48.571487 14.017181 31,425 287 457 896
2019-12-06 15:21:41 GMT 48.570053 14.024541 31,425 287 457 832
2019-12-06 15:21:38 GMT 48.565384 14.048838 31,350 287 456 704
2019-12-06 15:21:34 GMT 48.565384 14.048838 31,300 287 455 704
2019-12-06 15:21:31 GMT 48.564224 14.054838 31,250 287 454 768
2019-12-06 15:21:27 GMT 48.561573 14.068499 31,250 287 454 768
2019-12-06 15:21:20 GMT 48.555359 14.100952 31,100 287 452 832
2019-12-06 15:21:17 GMT 48.555359 14.100952 31,075 287 452 832
2019-12-06 15:21:13 GMT 48.553566 14.110204 31,050 287 450 832
2019-12-06 15:21:10 GMT 48.552074 14.117865 31,000 287 450 1344
2019-12-06 15:21:07 GMT 48.549561 14.131092 30,950 287 451 960
2019-12-06 15:21:01 GMT 48.546341 14.147855 30,825 287 450 1216
2019-12-06 15:20:57 GMT 48.544281 14.158349 30,750 287 453 960
2019-12-06 15:20:54 GMT 48.542019 14.170123 30,675 287 450 1408
2019-12-06 15:20:51 GMT 48.538715 14.187253 30,600 287 451 1408
2019-12-06 15:20:48 GMT 48.538715 14.187253 30,525 287 451 1408
2019-12-06 15:20:42 GMT 48.535271 14.205250 30,400 287 453 1280
2019-12-06 15:20:39 GMT 48.531647 14.223774 30,325 287 453 1216
2019-12-06 15:20:36 GMT 48.531647 14.223774 30,275 287 453 1088
2019-12-06 15:20:30 GMT 48.528381 14.240739 30,175 287 452 896
2019-12-06 15:20:23 GMT 48.522842 14.269361 30,050 287 451 896
2019-12-06 15:20:17 GMT 48.520653 14.280564 29,975 287 450 1024
2019-12-06 15:20:13 GMT 48.518559 14.291334 29,900 287 450 1024
2019-12-06 15:20:10 GMT 48.513153 14.319059 29,725 287 449 960
2019-12-06 15:20:05 GMT 48.513153 14.319059 29,775 287 449 960
2019-12-06 15:20:02 GMT 48.511806 14.325955 29,700 287 449 960
2019-12-06 15:19:59 GMT 48.509808 14.336363 29,700 287 449 896
2019-12-06 15:19:55 GMT 48.505692 14.357441 29,600 287 448 896
2019-12-06 15:19:52 GMT 48.505692 14.357441 29,575 287 447 896
2019-12-06 15:19:48 GMT 48.503723 14.367371 29,475 287 442 1152
2019-12-06 15:19:44 GMT 48.501617 14.378216 29,500 287 446 1024
2019-12-06 15:19:41 GMT 48.499844 14.387175 29,400 287 446 1024
2019-12-06 15:19:38 GMT 48.497795 14.397655 29,325 287 445 1024
2019-12-06 15:19:35 GMT 48.496628 14.403569 29,300 287 446 1024
2019-12-06 15:19:29 GMT 48.492908 14.422447 29,200 287 445 960
2019-12-06 15:19:26 GMT 48.488811 14.443408 29,050 287 444 960
2019-12-06 15:19:19 GMT 48.486969 14.452796 28,650 287 443 1024
2019-12-06 15:19:14 GMT 48.483902 14.468360 28,975 287 443 1088
2019-12-06 15:19:10 GMT 48.481522 14.480473 28,850 287 442 1152
2019-12-06 15:19:07 GMT 48.480057 14.487939 28,750 287 442 1216
2019-12-06 15:19:04 GMT 48.478432 14.496243 28,725 287 442 1216
2019-12-06 15:19:00 GMT 48.475571 14.510897 28,650 287 441 1280
2019-12-06 15:18:56 GMT 48.471867 14.529708 28,550 287 441 1344
2019-12-06 15:18:53 GMT 48.471867 14.529708 28,500 287 441 1344
2019-12-06 15:18:49 GMT 48.469540 14.541273 28,400 287 441 1408
2019-12-06 15:18:45 GMT 48.465954 14.559559 28,275 287 441 1280
2019-12-06 15:18:39 GMT 48.461380 14.582801 28,150 287 440 960
2019-12-06 15:18:35 GMT 48.461380 14.582801 28,125 287 440 960
2019-12-06 15:18:32 GMT 48.459320 14.593224 28,025 287 439 832
2019-12-06 15:18:29 GMT 48.456345 14.608225 28,000 287 439 832
2019-12-06 15:18:26 GMT 48.456345 14.608225 27,950 287 437 960
2019-12-06 15:18:23 GMT 48.454456 14.618032 27,950 287 437 896
2019-12-06 15:18:19 GMT 48.451801 14.631404 27,875 287 437 960
2019-12-06 15:18:16 GMT 48.450684 14.637114 27,825 287 435 1536
2019-12-06 15:18:13 GMT 48.448589 14.647450 27,750 287 435 1472
2019-12-06 15:18:09 GMT 48.444214 14.669424 27,550 287 436 1408
2019-12-06 15:18:06 GMT 48.444214 14.669424 27,400 287 436 1664
2019-12-06 15:18:03 GMT 48.440678 14.687275 27,350 287 436 1600
2019-12-06 15:17:59 GMT 48.440678 14.687275 27,350 287 436 1600
2019-12-06 15:17:56 GMT 48.438766 14.696816 27,300 287 436 1536
2019-12-06 15:17:53 GMT 48.437229 14.704477 27,225 287 436 1408
2019-12-06 15:17:50 GMT 48.435104 14.715060 27,150 287 435 1216
2019-12-06 15:17:47 GMT 48.433594 14.722736 27,050 287 435 1152
2019-12-06 15:17:43 GMT 48.431786 14.731654 27,050 287 435 1152
2019-12-06 15:17:40 GMT 48.429783 14.741773 26,950 287 434 1088
2019-12-06 15:17:37 GMT 48.428329 14.749005 26,925 287 433 1088
2019-12-06 15:17:33 GMT 48.425964 14.760855 26,875 287 433 1088
2019-12-06 15:17:27 GMT 48.422565 14.777768 26,750 287 432 1152
2019-12-06 15:17:23 GMT 48.420147 14.789838 26,575 287 430 1408
2019-12-06 15:17:20 GMT 48.417912 14.801114 26,575 287 430 1344
2019-12-06 15:17:17 GMT 48.414734 14.816895 26,525 287 428 1216
2019-12-06 15:17:14 GMT 48.414734 14.816895 26,425 287 430 1536
2019-12-06 15:17:11 GMT 48.413025 14.825472 26,375 287 430 1600
2019-12-06 15:17:08 GMT 48.411392 14.833444 26,275 287 430 1600
2019-12-06 15:17:04 GMT 48.409103 14.844924 26,200 287 429 1408
2019-12-06 15:17:01 GMT 48.405121 14.864784 26,075 287 429 1280
2019-12-06 15:16:58 GMT 48.402649 14.877038 26,025 287 428 1216
2019-12-06 15:16:53 GMT 48.402649 14.877038 25,900 287 428 1216
2019-12-06 15:16:48 GMT 48.399490 14.892883 25,825 287 426 1600
2019-12-06 15:16:45 GMT 48.398254 14.899151 25,725 287 426 1408
2019-12-06 15:16:42 GMT 48.396404 14.908375 25,700 287 426 1472
2019-12-06 15:16:37 GMT 48.391342 14.933448 25,525 287 426 1728
2019-12-06 15:16:34 GMT 48.391342 14.933448 25,475 287 426 1728
2019-12-06 15:16:31 GMT 48.390198 14.939153 25,425 287 426 1728
2019-12-06 15:16:26 GMT 48.387772 14.951195 25,275 287 426 1664
2019-12-06 15:16:22 GMT 48.385162 14.964083 25,175 287 426 1664
2019-12-06 15:16:17 GMT 48.381683 14.981267 25,000 287 426 1600
2019-12-06 15:16:11 GMT 48.378902 14.995181 24,875 287 425 1472
2019-12-06 15:16:05 GMT 48.375870 15.010212 24,775 287 425 1472
2019-12-06 15:16:01 GMT 48.373260 15.023170 24,350 287 422 1408
2019-12-06 15:15:55 GMT 48.370056 15.039016 24,500 287 423 1408
2019-12-06 15:15:52 GMT 48.367493 15.051692 24,400 287 423 1472
2019-12-06 15:15:46 GMT 48.364750 15.065219 24,250 287 421 1280
2019-12-06 15:15:41 GMT 48.359859 15.089360 24,100 287 420 1216
2019-12-06 15:15:38 GMT 48.357395 15.101503 24,025 287 419 1216
2019-12-06 15:15:34 GMT 48.356232 15.107141 24,000 287 418 1280
2019-12-06 15:15:31 GMT 48.356232 15.107141 23,975 287 418 1280
2019-12-06 15:15:24 GMT 48.352295 15.126484 23,775 288 416 1344
2019-12-06 15:15:21 GMT 48.350601 15.134794 23,750 288 416 1344
2019-12-06 15:15:15 GMT 48.344547 15.164458 23,475 287 414 1472
2019-12-06 15:15:10 GMT 48.344547 15.164458 23,475 287 414 1408
2019-12-06 15:15:07 GMT 48.342823 15.172842 23,425 288 411 1472
2019-12-06 15:15:04 GMT 48.340961 15.182021 23,325 288 412 1408
2019-12-06 15:15:01 GMT 48.338867 15.192285 23,250 288 412 1408
2019-12-06 15:14:56 GMT 48.336456 15.204092 23,150 288 411 1536
2019-12-06 15:14:53 GMT 48.334255 15.214908 23,025 288 409 1600
2019-12-06 15:14:46 GMT 48.331284 15.229445 22,650 288 408 1664
2019-12-06 15:14:43 GMT 48.328812 15.241506 22,775 288 409 1600
2019-12-06 15:14:40 GMT 48.327438 15.248319 22,775 288 409 1664
2019-12-06 15:14:37 GMT 48.326065 15.255010 22,525 288 409 1664
2019-12-06 15:14:34 GMT 48.324669 15.261744 22,575 288 408 1664
2019-12-06 15:14:30 GMT 48.321991 15.274729 22,425 288 408 1600
2019-12-06 15:14:25 GMT 48.319035 15.289283 22,300 288 407 1536
2019-12-06 15:14:21 GMT 48.316040 15.303885 22,175 288 405 1472
2019-12-06 15:14:17 GMT 48.314346 15.312054 22,000 288 403 1472
2019-12-06 15:14:13 GMT 48.312241 15.322477 21,950 288 401 1728
2019-12-06 15:14:10 GMT 48.310638 15.330224 21,925 288 402 1536
2019-12-06 15:14:06 GMT 48.306702 15.349309 21,800 288 401 1536
2019-12-06 15:14:03 GMT 48.306702 15.349309 21,700 288 401 1600
2019-12-06 15:13:59 GMT 48.305347 15.355996 21,675 288 401 1664
2019-12-06 15:13:54 GMT 48.302368 15.370451 21,250 290 400 2112
2019-12-06 15:13:50 GMT 48.300110 15.381493 21,450 288 400 1856
2019-12-06 15:13:43 GMT 48.296738 15.397700 21,200 288 400 1984
2019-12-06 15:13:40 GMT 48.294224 15.409482 21,050 289 400 2112
2019-12-06 15:13:34 GMT 48.290871 15.423937 20,875 290 400 1984
2019-12-06 15:13:29 GMT 48.287933 15.436284 20,625 290 398 1600
2019-12-06 15:13:25 GMT 48.285378 15.446850 20,025 290 398 1600
2019-12-06 15:13:21 GMT 48.282352 15.459643 20,500 290 398 1600
2019-12-06 15:13:18 GMT 48.281281 15.464052 20,450 290 397 1536
2019-12-06 15:13:14 GMT 48.278595 15.475440 20,025 290 391 1472
2019-12-06 15:13:11 GMT 48.275322 15.488916 20,175 290 394 1600
2019-12-06 15:13:01 GMT 48.271042 15.507058 20,025 290 391 1472
2019-12-06 15:12:58 GMT 48.268524 15.517555 19,900 290 389 1280
2019-12-06 15:12:53 GMT 48.262802 15.541570 19,750 290 386 1280
2019-12-06 15:12:48 GMT 48.262802 15.541570 19,700 290 383 1856
2019-12-06 15:12:45 GMT 48.260742 15.549950 19,600 290 383 1792
2019-12-06 15:12:39 GMT 48.257355 15.564176 19,425 290 382 2176
2019-12-06 15:12:36 GMT 48.255909 15.570229 19,325 290 382 2432
2019-12-06 15:12:33 GMT 48.253555 15.580092 19,175 290 382 2368
2019-12-06 15:12:29 GMT 48.251114 15.590178 19,000 290 382 1920
2019-12-06 15:12:26 GMT 48.249531 15.596683 18,950 290 381 1600
2019-12-06 15:12:21 GMT 48.246784 15.608031 18,825 290 378 1472
2019-12-06 15:12:17 GMT 48.244690 15.616849 18,700 290 378 1344
2019-12-06 15:12:14 GMT 48.242340 15.626502 18,550 290 376 1472
2019-12-06 15:12:10 GMT 48.240005 15.636292 18,575 290 376 1600
2019-12-06 15:12:07 GMT 48.237614 15.646121 18,225 290 374 2176
2019-12-06 15:12:04 GMT 48.236126 15.652482 18,325 290 374 2240
2019-12-06 15:12:01 GMT 48.234680 15.658409 18,275 290 372 2368
2019-12-06 15:11:58 GMT 48.232727 15.666504 18,100 290 372 2432
2019-12-06 15:11:55 GMT 48.231216 15.672772 18,000 290 372 2496
2019-12-06 15:11:52 GMT 48.229191 15.681176 17,850 290 373 2368
2019-12-06 15:11:48 GMT 48.227097 15.689955 17,700 290 373 2304
2019-12-06 15:11:44 GMT 48.225311 15.697421 17,625 290 371 1920
2019-12-06 15:11:40 GMT 48.222530 15.708859 17,475 290 371 1984
2019-12-06 15:11:36 GMT 48.220139 15.718759 17,350 290 371 2112
2019-12-06 15:11:31 GMT 48.216900 15.732277 17,125 290 368 2240
2019-12-06 15:11:26 GMT 48.214245 15.743264 16,950 290 368 2112
2019-12-06 15:11:20 GMT 48.211033 15.756563 16,775 290 366 1984
2019-12-06 15:11:16 GMT 48.208660 15.766393 16,650 290 366 1856
2019-12-06 15:11:13 GMT 48.205029 15.781571 16,475 290 365 1728
2019-12-06 15:11:10 GMT 48.203400 15.788293 16,300 290 362 1920
2019-12-06 15:11:03 GMT 48.199677 15.803616 16,200 290 362 2112
2019-12-06 15:11:00 GMT 48.197021 15.814675 16,050 290 360 2176
2019-12-06 15:10:56 GMT 48.197021 15.814675 15,950 290 360 2368
2019-12-06 15:10:52 GMT 48.194504 15.825031 15,775 290 360 2752
2019-12-06 15:10:46 GMT 48.191025 15.839398 15,475 290 360 3008
2019-12-06 15:10:40 GMT 48.187759 15.852693 15,100 291 361 3136
2019-12-06 15:10:35 GMT 48.185478 15.862162 14,875 291 363 2752
2019-12-06 15:10:32 GMT 48.183754 15.869100 14,800 291 363 2496
2019-12-06 15:10:29 GMT 48.181660 15.877629 13,775 290 362 2304
2019-12-06 15:10:23 GMT 48.178680 15.889989 14,525 291 361 1856
2019-12-06 15:10:19 GMT 48.175934 15.901409 14,375 290 358 1792
2019-12-06 15:10:13 GMT 48.173126 15.912851 14,225 290 357 1920
2019-12-06 15:10:08 GMT 48.170254 15.924827 13,775 290 355 2048
2019-12-06 15:10:04 GMT 48.167229 15.937042 13,875 291 353 2368
2019-12-06 15:09:58 GMT 48.164249 15.949402 13,150 291 351 2560
2019-12-06 15:09:54 GMT 48.159824 15.967360 13,325 291 350 2304
2019-12-06 15:09:50 GMT 48.159824 15.967360 13,300 291 350 2496
2019-12-06 15:09:42 GMT 48.155777 15.983910 13,025 291 348 2048
2019-12-06 15:09:37 GMT 48.152748 15.996094 12,875 291 348 1856
2019-12-06 15:09:34 GMT 48.150562 16.005108 12,700 291 342 1408
2019-12-06 15:09:30 GMT 48.147259 16.018629 12,425 291 338 1600
2019-12-06 15:09:22 GMT 48.144653 16.029327 12,450 291 335 1984
2019-12-06 15:09:18 GMT 48.141907 16.040451 12,250 291 333 2368
2019-12-06 15:09:11 GMT 48.138931 16.052742 11,625 291 332 2752
2019-12-06 15:09:07 GMT 48.136597 16.062223 11,850 291 332 2944
2019-12-06 15:09:01 GMT 48.133526 16.074688 11,000 291 329 1984
2019-12-06 15:08:56 GMT 48.130730 16.086239 11,300 291 329 2112
2019-12-06 15:08:52 GMT 48.125423 16.107859 11,000 291 325 1664
2019-12-06 15:08:46 GMT 48.125423 16.107859 11,025 291 322 1408
2019-12-06 15:08:43 GMT 48.123749 16.114691 10,900 291 318 1088
2019-12-06 15:08:36 GMT 48.120483 16.127998 10,825 291 310 1024
2019-12-06 15:08:33 GMT 48.116318 16.145096 10,775 291 307 1024
2019-12-06 15:08:27 GMT 48.116043 16.146126 10,525 291 299 1088
2019-12-06 15:08:21 GMT 48.112885 16.158966 10,475 291 293 1152
2019-12-06 15:08:15 GMT 48.110714 16.167648 10,475 291 288 1152
2019-12-06 15:08:08 GMT 48.106895 16.182932 10,275 291 278 1856
2019-12-06 15:07:59 GMT 48.103497 16.197298 9,950 287 272 2880
2019-12-06 15:07:55 GMT 48.102242 16.204481 9,750 282 271 2816
2019-12-06 15:07:50 GMT 48.101124 16.215609 9,500 275 270 2432
2019-12-06 15:07:46 GMT 48.100891 16.221931 9,250 272 268 2688
2019-12-06 15:07:42 GMT 48.100662 16.234772 9,100 272 266 2944
2019-12-06 15:07:35 GMT 48.100567 16.240822 8,825 272 265 3136
2019-12-06 15:07:32 GMT 48.100380 16.249413 8,625 272 265 3264
2019-12-06 15:07:29 GMT 48.100296 16.254822 8,475 272 265 3328
2019-12-06 15:07:26 GMT 48.100101 16.265047 8,150 272 265 3328
2019-12-06 15:07:19 GMT 48.100021 16.272606 7,900 272 265 3456
2019-12-06 15:07:16 GMT 48.099976 16.276245 7,625 272 265 3264
2019-12-06 15:07:10 GMT 48.099728 16.290190 7,400 272 264 2944
2019-12-06 15:07:05 GMT 48.099609 16.296776 7,250 272 263 2816
2019-12-06 15:07:01 GMT 48.099449 16.303782 5,850 270 233 2304
2019-12-06 15:06:58 GMT 48.099308 16.309628 6,975 272 260 2624
2019-12-06 15:06:53 GMT 48.099075 16.319063 6,675 273 257 2496
2019-12-06 15:06:48 GMT 48.098877 16.328156 6,475 273 252 2176
2019-12-06 15:06:44 GMT 48.098701 16.334627 6,375 273 250 2112
2019-12-06 15:06:38 GMT 48.098419 16.345940 6,175 272 243 2048
2019-12-06 15:06:34 GMT 48.098331 16.351389 6,025 272 238 2048
2019-12-06 15:06:28 GMT 48.098286 16.361319 5,850 266 230 2624
2019-12-06 15:06:24 GMT 48.098423 16.366812 5,650 266 230 2624
2019-12-06 15:06:21 GMT 48.099335 16.377045 5,375 260 228 3392
2019-12-06 15:06:18 GMT 48.099335 16.377045 3,425 257 227 3968
2019-12-06 15:06:12 GMT 48.100845 16.386726 5,050 257 227 3968
2019-12-06 15:06:09 GMT 48.101624 16.391258 4,775 256 236 4288
2019-12-06 15:06:04 GMT 48.102859 16.398674 4,350 256 232 4608
2019-12-06 15:06:01 GMT 48.103638 16.403151 4,125 256 234 4608
2019-12-06 15:05:58 GMT 48.104477 16.407869 3,900 256 238 3840
2019-12-06 15:05:53 GMT 48.106430 16.419136 3,425 256 238 3712
2019-12-06 15:05:50 GMT 48.108353 16.430122 3,200 255 239 3328
2019-12-06 15:05:44 GMT 48.108353 16.430122 2,950 255 238 2944
2019-12-06 15:05:41 GMT 48.109451 16.435959 2,875 255 237 2688
2019-12-06 15:05:33 GMT 48.111877 16.448788 2,550 255 229 2112
2019-12-06 15:05:29 GMT 48.112904 16.454281 2,450 254 227 1920
2019-12-06 15:05:22 GMT 48.114811 16.463928 2,300 254 216 1024
2019-12-06 15:05:19 GMT 48.115540 16.467545 2,250 254 212 960
2019-12-06 15:05:13 GMT 48.117233 16.476196 2,125 254 201 1216
2019-12-06 15:05:10 GMT 48.118160 16.480970 2,075 255 199 1216
2019-12-06 15:05:03 GMT 48.119705 16.489586 1,950 256 191 1216
2019-12-06 15:04:59 GMT 48.120575 16.494598 1,875 258 186 1088
2019-12-06 15:04:51 GMT 48.121887 16.504000 1,725 261 178 1088
2019-12-06 15:04:48 GMT 48.122257 16.507591 1,675 262 176 1216
2019-12-06 15:04:41 GMT 48.123093 16.517601 1,500 264 170 1344
2019-12-06 15:04:38 GMT 48.123322 16.519936 1,450 263 167 1792
2019-12-06 15:04:31 GMT 48.123421 16.528015 1,175 277 164 2240
2019-12-06 15:04:28 GMT 48.123051 16.531183 1,075 285 166 2368
2019-12-06 15:04:19 GMT 48.120628 16.540409 725 298 167 2176
2019-12-06 15:04:09 GMT 48.116859 16.551678 350 296 164 256

Making use of Plane Finder data

You are free to use the raw flight data, aircraft information and images provided in this report for your own purposes provided the data is correctly attributed to Plane Finder. We ask that you please credit Plane Finder and link to planefinder.net in close proximity to the content.

Optionally one of the following logos (no smaller then 150x24px) can be used and must link to planefinder.net

Embedding the Plane Finder map

You are welcome to embed the Plane Finder playback map on your website to offer visitors a more interactive experience. We suggest using the following HTML code:

<iframe src="//planefinder.net/data/report/OE1342-OE-IBJ-7700-squawk-2019-12-06/map" width="800" height="600" seamless="seamless"></iframe>

Where our data comes from

Plane Finder has a global network of data feeds and antenna radars that receive data broadcast directly from aircraft. The primary technologies used are ADS-B and MLAT. We also show feeds from the FAA and a FLARM glider feed.

Click here to find out more about the Plane Finder network.

How we collect our data